<?xml version="1.0" encoding="UTF-8" standalone="no" ?>
<gpx xmlns="http://www.topografix.com/GPX/1/1" xmlns:xsi="http://www.w3.org/2001/XMLSchema-instance" xsi:schemaLocation="http://www.topografix.com/GPX/1/1 http://www.topografix.com/GPX/1/1/gpx.xsd" version="1.1" creator="VisuGPX - https://www.visugpx.com">
  <metadata>
    <name>RANDO VENTEUGES PEBRAC 17 KM</name>
    <desc><![CDATA[RANDO VENTEUGES PEBRAC 17 KM.DEPART ARRIVEE VENTEUGES.LE CHASTELET.PEBRAC.MAILHOT.FOUGERE]]></desc>
  </metadata>
  <trk>
    <name><![CDATA[05-AOU-21 15:18:20]]></name>
    <extensions>
      <line xmlns="http://www.topografix.com/GPX/gpx_style/0/2">
        <color>0000FF</color>
        <width>4</width>
      </line>
    </extensions>
    <trkseg>
      <trkpt lat="44.98474" lon="3.49847">
        <ele>1067.2</ele>
        <time>2021-08-05T08:01:53Z</time>
      </trkpt>
      <trkpt lat="44.98492" lon="3.49853">
        <ele>1065.76</ele>
        <time>2021-08-05T08:02:11Z</time>
      </trkpt>
      <trkpt lat="44.98499" lon="3.49855">
        <ele>1065.76</ele>
        <time>2021-08-05T08:02:18Z</time>
      </trkpt>
      <trkpt lat="44.98504" lon="3.49857">
        <ele>1065.76</ele>
        <time>2021-08-05T08:02:22Z</time>
      </trkpt>
      <trkpt lat="44.98507" lon="3.49858">
        <ele>1065.76</ele>
        <time>2021-08-05T08:02:25Z</time>
      </trkpt>
      <trkpt lat="44.98518" lon="3.49857">
        <ele>1068.16</ele>
        <time>2021-08-05T08:02:38Z</time>
      </trkpt>
      <trkpt lat="44.9853" lon="3.49862">
        <ele>1070.08</ele>
        <time>2021-08-05T08:02:52Z</time>
      </trkpt>
      <trkpt lat="44.98533" lon="3.49865">
        <ele>1070.57</ele>
        <time>2021-08-05T08:02:55Z</time>
      </trkpt>
      <trkpt lat="44.98543" lon="3.49872">
        <ele>1071.05</ele>
        <time>2021-08-05T08:03:05Z</time>
      </trkpt>
      <trkpt lat="44.98548" lon="3.49873">
        <ele>1071.53</ele>
        <time>2021-08-05T08:03:10Z</time>
      </trkpt>
      <trkpt lat="44.98551" lon="3.49874">
        <ele>1072.01</ele>
        <time>2021-08-05T08:03:12Z</time>
      </trkpt>
      <trkpt lat="44.9857" lon="3.49882">
        <ele>1073.45</ele>
        <time>2021-08-05T08:03:27Z</time>
      </trkpt>
      <trkpt lat="44.9859" lon="3.49882">
        <ele>1074.89</ele>
        <time>2021-08-05T08:03:43Z</time>
      </trkpt>
      <trkpt lat="44.98595" lon="3.4988">
        <ele>1075.37</ele>
        <time>2021-08-05T08:03:47Z</time>
      </trkpt>
      <trkpt lat="44.98599" lon="3.49857">
        <ele>1076.81</ele>
        <time>2021-08-05T08:04:02Z</time>
      </trkpt>
      <trkpt lat="44.98602" lon="3.49826">
        <ele>1076.81</ele>
        <time>2021-08-05T08:04:22Z</time>
      </trkpt>
      <trkpt lat="44.98614" lon="3.49797">
        <ele>1079.22</ele>
        <time>2021-08-05T08:04:42Z</time>
      </trkpt>
      <trkpt lat="44.98613" lon="3.4977">
        <ele>1079.7</ele>
        <time>2021-08-05T08:04:59Z</time>
      </trkpt>
      <trkpt lat="44.9861" lon="3.49759">
        <ele>1080.18</ele>
        <time>2021-08-05T08:05:07Z</time>
      </trkpt>
      <trkpt lat="44.98607" lon="3.49753">
        <ele>1080.18</ele>
        <time>2021-08-05T08:05:11Z</time>
      </trkpt>
      <trkpt lat="44.98598" lon="3.49715">
        <ele>1080.66</ele>
        <time>2021-08-05T08:05:31Z</time>
      </trkpt>
      <trkpt lat="44.98592" lon="3.49684">
        <ele>1081.14</ele>
        <time>2021-08-05T08:05:50Z</time>
      </trkpt>
      <trkpt lat="44.98587" lon="3.49652">
        <ele>1082.1</ele>
        <time>2021-08-05T08:06:10Z</time>
      </trkpt>
      <trkpt lat="44.98583" lon="3.49629">
        <ele>1082.1</ele>
        <time>2021-08-05T08:06:25Z</time>
      </trkpt>
      <trkpt lat="44.98579" lon="3.49594">
        <ele>1082.58</ele>
        <time>2021-08-05T08:06:45Z</time>
      </trkpt>
      <trkpt lat="44.98582" lon="3.49569">
        <ele>1083.54</ele>
        <time>2021-08-05T08:07:00Z</time>
      </trkpt>
      <trkpt lat="44.98591" lon="3.49538">
        <ele>1085.47</ele>
        <time>2021-08-05T08:07:17Z</time>
      </trkpt>
      <trkpt lat="44.98601" lon="3.49501">
        <ele>1087.39</ele>
        <time>2021-08-05T08:07:38Z</time>
      </trkpt>
      <trkpt lat="44.98614" lon="3.49462">
        <ele>1087.87</ele>
        <time>2021-08-05T08:08:00Z</time>
      </trkpt>
      <trkpt lat="44.98629" lon="3.4943">
        <ele>1087.87</ele>
        <time>2021-08-05T08:08:19Z</time>
      </trkpt>
      <trkpt lat="44.98651" lon="3.49396">
        <ele>1088.35</ele>
        <time>2021-08-05T08:08:41Z</time>
      </trkpt>
      <trkpt lat="44.98681" lon="3.49366">
        <ele>1088.35</ele>
        <time>2021-08-05T08:09:06Z</time>
      </trkpt>
      <trkpt lat="44.98694" lon="3.49358">
        <ele>1088.35</ele>
        <time>2021-08-05T08:09:16Z</time>
      </trkpt>
      <trkpt lat="44.98701" lon="3.49355">
        <ele>1087.87</ele>
        <time>2021-08-05T08:09:21Z</time>
      </trkpt>
      <trkpt lat="44.98727" lon="3.4934">
        <ele>1087.87</ele>
        <time>2021-08-05T08:09:42Z</time>
      </trkpt>
      <trkpt lat="44.9875" lon="3.49325">
        <ele>1087.87</ele>
        <time>2021-08-05T08:10:02Z</time>
      </trkpt>
      <trkpt lat="44.98777" lon="3.49307">
        <ele>1087.87</ele>
        <time>2021-08-05T08:10:24Z</time>
      </trkpt>
      <trkpt lat="44.98798" lon="3.49296">
        <ele>1087.87</ele>
        <time>2021-08-05T08:10:41Z</time>
      </trkpt>
      <trkpt lat="44.98803" lon="3.49295">
        <ele>1087.87</ele>
        <time>2021-08-05T08:10:45Z</time>
      </trkpt>
      <trkpt lat="44.98832" lon="3.49289">
        <ele>1086.43</ele>
        <time>2021-08-05T08:11:07Z</time>
      </trkpt>
      <trkpt lat="44.9885" lon="3.49285">
        <ele>1085.95</ele>
        <time>2021-08-05T08:11:20Z</time>
      </trkpt>
      <trkpt lat="44.98868" lon="3.49277">
        <ele>1085.95</ele>
        <time>2021-08-05T08:11:35Z</time>
      </trkpt>
      <trkpt lat="44.9889" lon="3.49264">
        <ele>1085.47</ele>
        <time>2021-08-05T08:11:54Z</time>
      </trkpt>
      <trkpt lat="44.98911" lon="3.49255">
        <ele>1084.5</ele>
        <time>2021-08-05T08:12:13Z</time>
      </trkpt>
      <trkpt lat="44.98938" lon="3.49246">
        <ele>1082.58</ele>
        <time>2021-08-05T08:12:35Z</time>
      </trkpt>
      <trkpt lat="44.98961" lon="3.49239">
        <ele>1082.58</ele>
        <time>2021-08-05T08:12:53Z</time>
      </trkpt>
      <trkpt lat="44.98982" lon="3.49232">
        <ele>1083.06</ele>
        <time>2021-08-05T08:13:10Z</time>
      </trkpt>
      <trkpt lat="44.99004" lon="3.49226">
        <ele>1083.54</ele>
        <time>2021-08-05T08:13:28Z</time>
      </trkpt>
      <trkpt lat="44.99012" lon="3.49223">
        <ele>1084.02</ele>
        <time>2021-08-05T08:13:35Z</time>
      </trkpt>
      <trkpt lat="44.99028" lon="3.49221">
        <ele>1084.99</ele>
        <time>2021-08-05T08:13:47Z</time>
      </trkpt>
      <trkpt lat="44.99037" lon="3.49217">
        <ele>1084.99</ele>
        <time>2021-08-05T08:13:55Z</time>
      </trkpt>
      <trkpt lat="44.99043" lon="3.49216">
        <ele>1085.47</ele>
        <time>2021-08-05T08:14:00Z</time>
      </trkpt>
      <trkpt lat="44.99066" lon="3.49205">
        <ele>1084.99</ele>
        <time>2021-08-05T08:14:19Z</time>
      </trkpt>
      <trkpt lat="44.99088" lon="3.49194">
        <ele>1083.54</ele>
        <time>2021-08-05T08:14:37Z</time>
      </trkpt>
      <trkpt lat="44.99111" lon="3.49183">
        <ele>1080.66</ele>
        <time>2021-08-05T08:14:55Z</time>
      </trkpt>
      <trkpt lat="44.99137" lon="3.49167">
        <ele>1078.74</ele>
        <time>2021-08-05T08:15:16Z</time>
      </trkpt>
      <trkpt lat="44.99156" lon="3.49156">
        <ele>1077.29</ele>
        <time>2021-08-05T08:15:33Z</time>
      </trkpt>
      <trkpt lat="44.99158" lon="3.49156">
        <ele>1076.81</ele>
        <time>2021-08-05T08:15:35Z</time>
      </trkpt>
      <trkpt lat="44.9918" lon="3.49144">
        <ele>1075.85</ele>
        <time>2021-08-05T08:15:54Z</time>
      </trkpt>
      <trkpt lat="44.99203" lon="3.49134">
        <ele>1074.41</ele>
        <time>2021-08-05T08:16:14Z</time>
      </trkpt>
      <trkpt lat="44.99232" lon="3.49129">
        <ele>1073.93</ele>
        <time>2021-08-05T08:16:37Z</time>
      </trkpt>
      <trkpt lat="44.99261" lon="3.49136">
        <ele>1072.49</ele>
        <time>2021-08-05T08:17:00Z</time>
      </trkpt>
      <trkpt lat="44.99284" lon="3.49141">
        <ele>1073.45</ele>
        <time>2021-08-05T08:17:19Z</time>
      </trkpt>
      <trkpt lat="44.99308" lon="3.49146">
        <ele>1073.45</ele>
        <time>2021-08-05T08:17:37Z</time>
      </trkpt>
      <trkpt lat="44.99333" lon="3.49154">
        <ele>1071.53</ele>
        <time>2021-08-05T08:17:57Z</time>
      </trkpt>
      <trkpt lat="44.99349" lon="3.49158">
        <ele>1070.57</ele>
        <time>2021-08-05T08:18:11Z</time>
      </trkpt>
      <trkpt lat="44.99355" lon="3.49163">
        <ele>1071.05</ele>
        <time>2021-08-05T08:18:16Z</time>
      </trkpt>
      <trkpt lat="44.99374" lon="3.49168">
        <ele>1071.53</ele>
        <time>2021-08-05T08:18:32Z</time>
      </trkpt>
      <trkpt lat="44.99402" lon="3.49177">
        <ele>1072.49</ele>
        <time>2021-08-05T08:18:53Z</time>
      </trkpt>
      <trkpt lat="44.99421" lon="3.49186">
        <ele>1071.53</ele>
        <time>2021-08-05T08:19:09Z</time>
      </trkpt>
      <trkpt lat="44.99433" lon="3.49193">
        <ele>1071.05</ele>
        <time>2021-08-05T08:19:19Z</time>
      </trkpt>
      <trkpt lat="44.99448" lon="3.49201">
        <ele>1071.05</ele>
        <time>2021-08-05T08:19:33Z</time>
      </trkpt>
      <trkpt lat="44.99468" lon="3.49211">
        <ele>1072.49</ele>
        <time>2021-08-05T08:19:49Z</time>
      </trkpt>
      <trkpt lat="44.99487" lon="3.49225">
        <ele>1075.85</ele>
        <time>2021-08-05T08:20:05Z</time>
      </trkpt>
      <trkpt lat="44.99507" lon="3.49237">
        <ele>1077.78</ele>
        <time>2021-08-05T08:20:21Z</time>
      </trkpt>
      <trkpt lat="44.99523" lon="3.49246">
        <ele>1076.81</ele>
        <time>2021-08-05T08:20:35Z</time>
      </trkpt>
      <trkpt lat="44.99532" lon="3.49249">
        <ele>1073.93</ele>
        <time>2021-08-05T08:20:42Z</time>
      </trkpt>
      <trkpt lat="44.99556" lon="3.49263">
        <ele>1073.45</ele>
        <time>2021-08-05T08:21:01Z</time>
      </trkpt>
      <trkpt lat="44.99573" lon="3.49271">
        <ele>1075.37</ele>
        <time>2021-08-05T08:21:15Z</time>
      </trkpt>
      <trkpt lat="44.99594" lon="3.49282">
        <ele>1076.33</ele>
        <time>2021-08-05T08:21:31Z</time>
      </trkpt>
      <trkpt lat="44.99614" lon="3.49294">
        <ele>1077.29</ele>
        <time>2021-08-05T08:21:48Z</time>
      </trkpt>
      <trkpt lat="44.99632" lon="3.49312">
        <ele>1078.74</ele>
        <time>2021-08-05T08:22:05Z</time>
      </trkpt>
      <trkpt lat="44.99638" lon="3.49319">
        <ele>1079.22</ele>
        <time>2021-08-05T08:22:11Z</time>
      </trkpt>
      <trkpt lat="44.99654" lon="3.49338">
        <ele>1078.74</ele>
        <time>2021-08-05T08:22:27Z</time>
      </trkpt>
      <trkpt lat="44.9967" lon="3.49358">
        <ele>1078.26</ele>
        <time>2021-08-05T08:22:43Z</time>
      </trkpt>
      <trkpt lat="44.99685" lon="3.49376">
        <ele>1077.78</ele>
        <time>2021-08-05T08:22:58Z</time>
      </trkpt>
      <trkpt lat="44.99686" lon="3.49378">
        <ele>1077.29</ele>
        <time>2021-08-05T08:22:59Z</time>
      </trkpt>
      <trkpt lat="44.99701" lon="3.49394">
        <ele>1075.37</ele>
        <time>2021-08-05T08:23:14Z</time>
      </trkpt>
      <trkpt lat="44.9972" lon="3.49411">
        <ele>1073.93</ele>
        <time>2021-08-05T08:23:31Z</time>
      </trkpt>
      <trkpt lat="44.99735" lon="3.49425">
        <ele>1072.97</ele>
        <time>2021-08-05T08:23:47Z</time>
      </trkpt>
      <trkpt lat="44.99756" lon="3.49439">
        <ele>1071.53</ele>
        <time>2021-08-05T08:24:03Z</time>
      </trkpt>
      <trkpt lat="44.99781" lon="3.49448">
        <ele>1072.01</ele>
        <time>2021-08-05T08:24:21Z</time>
      </trkpt>
      <trkpt lat="44.99799" lon="3.49452">
        <ele>1073.45</ele>
        <time>2021-08-05T08:24:37Z</time>
      </trkpt>
      <trkpt lat="44.99803" lon="3.49454">
        <ele>1073.93</ele>
        <time>2021-08-05T08:24:40Z</time>
      </trkpt>
      <trkpt lat="44.99825" lon="3.4946">
        <ele>1074.89</ele>
        <time>2021-08-05T08:24:58Z</time>
      </trkpt>
      <trkpt lat="44.99847" lon="3.49467">
        <ele>1075.85</ele>
        <time>2021-08-05T08:25:16Z</time>
      </trkpt>
      <trkpt lat="44.99865" lon="3.49471">
        <ele>1075.85</ele>
        <time>2021-08-05T08:25:30Z</time>
      </trkpt>
      <trkpt lat="44.99884" lon="3.49477">
        <ele>1075.37</ele>
        <time>2021-08-05T08:25:48Z</time>
      </trkpt>
      <trkpt lat="44.99888" lon="3.49479">
        <ele>1075.85</ele>
        <time>2021-08-05T08:25:52Z</time>
      </trkpt>
      <trkpt lat="44.99905" lon="3.49485">
        <ele>1075.37</ele>
        <time>2021-08-05T08:26:08Z</time>
      </trkpt>
      <trkpt lat="44.99922" lon="3.49494">
        <ele>1077.29</ele>
        <time>2021-08-05T08:26:23Z</time>
      </trkpt>
      <trkpt lat="44.99941" lon="3.49511">
        <ele>1079.7</ele>
        <time>2021-08-05T08:26:39Z</time>
      </trkpt>
      <trkpt lat="44.9995" lon="3.49524">
        <ele>1079.22</ele>
        <time>2021-08-05T08:26:48Z</time>
      </trkpt>
      <trkpt lat="44.99964" lon="3.49545">
        <ele>1074.89</ele>
        <time>2021-08-05T08:27:03Z</time>
      </trkpt>
      <trkpt lat="44.99975" lon="3.49566">
        <ele>1072.97</ele>
        <time>2021-08-05T08:27:18Z</time>
      </trkpt>
      <trkpt lat="44.99987" lon="3.49592">
        <ele>1071.05</ele>
        <time>2021-08-05T08:27:35Z</time>
      </trkpt>
      <trkpt lat="44.99998" lon="3.49605">
        <ele>1067.68</ele>
        <time>2021-08-05T08:27:47Z</time>
      </trkpt>
      <trkpt lat="45.00009" lon="3.49617">
        <ele>1065.76</ele>
        <time>2021-08-05T08:27:57Z</time>
      </trkpt>
      <trkpt lat="45.00023" lon="3.49641">
        <ele>1063.36</ele>
        <time>2021-08-05T08:28:15Z</time>
      </trkpt>
      <trkpt lat="45.00035" lon="3.49659">
        <ele>1062.87</ele>
        <time>2021-08-05T08:28:23Z</time>
      </trkpt>
      <trkpt lat="45.00049" lon="3.49679">
        <ele>1061.43</ele>
        <time>2021-08-05T08:28:37Z</time>
      </trkpt>
      <trkpt lat="45.00061" lon="3.49699">
        <ele>1061.91</ele>
        <time>2021-08-05T08:28:51Z</time>
      </trkpt>
      <trkpt lat="45.00076" lon="3.49728">
        <ele>1063.36</ele>
        <time>2021-08-05T08:29:07Z</time>
      </trkpt>
      <trkpt lat="45.00085" lon="3.49741">
        <ele>1062.39</ele>
        <time>2021-08-05T08:29:17Z</time>
      </trkpt>
      <trkpt lat="45.00089" lon="3.49747">
        <ele>1061.91</ele>
        <time>2021-08-05T08:29:21Z</time>
      </trkpt>
      <trkpt lat="45.00097" lon="3.49757">
        <ele>1059.99</ele>
        <time>2021-08-05T08:29:30Z</time>
      </trkpt>
      <trkpt lat="45.00103" lon="3.49774">
        <ele>1059.03</ele>
        <time>2021-08-05T08:29:41Z</time>
      </trkpt>
      <trkpt lat="45.00107" lon="3.49781">
        <ele>1057.59</ele>
        <time>2021-08-05T08:29:46Z</time>
      </trkpt>
      <trkpt lat="45.00112" lon="3.49789">
        <ele>1057.59</ele>
        <time>2021-08-05T08:29:52Z</time>
      </trkpt>
      <trkpt lat="45.00125" lon="3.49814">
        <ele>1057.11</ele>
        <time>2021-08-05T08:30:08Z</time>
      </trkpt>
      <trkpt lat="45.00137" lon="3.49831">
        <ele>1058.07</ele>
        <time>2021-08-05T08:30:22Z</time>
      </trkpt>
      <trkpt lat="45.00144" lon="3.49852">
        <ele>1059.99</ele>
        <time>2021-08-05T08:30:37Z</time>
      </trkpt>
      <trkpt lat="45.0016" lon="3.49878">
        <ele>1065.76</ele>
        <time>2021-08-05T08:30:53Z</time>
      </trkpt>
      <trkpt lat="45.00173" lon="3.49903">
        <ele>1063.36</ele>
        <time>2021-08-05T08:31:09Z</time>
      </trkpt>
      <trkpt lat="45.0019" lon="3.49927">
        <ele>1058.55</ele>
        <time>2021-08-05T08:31:25Z</time>
      </trkpt>
      <trkpt lat="45.00197" lon="3.49935">
        <ele>1058.55</ele>
        <time>2021-08-05T08:31:31Z</time>
      </trkpt>
      <trkpt lat="45.00209" lon="3.49948">
        <ele>1060.47</ele>
        <time>2021-08-05T08:31:45Z</time>
      </trkpt>
      <trkpt lat="45.00226" lon="3.4997">
        <ele>1063.84</ele>
        <time>2021-08-05T08:32:01Z</time>
      </trkpt>
      <trkpt lat="45.00241" lon="3.49983">
        <ele>1063.84</ele>
        <time>2021-08-05T08:32:15Z</time>
      </trkpt>
      <trkpt lat="45.00261" lon="3.49998">
        <ele>1060.47</ele>
        <time>2021-08-05T08:32:30Z</time>
      </trkpt>
      <trkpt lat="45.00283" lon="3.50015">
        <ele>1059.03</ele>
        <time>2021-08-05T08:32:49Z</time>
      </trkpt>
      <trkpt lat="45.00288" lon="3.50021">
        <ele>1058.55</ele>
        <time>2021-08-05T08:32:55Z</time>
      </trkpt>
      <trkpt lat="45.00306" lon="3.50034">
        <ele>1059.03</ele>
        <time>2021-08-05T08:33:10Z</time>
      </trkpt>
      <trkpt lat="45.00326" lon="3.50052">
        <ele>1059.99</ele>
        <time>2021-08-05T08:33:28Z</time>
      </trkpt>
      <trkpt lat="45.00329" lon="3.50056">
        <ele>1060.47</ele>
        <time>2021-08-05T08:33:32Z</time>
      </trkpt>
      <trkpt lat="45.00328" lon="3.50058">
        <ele>1059.99</ele>
        <time>2021-08-05T08:33:36Z</time>
      </trkpt>
      <trkpt lat="45.00347" lon="3.50074">
        <ele>1061.43</ele>
        <time>2021-08-05T08:33:51Z</time>
      </trkpt>
      <trkpt lat="45.00368" lon="3.50092">
        <ele>1063.84</ele>
        <time>2021-08-05T08:34:09Z</time>
      </trkpt>
      <trkpt lat="45.00385" lon="3.50107">
        <ele>1064.8</ele>
        <time>2021-08-05T08:34:25Z</time>
      </trkpt>
      <trkpt lat="45.00403" lon="3.50122">
        <ele>1066.24</ele>
        <time>2021-08-05T08:34:42Z</time>
      </trkpt>
      <trkpt lat="45.00404" lon="3.50122">
        <ele>1066.24</ele>
        <time>2021-08-05T08:34:43Z</time>
      </trkpt>
      <trkpt lat="45.00423" lon="3.50141">
        <ele>1064.8</ele>
        <time>2021-08-05T08:35:01Z</time>
      </trkpt>
      <trkpt lat="45.00435" lon="3.50151">
        <ele>1063.84</ele>
        <time>2021-08-05T08:35:12Z</time>
      </trkpt>
      <trkpt lat="45.00438" lon="3.50157">
        <ele>1062.87</ele>
        <time>2021-08-05T08:35:16Z</time>
      </trkpt>
      <trkpt lat="45.00445" lon="3.50162">
        <ele>1061.91</ele>
        <time>2021-08-05T08:35:21Z</time>
      </trkpt>
      <trkpt lat="45.00452" lon="3.50169">
        <ele>1060.95</ele>
        <time>2021-08-05T08:35:28Z</time>
      </trkpt>
      <trkpt lat="45.0047" lon="3.50184">
        <ele>1060.95</ele>
        <time>2021-08-05T08:35:45Z</time>
      </trkpt>
      <trkpt lat="45.0048" lon="3.50192">
        <ele>1059.03</ele>
        <time>2021-08-05T08:35:56Z</time>
      </trkpt>
      <trkpt lat="45.00495" lon="3.50208">
        <ele>1063.36</ele>
        <time>2021-08-05T08:36:12Z</time>
      </trkpt>
      <trkpt lat="45.00504" lon="3.50219">
        <ele>1063.84</ele>
        <time>2021-08-05T08:36:20Z</time>
      </trkpt>
      <trkpt lat="45.00509" lon="3.50231">
        <ele>1062.39</ele>
        <time>2021-08-05T08:36:28Z</time>
      </trkpt>
      <trkpt lat="45.00512" lon="3.50235">
        <ele>1061.91</ele>
        <time>2021-08-05T08:36:31Z</time>
      </trkpt>
      <trkpt lat="45.00519" lon="3.50256">
        <ele>1062.39</ele>
        <time>2021-08-05T08:36:45Z</time>
      </trkpt>
      <trkpt lat="45.00519" lon="3.50261">
        <ele>1063.36</ele>
        <time>2021-08-05T08:36:52Z</time>
      </trkpt>
      <trkpt lat="45.00528" lon="3.50286">
        <ele>1065.76</ele>
        <time>2021-08-05T08:37:09Z</time>
      </trkpt>
      <trkpt lat="45.00532" lon="3.503">
        <ele>1067.2</ele>
        <time>2021-08-05T08:37:18Z</time>
      </trkpt>
      <trkpt lat="45.00543" lon="3.5033">
        <ele>1067.2</ele>
        <time>2021-08-05T08:37:34Z</time>
      </trkpt>
      <trkpt lat="45.00553" lon="3.50364">
        <ele>1066.72</ele>
        <time>2021-08-05T08:37:53Z</time>
      </trkpt>
      <trkpt lat="45.00563" lon="3.50384">
        <ele>1067.2</ele>
        <time>2021-08-05T08:38:03Z</time>
      </trkpt>
      <trkpt lat="45.00568" lon="3.50395">
        <ele>1066.24</ele>
        <time>2021-08-05T08:38:10Z</time>
      </trkpt>
      <trkpt lat="45.00579" lon="3.50414">
        <ele>1064.8</ele>
        <time>2021-08-05T08:38:25Z</time>
      </trkpt>
      <trkpt lat="45.00583" lon="3.50422">
        <ele>1063.84</ele>
        <time>2021-08-05T08:38:31Z</time>
      </trkpt>
      <trkpt lat="45.00586" lon="3.50427">
        <ele>1063.84</ele>
        <time>2021-08-05T08:38:35Z</time>
      </trkpt>
      <trkpt lat="45.00597" lon="3.50447">
        <ele>1064.32</ele>
        <time>2021-08-05T08:38:50Z</time>
      </trkpt>
      <trkpt lat="45.00607" lon="3.50465">
        <ele>1068.64</ele>
        <time>2021-08-05T08:39:05Z</time>
      </trkpt>
      <trkpt lat="45.00622" lon="3.50492">
        <ele>1066.24</ele>
        <time>2021-08-05T08:39:20Z</time>
      </trkpt>
      <trkpt lat="45.00632" lon="3.50524">
        <ele>1064.8</ele>
        <time>2021-08-05T08:39:38Z</time>
      </trkpt>
      <trkpt lat="45.00637" lon="3.50552">
        <ele>1068.16</ele>
        <time>2021-08-05T08:39:53Z</time>
      </trkpt>
      <trkpt lat="45.00648" lon="3.50581">
        <ele>1065.76</ele>
        <time>2021-08-05T08:40:09Z</time>
      </trkpt>
      <trkpt lat="45.00659" lon="3.50611">
        <ele>1061.43</ele>
        <time>2021-08-05T08:40:29Z</time>
      </trkpt>
      <trkpt lat="45.00669" lon="3.50636">
        <ele>1060.95</ele>
        <time>2021-08-05T08:40:47Z</time>
      </trkpt>
      <trkpt lat="45.00676" lon="3.50659">
        <ele>1061.91</ele>
        <time>2021-08-05T08:41:02Z</time>
      </trkpt>
      <trkpt lat="45.00681" lon="3.50676">
        <ele>1067.2</ele>
        <time>2021-08-05T08:41:16Z</time>
      </trkpt>
      <trkpt lat="45.00681" lon="3.50692">
        <ele>1072.01</ele>
        <time>2021-08-05T08:41:29Z</time>
      </trkpt>
      <trkpt lat="45.00683" lon="3.50703">
        <ele>1070.08</ele>
        <time>2021-08-05T08:41:45Z</time>
      </trkpt>
      <trkpt lat="45.00683" lon="3.50704">
        <ele>1070.08</ele>
        <time>2021-08-05T08:41:58Z</time>
      </trkpt>
      <trkpt lat="45.00685" lon="3.50718">
        <ele>1072.97</ele>
        <time>2021-08-05T08:42:10Z</time>
      </trkpt>
      <trkpt lat="45.00689" lon="3.50742">
        <ele>1075.37</ele>
        <time>2021-08-05T08:42:25Z</time>
      </trkpt>
      <trkpt lat="45.00688" lon="3.50757">
        <ele>1075.37</ele>
        <time>2021-08-05T08:42:35Z</time>
      </trkpt>
      <trkpt lat="45.00691" lon="3.50793">
        <ele>1071.05</ele>
        <time>2021-08-05T08:42:51Z</time>
      </trkpt>
      <trkpt lat="45.00696" lon="3.50824">
        <ele>1073.93</ele>
        <time>2021-08-05T08:43:03Z</time>
      </trkpt>
      <trkpt lat="45.00707" lon="3.50855">
        <ele>1068.64</ele>
        <time>2021-08-05T08:43:18Z</time>
      </trkpt>
      <trkpt lat="45.0071" lon="3.50865">
        <ele>1066.72</ele>
        <time>2021-08-05T08:43:24Z</time>
      </trkpt>
      <trkpt lat="45.00722" lon="3.50885">
        <ele>1063.36</ele>
        <time>2021-08-05T08:43:40Z</time>
      </trkpt>
      <trkpt lat="45.00726" lon="3.5089">
        <ele>1064.32</ele>
        <time>2021-08-05T08:43:45Z</time>
      </trkpt>
      <trkpt lat="45.00739" lon="3.50909">
        <ele>1069.12</ele>
        <time>2021-08-05T08:44:01Z</time>
      </trkpt>
      <trkpt lat="45.00753" lon="3.50928">
        <ele>1074.89</ele>
        <time>2021-08-05T08:44:16Z</time>
      </trkpt>
      <trkpt lat="45.00761" lon="3.50944">
        <ele>1080.18</ele>
        <time>2021-08-05T08:44:27Z</time>
      </trkpt>
      <trkpt lat="45.00774" lon="3.50976">
        <ele>1080.66</ele>
        <time>2021-08-05T08:44:44Z</time>
      </trkpt>
      <trkpt lat="45.0078" lon="3.50996">
        <ele>1082.58</ele>
        <time>2021-08-05T08:44:56Z</time>
      </trkpt>
      <trkpt lat="45.00787" lon="3.51025">
        <ele>1085.47</ele>
        <time>2021-08-05T08:45:08Z</time>
      </trkpt>
      <trkpt lat="45.0079" lon="3.5106">
        <ele>1082.58</ele>
        <time>2021-08-05T08:45:25Z</time>
      </trkpt>
      <trkpt lat="45.00791" lon="3.51068">
        <ele>1077.29</ele>
        <time>2021-08-05T08:45:29Z</time>
      </trkpt>
      <trkpt lat="45.0079" lon="3.51081">
        <ele>1072.49</ele>
        <time>2021-08-05T08:45:35Z</time>
      </trkpt>
      <trkpt lat="45.00789" lon="3.51089">
        <ele>1070.08</ele>
        <time>2021-08-05T08:45:39Z</time>
      </trkpt>
      <trkpt lat="45.00789" lon="3.51102">
        <ele>1066.72</ele>
        <time>2021-08-05T08:45:46Z</time>
      </trkpt>
      <trkpt lat="45.00788" lon="3.51125">
        <ele>1050.86</ele>
        <time>2021-08-05T08:46:01Z</time>
      </trkpt>
      <trkpt lat="45.00789" lon="3.5113">
        <ele>1048.94</ele>
        <time>2021-08-05T08:46:04Z</time>
      </trkpt>
      <trkpt lat="45.00786" lon="3.51147">
        <ele>1041.73</ele>
        <time>2021-08-05T08:46:15Z</time>
      </trkpt>
      <trkpt lat="45.00785" lon="3.51167">
        <ele>1036.44</ele>
        <time>2021-08-05T08:46:25Z</time>
      </trkpt>
      <trkpt lat="45.00784" lon="3.51177">
        <ele>1034.52</ele>
        <time>2021-08-05T08:46:29Z</time>
      </trkpt>
      <trkpt lat="45.00789" lon="3.51182">
        <ele>1031.63</ele>
        <time>2021-08-05T08:46:34Z</time>
      </trkpt>
      <trkpt lat="45.00792" lon="3.51194">
        <ele>1028.75</ele>
        <time>2021-08-05T08:46:39Z</time>
      </trkpt>
      <trkpt lat="45.00793" lon="3.51201">
        <ele>1024.42</ele>
        <time>2021-08-05T08:46:44Z</time>
      </trkpt>
      <trkpt lat="45.00795" lon="3.51209">
        <ele>1021.54</ele>
        <time>2021-08-05T08:46:49Z</time>
      </trkpt>
      <trkpt lat="45.00797" lon="3.51212">
        <ele>1020.58</ele>
        <time>2021-08-05T08:46:51Z</time>
      </trkpt>
      <trkpt lat="45.00797" lon="3.51217">
        <ele>1019.13</ele>
        <time>2021-08-05T08:46:54Z</time>
      </trkpt>
      <trkpt lat="45.008" lon="3.51223">
        <ele>1017.21</ele>
        <time>2021-08-05T08:46:59Z</time>
      </trkpt>
      <trkpt lat="45.00801" lon="3.51226">
        <ele>1016.73</ele>
        <time>2021-08-05T08:47:01Z</time>
      </trkpt>
      <trkpt lat="45.00804" lon="3.51232">
        <ele>1015.29</ele>
        <time>2021-08-05T08:47:06Z</time>
      </trkpt>
      <trkpt lat="45.00811" lon="3.51255">
        <ele>1006.64</ele>
        <time>2021-08-05T08:47:22Z</time>
      </trkpt>
      <trkpt lat="45.00818" lon="3.51263">
        <ele>1007.12</ele>
        <time>2021-08-05T08:47:29Z</time>
      </trkpt>
      <trkpt lat="45.00839" lon="3.51279">
        <ele>1006.16</ele>
        <time>2021-08-05T08:47:46Z</time>
      </trkpt>
      <trkpt lat="45.00841" lon="3.51281">
        <ele>1005.68</ele>
        <time>2021-08-05T08:47:48Z</time>
      </trkpt>
      <trkpt lat="45.00862" lon="3.51297">
        <ele>1005.2</ele>
        <time>2021-08-05T08:48:06Z</time>
      </trkpt>
      <trkpt lat="45.00875" lon="3.51305">
        <ele>1005.2</ele>
        <time>2021-08-05T08:48:17Z</time>
      </trkpt>
      <trkpt lat="45.00876" lon="3.51308">
        <ele>1004.72</ele>
        <time>2021-08-05T08:48:19Z</time>
      </trkpt>
      <trkpt lat="45.00891" lon="3.51315">
        <ele>1004.23</ele>
        <time>2021-08-05T08:48:30Z</time>
      </trkpt>
      <trkpt lat="45.00917" lon="3.51329">
        <ele>1004.23</ele>
        <time>2021-08-05T08:48:50Z</time>
      </trkpt>
      <trkpt lat="45.0092" lon="3.51331">
        <ele>1004.23</ele>
        <time>2021-08-05T08:48:52Z</time>
      </trkpt>
      <trkpt lat="45.0094" lon="3.51344">
        <ele>1005.2</ele>
        <time>2021-08-05T08:49:08Z</time>
      </trkpt>
      <trkpt lat="45.00946" lon="3.51348">
        <ele>1005.68</ele>
        <time>2021-08-05T08:49:13Z</time>
      </trkpt>
      <trkpt lat="45.00951" lon="3.5135">
        <ele>1005.2</ele>
        <time>2021-08-05T08:49:16Z</time>
      </trkpt>
      <trkpt lat="45.00974" lon="3.51367">
        <ele>1006.16</ele>
        <time>2021-08-05T08:49:34Z</time>
      </trkpt>
      <trkpt lat="45.00985" lon="3.51393">
        <ele>1009.04</ele>
        <time>2021-08-05T08:49:53Z</time>
      </trkpt>
      <trkpt lat="45.00983" lon="3.51393">
        <ele>1006.64</ele>
        <time>2021-08-05T08:50:07Z</time>
      </trkpt>
      <trkpt lat="45.00981" lon="3.51393">
        <ele>1004.23</ele>
        <time>2021-08-05T08:50:39Z</time>
      </trkpt>
      <trkpt lat="45.00981" lon="3.51393">
        <ele>1005.2</ele>
        <time>2021-08-05T08:50:59Z</time>
      </trkpt>
      <trkpt lat="45.00983" lon="3.51391">
        <ele>1006.64</ele>
        <time>2021-08-05T08:51:13Z</time>
      </trkpt>
      <trkpt lat="45.00983" lon="3.51391">
        <ele>1007.12</ele>
        <time>2021-08-05T08:51:22Z</time>
      </trkpt>
      <trkpt lat="45.00984" lon="3.51392">
        <ele>1008.08</ele>
        <time>2021-08-05T08:51:37Z</time>
      </trkpt>
      <trkpt lat="45.00985" lon="3.51388">
        <ele>1008.56</ele>
        <time>2021-08-05T08:51:44Z</time>
      </trkpt>
      <trkpt lat="45.00986" lon="3.51386">
        <ele>1008.56</ele>
        <time>2021-08-05T08:51:46Z</time>
      </trkpt>
      <trkpt lat="45.00992" lon="3.51382">
        <ele>1009.52</ele>
        <time>2021-08-05T08:51:51Z</time>
      </trkpt>
      <trkpt lat="45.00999" lon="3.51365">
        <ele>1009.52</ele>
        <time>2021-08-05T08:52:02Z</time>
      </trkpt>
      <trkpt lat="45.01001" lon="3.51352">
        <ele>1007.6</ele>
        <time>2021-08-05T08:52:10Z</time>
      </trkpt>
      <trkpt lat="45.01008" lon="3.51332">
        <ele>1004.23</ele>
        <time>2021-08-05T08:52:21Z</time>
      </trkpt>
      <trkpt lat="45.01011" lon="3.51325">
        <ele>1003.75</ele>
        <time>2021-08-05T08:52:25Z</time>
      </trkpt>
      <trkpt lat="45.01011" lon="3.51318">
        <ele>1003.27</ele>
        <time>2021-08-05T08:52:29Z</time>
      </trkpt>
      <trkpt lat="45.01012" lon="3.51305">
        <ele>1001.83</ele>
        <time>2021-08-05T08:52:39Z</time>
      </trkpt>
      <trkpt lat="45.01011" lon="3.51286">
        <ele>997.99</ele>
        <time>2021-08-05T08:52:52Z</time>
      </trkpt>
      <trkpt lat="45.01011" lon="3.51282">
        <ele>996.54</ele>
        <time>2021-08-05T08:52:54Z</time>
      </trkpt>
      <trkpt lat="45.0101" lon="3.51272">
        <ele>994.14</ele>
        <time>2021-08-05T08:53:03Z</time>
      </trkpt>
      <trkpt lat="45.01011" lon="3.51264">
        <ele>993.66</ele>
        <time>2021-08-05T08:53:08Z</time>
      </trkpt>
      <trkpt lat="45.01011" lon="3.51244">
        <ele>993.18</ele>
        <time>2021-08-05T08:53:22Z</time>
      </trkpt>
      <trkpt lat="45.01012" lon="3.51233">
        <ele>995.58</ele>
        <time>2021-08-05T08:53:34Z</time>
      </trkpt>
      <trkpt lat="45.01012" lon="3.51213">
        <ele>996.06</ele>
        <time>2021-08-05T08:53:49Z</time>
      </trkpt>
      <trkpt lat="45.01013" lon="3.51209">
        <ele>996.54</ele>
        <time>2021-08-05T08:53:54Z</time>
      </trkpt>
      <trkpt lat="45.01014" lon="3.51189">
        <ele>1000.39</ele>
        <time>2021-08-05T08:54:08Z</time>
      </trkpt>
      <trkpt lat="45.01011" lon="3.51171">
        <ele>1000.39</ele>
        <time>2021-08-05T08:54:21Z</time>
      </trkpt>
      <trkpt lat="45.0101" lon="3.51139">
        <ele>1007.12</ele>
        <time>2021-08-05T08:54:36Z</time>
      </trkpt>
      <trkpt lat="45.01013" lon="3.51128">
        <ele>1005.68</ele>
        <time>2021-08-05T08:54:40Z</time>
      </trkpt>
      <trkpt lat="45.01025" lon="3.51116">
        <ele>985.49</ele>
        <time>2021-08-05T08:54:50Z</time>
      </trkpt>
      <trkpt lat="45.01028" lon="3.5112">
        <ele>983.09</ele>
        <time>2021-08-05T08:54:54Z</time>
      </trkpt>
      <trkpt lat="45.01031" lon="3.51123">
        <ele>981.16</ele>
        <time>2021-08-05T08:54:58Z</time>
      </trkpt>
      <trkpt lat="45.01037" lon="3.51131">
        <ele>980.2</ele>
        <time>2021-08-05T08:55:11Z</time>
      </trkpt>
      <trkpt lat="45.01038" lon="3.51132">
        <ele>979.72</ele>
        <time>2021-08-05T08:55:12Z</time>
      </trkpt>
      <trkpt lat="45.01046" lon="3.51138">
        <ele>978.76</ele>
        <time>2021-08-05T08:55:20Z</time>
      </trkpt>
      <trkpt lat="45.01058" lon="3.51146">
        <ele>977.8</ele>
        <time>2021-08-05T08:55:36Z</time>
      </trkpt>
      <trkpt lat="45.01072" lon="3.51157">
        <ele>976.36</ele>
        <time>2021-08-05T08:55:50Z</time>
      </trkpt>
      <trkpt lat="45.01083" lon="3.51167">
        <ele>980.68</ele>
        <time>2021-08-05T08:56:04Z</time>
      </trkpt>
      <trkpt lat="45.01086" lon="3.51171">
        <ele>981.64</ele>
        <time>2021-08-05T08:56:08Z</time>
      </trkpt>
      <trkpt lat="45.011" lon="3.51177">
        <ele>986.45</ele>
        <time>2021-08-05T08:56:23Z</time>
      </trkpt>
      <trkpt lat="45.01101" lon="3.51178">
        <ele>986.45</ele>
        <time>2021-08-05T08:56:24Z</time>
      </trkpt>
      <trkpt lat="45.01113" lon="3.51179">
        <ele>986.45</ele>
        <time>2021-08-05T08:56:37Z</time>
      </trkpt>
      <trkpt lat="45.01125" lon="3.51179">
        <ele>988.37</ele>
        <time>2021-08-05T08:56:50Z</time>
      </trkpt>
      <trkpt lat="45.01139" lon="3.51179">
        <ele>985.01</ele>
        <time>2021-08-05T08:57:05Z</time>
      </trkpt>
      <trkpt lat="45.0115" lon="3.51177">
        <ele>980.68</ele>
        <time>2021-08-05T08:57:17Z</time>
      </trkpt>
      <trkpt lat="45.01167" lon="3.51175">
        <ele>971.07</ele>
        <time>2021-08-05T08:57:32Z</time>
      </trkpt>
      <trkpt lat="45.01184" lon="3.51177">
        <ele>963.38</ele>
        <time>2021-08-05T08:57:47Z</time>
      </trkpt>
      <trkpt lat="45.012" lon="3.51177">
        <ele>950.88</ele>
        <time>2021-08-05T08:58:00Z</time>
      </trkpt>
      <trkpt lat="45.0121" lon="3.51175">
        <ele>945.59</ele>
        <time>2021-08-05T08:58:09Z</time>
      </trkpt>
      <trkpt lat="45.01212" lon="3.51176">
        <ele>943.67</ele>
        <time>2021-08-05T08:58:11Z</time>
      </trkpt>
      <trkpt lat="45.01215" lon="3.51174">
        <ele>940.79</ele>
        <time>2021-08-05T08:58:14Z</time>
      </trkpt>
      <trkpt lat="45.01234" lon="3.51175">
        <ele>930.69</ele>
        <time>2021-08-05T08:58:31Z</time>
      </trkpt>
      <trkpt lat="45.01238" lon="3.51174">
        <ele>929.25</ele>
        <time>2021-08-05T08:58:34Z</time>
      </trkpt>
      <trkpt lat="45.01241" lon="3.51174">
        <ele>928.29</ele>
        <time>2021-08-05T08:58:37Z</time>
      </trkpt>
      <trkpt lat="45.01253" lon="3.51168">
        <ele>926.37</ele>
        <time>2021-08-05T08:58:49Z</time>
      </trkpt>
      <trkpt lat="45.01267" lon="3.51154">
        <ele>923.96</ele>
        <time>2021-08-05T08:59:05Z</time>
      </trkpt>
      <trkpt lat="45.0127" lon="3.51152">
        <ele>923</ele>
        <time>2021-08-05T08:59:09Z</time>
      </trkpt>
      <trkpt lat="45.01281" lon="3.51138">
        <ele>920.6</ele>
        <time>2021-08-05T08:59:25Z</time>
      </trkpt>
      <trkpt lat="45.0129" lon="3.51129">
        <ele>919.64</ele>
        <time>2021-08-05T08:59:39Z</time>
      </trkpt>
      <trkpt lat="45.01295" lon="3.51122">
        <ele>919.16</ele>
        <time>2021-08-05T08:59:44Z</time>
      </trkpt>
      <trkpt lat="45.01299" lon="3.51119">
        <ele>918.68</ele>
        <time>2021-08-05T08:59:48Z</time>
      </trkpt>
      <trkpt lat="45.01313" lon="3.51099">
        <ele>917.72</ele>
        <time>2021-08-05T09:00:04Z</time>
      </trkpt>
      <trkpt lat="45.01317" lon="3.51094">
        <ele>917.72</ele>
        <time>2021-08-05T09:00:08Z</time>
      </trkpt>
      <trkpt lat="45.01324" lon="3.51079">
        <ele>919.16</ele>
        <time>2021-08-05T09:00:20Z</time>
      </trkpt>
      <trkpt lat="45.01337" lon="3.51062">
        <ele>919.64</ele>
        <time>2021-08-05T09:00:36Z</time>
      </trkpt>
      <trkpt lat="45.01349" lon="3.51044">
        <ele>921.08</ele>
        <time>2021-08-05T09:00:52Z</time>
      </trkpt>
      <trkpt lat="45.0136" lon="3.51026">
        <ele>923</ele>
        <time>2021-08-05T09:01:06Z</time>
      </trkpt>
      <trkpt lat="45.01372" lon="3.51012">
        <ele>923.96</ele>
        <time>2021-08-05T09:01:22Z</time>
      </trkpt>
      <trkpt lat="45.01383" lon="3.50996">
        <ele>923.96</ele>
        <time>2021-08-05T09:01:38Z</time>
      </trkpt>
      <trkpt lat="45.0139" lon="3.50985">
        <ele>922.04</ele>
        <time>2021-08-05T09:01:48Z</time>
      </trkpt>
      <trkpt lat="45.01401" lon="3.50969">
        <ele>924.45</ele>
        <time>2021-08-05T09:02:02Z</time>
      </trkpt>
      <trkpt lat="45.01414" lon="3.50947">
        <ele>924.93</ele>
        <time>2021-08-05T09:02:19Z</time>
      </trkpt>
      <trkpt lat="45.01418" lon="3.50942">
        <ele>922.04</ele>
        <time>2021-08-05T09:02:23Z</time>
      </trkpt>
      <trkpt lat="45.01433" lon="3.50928">
        <ele>916.75</ele>
        <time>2021-08-05T09:02:37Z</time>
      </trkpt>
      <trkpt lat="45.01449" lon="3.50918">
        <ele>917.24</ele>
        <time>2021-08-05T09:02:53Z</time>
      </trkpt>
      <trkpt lat="45.01466" lon="3.50907">
        <ele>921.08</ele>
        <time>2021-08-05T09:03:09Z</time>
      </trkpt>
      <trkpt lat="45.0147" lon="3.50906">
        <ele>920.6</ele>
        <time>2021-08-05T09:03:14Z</time>
      </trkpt>
      <trkpt lat="45.0148" lon="3.50891">
        <ele>925.41</ele>
        <time>2021-08-05T09:03:27Z</time>
      </trkpt>
      <trkpt lat="45.0149" lon="3.50871">
        <ele>931.65</ele>
        <time>2021-08-05T09:03:43Z</time>
      </trkpt>
      <trkpt lat="45.01502" lon="3.50856">
        <ele>925.89</ele>
        <time>2021-08-05T09:03:57Z</time>
      </trkpt>
      <trkpt lat="45.01503" lon="3.50855">
        <ele>925.41</ele>
        <time>2021-08-05T09:03:58Z</time>
      </trkpt>
      <trkpt lat="45.01517" lon="3.50833">
        <ele>923.96</ele>
        <time>2021-08-05T09:04:15Z</time>
      </trkpt>
      <trkpt lat="45.0153" lon="3.50818">
        <ele>916.75</ele>
        <time>2021-08-05T09:04:29Z</time>
      </trkpt>
      <trkpt lat="45.01536" lon="3.50815">
        <ele>916.75</ele>
        <time>2021-08-05T09:04:35Z</time>
      </trkpt>
      <trkpt lat="45.01543" lon="3.50809">
        <ele>916.27</ele>
        <time>2021-08-05T09:04:41Z</time>
      </trkpt>
      <trkpt lat="45.01546" lon="3.50806">
        <ele>915.31</ele>
        <time>2021-08-05T09:04:44Z</time>
      </trkpt>
      <trkpt lat="45.01565" lon="3.50795">
        <ele>909.54</ele>
        <time>2021-08-05T09:04:58Z</time>
      </trkpt>
      <trkpt lat="45.01575" lon="3.50787">
        <ele>906.18</ele>
        <time>2021-08-05T09:05:09Z</time>
      </trkpt>
      <trkpt lat="45.01596" lon="3.50776">
        <ele>905.22</ele>
        <time>2021-08-05T09:05:27Z</time>
      </trkpt>
      <trkpt lat="45.016" lon="3.50774">
        <ele>904.74</ele>
        <time>2021-08-05T09:05:30Z</time>
      </trkpt>
      <trkpt lat="45.0162" lon="3.50768">
        <ele>903.78</ele>
        <time>2021-08-05T09:05:48Z</time>
      </trkpt>
      <trkpt lat="45.01644" lon="3.50775">
        <ele>898.49</ele>
        <time>2021-08-05T09:06:05Z</time>
      </trkpt>
      <trkpt lat="45.0166" lon="3.50782">
        <ele>899.93</ele>
        <time>2021-08-05T09:06:20Z</time>
      </trkpt>
      <trkpt lat="45.01668" lon="3.50787">
        <ele>900.89</ele>
        <time>2021-08-05T09:06:28Z</time>
      </trkpt>
      <trkpt lat="45.01674" lon="3.50788">
        <ele>901.85</ele>
        <time>2021-08-05T09:06:34Z</time>
      </trkpt>
      <trkpt lat="45.0169" lon="3.50791">
        <ele>901.37</ele>
        <time>2021-08-05T09:06:49Z</time>
      </trkpt>
      <trkpt lat="45.01691" lon="3.50791">
        <ele>901.37</ele>
        <time>2021-08-05T09:06:50Z</time>
      </trkpt>
      <trkpt lat="45.01708" lon="3.50796">
        <ele>901.37</ele>
        <time>2021-08-05T09:07:06Z</time>
      </trkpt>
      <trkpt lat="45.01714" lon="3.50796">
        <ele>901.85</ele>
        <time>2021-08-05T09:07:12Z</time>
      </trkpt>
      <trkpt lat="45.01726" lon="3.50803">
        <ele>903.78</ele>
        <time>2021-08-05T09:07:26Z</time>
      </trkpt>
      <trkpt lat="45.01736" lon="3.50808">
        <ele>907.62</ele>
        <time>2021-08-05T09:07:39Z</time>
      </trkpt>
      <trkpt lat="45.01749" lon="3.50813">
        <ele>911.95</ele>
        <time>2021-08-05T09:07:54Z</time>
      </trkpt>
      <trkpt lat="45.01765" lon="3.50819">
        <ele>918.2</ele>
        <time>2021-08-05T09:08:07Z</time>
      </trkpt>
      <trkpt lat="45.01777" lon="3.50829">
        <ele>920.6</ele>
        <time>2021-08-05T09:08:20Z</time>
      </trkpt>
      <trkpt lat="45.01786" lon="3.50835">
        <ele>919.64</ele>
        <time>2021-08-05T09:08:34Z</time>
      </trkpt>
      <trkpt lat="45.01798" lon="3.5084">
        <ele>917.24</ele>
        <time>2021-08-05T09:08:46Z</time>
      </trkpt>
      <trkpt lat="45.0181" lon="3.5085">
        <ele>918.2</ele>
        <time>2021-08-05T09:09:00Z</time>
      </trkpt>
      <trkpt lat="45.01826" lon="3.50865">
        <ele>912.43</ele>
        <time>2021-08-05T09:09:16Z</time>
      </trkpt>
      <trkpt lat="45.01834" lon="3.50873">
        <ele>910.03</ele>
        <time>2021-08-05T09:09:25Z</time>
      </trkpt>
      <trkpt lat="45.01844" lon="3.50884">
        <ele>895.12</ele>
        <time>2021-08-05T09:09:39Z</time>
      </trkpt>
      <trkpt lat="45.0185" lon="3.50904">
        <ele>889.84</ele>
        <time>2021-08-05T09:09:53Z</time>
      </trkpt>
      <trkpt lat="45.01858" lon="3.50937">
        <ele>883.59</ele>
        <time>2021-08-05T09:10:10Z</time>
      </trkpt>
      <trkpt lat="45.01861" lon="3.5096">
        <ele>879.26</ele>
        <time>2021-08-05T09:10:23Z</time>
      </trkpt>
      <trkpt lat="45.01865" lon="3.50974">
        <ele>874.94</ele>
        <time>2021-08-05T09:10:31Z</time>
      </trkpt>
      <trkpt lat="45.01865" lon="3.50986">
        <ele>872.05</ele>
        <time>2021-08-05T09:10:39Z</time>
      </trkpt>
      <trkpt lat="45.01866" lon="3.50993">
        <ele>871.09</ele>
        <time>2021-08-05T09:10:43Z</time>
      </trkpt>
      <trkpt lat="45.01868" lon="3.51009">
        <ele>866.29</ele>
        <time>2021-08-05T09:10:54Z</time>
      </trkpt>
      <trkpt lat="45.01869" lon="3.51012">
        <ele>865.8</ele>
        <time>2021-08-05T09:10:56Z</time>
      </trkpt>
      <trkpt lat="45.01868" lon="3.51018">
        <ele>863.88</ele>
        <time>2021-08-05T09:11:00Z</time>
      </trkpt>
      <trkpt lat="45.01867" lon="3.51036">
        <ele>861.96</ele>
        <time>2021-08-05T09:11:11Z</time>
      </trkpt>
      <trkpt lat="45.01865" lon="3.51054">
        <ele>858.59</ele>
        <time>2021-08-05T09:11:26Z</time>
      </trkpt>
      <trkpt lat="45.01864" lon="3.5106">
        <ele>858.11</ele>
        <time>2021-08-05T09:11:33Z</time>
      </trkpt>
      <trkpt lat="45.01866" lon="3.51077">
        <ele>856.67</ele>
        <time>2021-08-05T09:11:45Z</time>
      </trkpt>
      <trkpt lat="45.01866" lon="3.51083">
        <ele>855.71</ele>
        <time>2021-08-05T09:11:49Z</time>
      </trkpt>
      <trkpt lat="45.01866" lon="3.51095">
        <ele>854.75</ele>
        <time>2021-08-05T09:11:57Z</time>
      </trkpt>
      <trkpt lat="45.01863" lon="3.51108">
        <ele>853.79</ele>
        <time>2021-08-05T09:12:10Z</time>
      </trkpt>
      <trkpt lat="45.01863" lon="3.51119">
        <ele>852.35</ele>
        <time>2021-08-05T09:12:16Z</time>
      </trkpt>
      <trkpt lat="45.01863" lon="3.51146">
        <ele>850.42</ele>
        <time>2021-08-05T09:12:32Z</time>
      </trkpt>
      <trkpt lat="45.01863" lon="3.51148">
        <ele>849.94</ele>
        <time>2021-08-05T09:12:33Z</time>
      </trkpt>
      <trkpt lat="45.01862" lon="3.51159">
        <ele>848.5</ele>
        <time>2021-08-05T09:12:40Z</time>
      </trkpt>
      <trkpt lat="45.0186" lon="3.51164">
        <ele>847.54</ele>
        <time>2021-08-05T09:12:43Z</time>
      </trkpt>
      <trkpt lat="45.0186" lon="3.51167">
        <ele>847.06</ele>
        <time>2021-08-05T09:12:45Z</time>
      </trkpt>
      <trkpt lat="45.01857" lon="3.5117">
        <ele>845.62</ele>
        <time>2021-08-05T09:12:59Z</time>
      </trkpt>
      <trkpt lat="45.01855" lon="3.51185">
        <ele>842.73</ele>
        <time>2021-08-05T09:13:13Z</time>
      </trkpt>
      <trkpt lat="45.01853" lon="3.51191">
        <ele>841.77</ele>
        <time>2021-08-05T09:13:19Z</time>
      </trkpt>
      <trkpt lat="45.01849" lon="3.51213">
        <ele>841.29</ele>
        <time>2021-08-05T09:13:31Z</time>
      </trkpt>
      <trkpt lat="45.01847" lon="3.51218">
        <ele>841.77</ele>
        <time>2021-08-05T09:13:35Z</time>
      </trkpt>
      <trkpt lat="45.01845" lon="3.51228">
        <ele>841.77</ele>
        <time>2021-08-05T09:13:41Z</time>
      </trkpt>
      <trkpt lat="45.01838" lon="3.51252">
        <ele>838.89</ele>
        <time>2021-08-05T09:13:57Z</time>
      </trkpt>
      <trkpt lat="45.01841" lon="3.51255">
        <ele>838.41</ele>
        <time>2021-08-05T09:14:03Z</time>
      </trkpt>
      <trkpt lat="45.01852" lon="3.51261">
        <ele>838.89</ele>
        <time>2021-08-05T09:14:16Z</time>
      </trkpt>
      <trkpt lat="45.01858" lon="3.51275">
        <ele>838.89</ele>
        <time>2021-08-05T09:14:30Z</time>
      </trkpt>
      <trkpt lat="45.01861" lon="3.51281">
        <ele>839.37</ele>
        <time>2021-08-05T09:14:35Z</time>
      </trkpt>
      <trkpt lat="45.01864" lon="3.51285">
        <ele>839.85</ele>
        <time>2021-08-05T09:14:38Z</time>
      </trkpt>
      <trkpt lat="45.01869" lon="3.51289">
        <ele>841.29</ele>
        <time>2021-08-05T09:14:46Z</time>
      </trkpt>
      <trkpt lat="45.01874" lon="3.5129">
        <ele>843.69</ele>
        <time>2021-08-05T09:14:51Z</time>
      </trkpt>
      <trkpt lat="45.01891" lon="3.5129">
        <ele>850.42</ele>
        <time>2021-08-05T09:15:05Z</time>
      </trkpt>
      <trkpt lat="45.01903" lon="3.5129">
        <ele>859.08</ele>
        <time>2021-08-05T09:15:19Z</time>
      </trkpt>
      <trkpt lat="45.01913" lon="3.51292">
        <ele>861.96</ele>
        <time>2021-08-05T09:15:35Z</time>
      </trkpt>
      <trkpt lat="45.01927" lon="3.51298">
        <ele>866.29</ele>
        <time>2021-08-05T09:15:48Z</time>
      </trkpt>
      <trkpt lat="45.01935" lon="3.51301">
        <ele>868.21</ele>
        <time>2021-08-05T09:16:01Z</time>
      </trkpt>
      <trkpt lat="45.0194" lon="3.513">
        <ele>866.77</ele>
        <time>2021-08-05T09:16:13Z</time>
      </trkpt>
      <trkpt lat="45.01944" lon="3.51299">
        <ele>866.77</ele>
        <time>2021-08-05T09:16:28Z</time>
      </trkpt>
      <trkpt lat="45.0195" lon="3.51298">
        <ele>866.77</ele>
        <time>2021-08-05T09:16:40Z</time>
      </trkpt>
      <trkpt lat="45.01956" lon="3.51295">
        <ele>868.69</ele>
        <time>2021-08-05T09:16:51Z</time>
      </trkpt>
      <trkpt lat="45.01969" lon="3.51287">
        <ele>873.5</ele>
        <time>2021-08-05T09:17:02Z</time>
      </trkpt>
      <trkpt lat="45.01982" lon="3.51273">
        <ele>877.82</ele>
        <time>2021-08-05T09:17:16Z</time>
      </trkpt>
      <trkpt lat="45.01993" lon="3.51261">
        <ele>881.19</ele>
        <time>2021-08-05T09:17:29Z</time>
      </trkpt>
      <trkpt lat="45.02005" lon="3.51251">
        <ele>880.22</ele>
        <time>2021-08-05T09:17:42Z</time>
      </trkpt>
      <trkpt lat="45.02011" lon="3.51246">
        <ele>878.3</ele>
        <time>2021-08-05T09:17:53Z</time>
      </trkpt>
      <trkpt lat="45.02026" lon="3.51242">
        <ele>873.01</ele>
        <time>2021-08-05T09:18:06Z</time>
      </trkpt>
      <trkpt lat="45.02035" lon="3.51234">
        <ele>870.61</ele>
        <time>2021-08-05T09:18:20Z</time>
      </trkpt>
      <trkpt lat="45.02048" lon="3.51222">
        <ele>870.61</ele>
        <time>2021-08-05T09:18:33Z</time>
      </trkpt>
      <trkpt lat="45.02067" lon="3.51211">
        <ele>866.29</ele>
        <time>2021-08-05T09:18:49Z</time>
      </trkpt>
      <trkpt lat="45.02084" lon="3.51203">
        <ele>864.84</ele>
        <time>2021-08-05T09:19:03Z</time>
      </trkpt>
      <trkpt lat="45.02096" lon="3.51203">
        <ele>861.96</ele>
        <time>2021-08-05T09:19:15Z</time>
      </trkpt>
      <trkpt lat="45.02112" lon="3.51203">
        <ele>859.08</ele>
        <time>2021-08-05T09:19:30Z</time>
      </trkpt>
      <trkpt lat="45.0213" lon="3.51202">
        <ele>857.63</ele>
        <time>2021-08-05T09:19:46Z</time>
      </trkpt>
      <trkpt lat="45.02137" lon="3.51204">
        <ele>855.71</ele>
        <time>2021-08-05T09:19:58Z</time>
      </trkpt>
      <trkpt lat="45.02139" lon="3.51205">
        <ele>855.23</ele>
        <time>2021-08-05T09:20:00Z</time>
      </trkpt>
      <trkpt lat="45.02156" lon="3.5121">
        <ele>852.35</ele>
        <time>2021-08-05T09:20:14Z</time>
      </trkpt>
      <trkpt lat="45.02166" lon="3.51216">
        <ele>851.87</ele>
        <time>2021-08-05T09:20:26Z</time>
      </trkpt>
      <trkpt lat="45.02178" lon="3.51221">
        <ele>851.38</ele>
        <time>2021-08-05T09:20:40Z</time>
      </trkpt>
      <trkpt lat="45.02193" lon="3.51228">
        <ele>851.87</ele>
        <time>2021-08-05T09:20:54Z</time>
      </trkpt>
      <trkpt lat="45.02212" lon="3.51239">
        <ele>844.18</ele>
        <time>2021-08-05T09:21:09Z</time>
      </trkpt>
      <trkpt lat="45.02229" lon="3.51255">
        <ele>841.29</ele>
        <time>2021-08-05T09:21:24Z</time>
      </trkpt>
      <trkpt lat="45.02232" lon="3.51261">
        <ele>840.33</ele>
        <time>2021-08-05T09:21:29Z</time>
      </trkpt>
      <trkpt lat="45.02245" lon="3.51288">
        <ele>836.96</ele>
        <time>2021-08-05T09:21:48Z</time>
      </trkpt>
      <trkpt lat="45.02252" lon="3.51309">
        <ele>835.52</ele>
        <time>2021-08-05T09:22:02Z</time>
      </trkpt>
      <trkpt lat="45.02253" lon="3.51315">
        <ele>834.56</ele>
        <time>2021-08-05T09:22:06Z</time>
      </trkpt>
      <trkpt lat="45.02259" lon="3.51344">
        <ele>836</ele>
        <time>2021-08-05T09:22:24Z</time>
      </trkpt>
      <trkpt lat="45.0226" lon="3.51345">
        <ele>836.48</ele>
        <time>2021-08-05T09:22:25Z</time>
      </trkpt>
      <trkpt lat="45.0227" lon="3.51359">
        <ele>837.45</ele>
        <time>2021-08-05T09:22:41Z</time>
      </trkpt>
      <trkpt lat="45.02276" lon="3.51366">
        <ele>836.96</ele>
        <time>2021-08-05T09:22:55Z</time>
      </trkpt>
      <trkpt lat="45.02283" lon="3.51376">
        <ele>838.41</ele>
        <time>2021-08-05T09:23:07Z</time>
      </trkpt>
      <trkpt lat="45.02295" lon="3.51397">
        <ele>836.48</ele>
        <time>2021-08-05T09:23:23Z</time>
      </trkpt>
      <trkpt lat="45.02306" lon="3.51411">
        <ele>837.45</ele>
        <time>2021-08-05T09:23:38Z</time>
      </trkpt>
      <trkpt lat="45.02313" lon="3.51416">
        <ele>842.73</ele>
        <time>2021-08-05T09:23:47Z</time>
      </trkpt>
      <trkpt lat="45.02314" lon="3.51415">
        <ele>844.18</ele>
        <time>2021-08-05T09:23:49Z</time>
      </trkpt>
      <trkpt lat="45.02318" lon="3.51409">
        <ele>850.42</ele>
        <time>2021-08-05T09:24:06Z</time>
      </trkpt>
      <trkpt lat="45.02326" lon="3.51398">
        <ele>853.79</ele>
        <time>2021-08-05T09:24:19Z</time>
      </trkpt>
      <trkpt lat="45.02339" lon="3.51377">
        <ele>852.35</ele>
        <time>2021-08-05T09:24:35Z</time>
      </trkpt>
      <trkpt lat="45.02349" lon="3.51365">
        <ele>849.94</ele>
        <time>2021-08-05T09:24:51Z</time>
      </trkpt>
      <trkpt lat="45.02356" lon="3.51356">
        <ele>846.58</ele>
        <time>2021-08-05T09:25:03Z</time>
      </trkpt>
      <trkpt lat="45.02368" lon="3.51348">
        <ele>841.77</ele>
        <time>2021-08-05T09:25:15Z</time>
      </trkpt>
      <trkpt lat="45.02384" lon="3.51344">
        <ele>836</ele>
        <time>2021-08-05T09:25:29Z</time>
      </trkpt>
      <trkpt lat="45.02398" lon="3.51333">
        <ele>831.68</ele>
        <time>2021-08-05T09:25:42Z</time>
      </trkpt>
      <trkpt lat="45.02404" lon="3.51326">
        <ele>829.27</ele>
        <time>2021-08-05T09:25:52Z</time>
      </trkpt>
      <trkpt lat="45.02412" lon="3.51309">
        <ele>819.66</ele>
        <time>2021-08-05T09:26:05Z</time>
      </trkpt>
      <trkpt lat="45.02415" lon="3.51305">
        <ele>812.45</ele>
        <time>2021-08-05T09:26:17Z</time>
      </trkpt>
      <trkpt lat="45.02428" lon="3.51286">
        <ele>811.01</ele>
        <time>2021-08-05T09:26:34Z</time>
      </trkpt>
      <trkpt lat="45.02439" lon="3.51276">
        <ele>808.61</ele>
        <time>2021-08-05T09:26:46Z</time>
      </trkpt>
      <trkpt lat="45.02451" lon="3.51267">
        <ele>808.13</ele>
        <time>2021-08-05T09:26:59Z</time>
      </trkpt>
      <trkpt lat="45.02462" lon="3.51258">
        <ele>808.13</ele>
        <time>2021-08-05T09:27:12Z</time>
      </trkpt>
      <trkpt lat="45.02472" lon="3.51248">
        <ele>808.61</ele>
        <time>2021-08-05T09:27:24Z</time>
      </trkpt>
      <trkpt lat="45.02485" lon="3.51232">
        <ele>808.13</ele>
        <time>2021-08-05T09:27:39Z</time>
      </trkpt>
      <trkpt lat="45.02502" lon="3.51208">
        <ele>808.13</ele>
        <time>2021-08-05T09:27:56Z</time>
      </trkpt>
      <trkpt lat="45.02519" lon="3.51189">
        <ele>811.49</ele>
        <time>2021-08-05T09:28:12Z</time>
      </trkpt>
      <trkpt lat="45.02533" lon="3.51174">
        <ele>813.89</ele>
        <time>2021-08-05T09:28:26Z</time>
      </trkpt>
      <trkpt lat="45.02544" lon="3.51159">
        <ele>815.34</ele>
        <time>2021-08-05T09:28:41Z</time>
      </trkpt>
      <trkpt lat="45.02548" lon="3.51153">
        <ele>815.34</ele>
        <time>2021-08-05T09:28:49Z</time>
      </trkpt>
      <trkpt lat="45.02554" lon="3.51137">
        <ele>815.34</ele>
        <time>2021-08-05T09:29:04Z</time>
      </trkpt>
      <trkpt lat="45.02566" lon="3.51112">
        <ele>811.01</ele>
        <time>2021-08-05T09:29:18Z</time>
      </trkpt>
      <trkpt lat="45.02585" lon="3.51097">
        <ele>802.84</ele>
        <time>2021-08-05T09:29:33Z</time>
      </trkpt>
      <trkpt lat="45.02599" lon="3.51094">
        <ele>798.99</ele>
        <time>2021-08-05T09:29:45Z</time>
      </trkpt>
      <trkpt lat="45.026" lon="3.51094">
        <ele>798.51</ele>
        <time>2021-08-05T09:29:46Z</time>
      </trkpt>
      <trkpt lat="45.02603" lon="3.51091">
        <ele>797.07</ele>
        <time>2021-08-05T09:29:51Z</time>
      </trkpt>
      <trkpt lat="45.02606" lon="3.51088">
        <ele>795.63</ele>
        <time>2021-08-05T09:30:03Z</time>
      </trkpt>
      <trkpt lat="45.02599" lon="3.51084">
        <ele>795.15</ele>
        <time>2021-08-05T09:30:11Z</time>
      </trkpt>
      <trkpt lat="45.02588" lon="3.51081">
        <ele>793.71</ele>
        <time>2021-08-05T09:30:22Z</time>
      </trkpt>
      <trkpt lat="45.02574" lon="3.51077">
        <ele>792.74</ele>
        <time>2021-08-05T09:30:36Z</time>
      </trkpt>
      <trkpt lat="45.02574" lon="3.51076">
        <ele>792.74</ele>
        <time>2021-08-05T09:30:37Z</time>
      </trkpt>
      <trkpt lat="45.02574" lon="3.51068">
        <ele>792.26</ele>
        <time>2021-08-05T09:30:42Z</time>
      </trkpt>
      <trkpt lat="45.0258" lon="3.5105">
        <ele>787.94</ele>
        <time>2021-08-05T09:30:57Z</time>
      </trkpt>
      <trkpt lat="45.02592" lon="3.51036">
        <ele>784.09</ele>
        <time>2021-08-05T09:31:12Z</time>
      </trkpt>
      <trkpt lat="45.02605" lon="3.51025">
        <ele>780.25</ele>
        <time>2021-08-05T09:31:26Z</time>
      </trkpt>
      <trkpt lat="45.02615" lon="3.51016">
        <ele>778.81</ele>
        <time>2021-08-05T09:31:36Z</time>
      </trkpt>
      <trkpt lat="45.02618" lon="3.51015">
        <ele>778.32</ele>
        <time>2021-08-05T09:31:38Z</time>
      </trkpt>
      <trkpt lat="45.02627" lon="3.5101">
        <ele>774.96</ele>
        <time>2021-08-05T09:31:51Z</time>
      </trkpt>
      <trkpt lat="45.02638" lon="3.51005">
        <ele>771.6</ele>
        <time>2021-08-05T09:32:05Z</time>
      </trkpt>
      <trkpt lat="45.02639" lon="3.51005">
        <ele>770.63</ele>
        <time>2021-08-05T09:32:15Z</time>
      </trkpt>
      <trkpt lat="45.02647" lon="3.50999">
        <ele>768.71</ele>
        <time>2021-08-05T09:32:26Z</time>
      </trkpt>
      <trkpt lat="45.02656" lon="3.50993">
        <ele>768.71</ele>
        <time>2021-08-05T09:32:38Z</time>
      </trkpt>
      <trkpt lat="45.0266" lon="3.50992">
        <ele>767.27</ele>
        <time>2021-08-05T09:32:43Z</time>
      </trkpt>
      <trkpt lat="45.02675" lon="3.50987">
        <ele>763.42</ele>
        <time>2021-08-05T09:32:58Z</time>
      </trkpt>
      <trkpt lat="45.02676" lon="3.50987">
        <ele>762.94</ele>
        <time>2021-08-05T09:32:59Z</time>
      </trkpt>
      <trkpt lat="45.0269" lon="3.50986">
        <ele>757.66</ele>
        <time>2021-08-05T09:33:11Z</time>
      </trkpt>
      <trkpt lat="45.02697" lon="3.5099">
        <ele>756.69</ele>
        <time>2021-08-05T09:33:23Z</time>
      </trkpt>
      <trkpt lat="45.02707" lon="3.50995">
        <ele>753.81</ele>
        <time>2021-08-05T09:33:35Z</time>
      </trkpt>
      <trkpt lat="45.02719" lon="3.50999">
        <ele>750.45</ele>
        <time>2021-08-05T09:33:48Z</time>
      </trkpt>
      <trkpt lat="45.02724" lon="3.51003">
        <ele>749.49</ele>
        <time>2021-08-05T09:34:02Z</time>
      </trkpt>
      <trkpt lat="45.0273" lon="3.51006">
        <ele>749</ele>
        <time>2021-08-05T09:34:16Z</time>
      </trkpt>
      <trkpt lat="45.02741" lon="3.5101">
        <ele>749.97</ele>
        <time>2021-08-05T09:34:29Z</time>
      </trkpt>
      <trkpt lat="45.02752" lon="3.51014">
        <ele>749.97</ele>
        <time>2021-08-05T09:34:42Z</time>
      </trkpt>
      <trkpt lat="45.02762" lon="3.51015">
        <ele>753.33</ele>
        <time>2021-08-05T09:34:55Z</time>
      </trkpt>
      <trkpt lat="45.02768" lon="3.51008">
        <ele>755.73</ele>
        <time>2021-08-05T09:35:09Z</time>
      </trkpt>
      <trkpt lat="45.02773" lon="3.51">
        <ele>754.77</ele>
        <time>2021-08-05T09:35:23Z</time>
      </trkpt>
      <trkpt lat="45.02779" lon="3.50992">
        <ele>753.33</ele>
        <time>2021-08-05T09:35:35Z</time>
      </trkpt>
      <trkpt lat="45.02782" lon="3.50982">
        <ele>753.33</ele>
        <time>2021-08-05T09:35:48Z</time>
      </trkpt>
      <trkpt lat="45.02783" lon="3.50982">
        <ele>752.85</ele>
        <time>2021-08-05T09:35:50Z</time>
      </trkpt>
      <trkpt lat="45.02796" lon="3.50969">
        <ele>749.97</ele>
        <time>2021-08-05T09:36:05Z</time>
      </trkpt>
      <trkpt lat="45.02809" lon="3.50961">
        <ele>742.28</ele>
        <time>2021-08-05T09:36:20Z</time>
      </trkpt>
      <trkpt lat="45.0282" lon="3.50958">
        <ele>740.35</ele>
        <time>2021-08-05T09:36:33Z</time>
      </trkpt>
      <trkpt lat="45.02821" lon="3.50957">
        <ele>738.91</ele>
        <time>2021-08-05T09:36:35Z</time>
      </trkpt>
      <trkpt lat="45.0284" lon="3.50952">
        <ele>733.62</ele>
        <time>2021-08-05T09:36:51Z</time>
      </trkpt>
      <trkpt lat="45.02853" lon="3.50948">
        <ele>730.74</ele>
        <time>2021-08-05T09:37:05Z</time>
      </trkpt>
      <trkpt lat="45.02868" lon="3.5095">
        <ele>727.37</ele>
        <time>2021-08-05T09:37:18Z</time>
      </trkpt>
      <trkpt lat="45.02887" lon="3.50956">
        <ele>724.01</ele>
        <time>2021-08-05T09:37:33Z</time>
      </trkpt>
      <trkpt lat="45.02895" lon="3.50962">
        <ele>724.49</ele>
        <time>2021-08-05T09:37:44Z</time>
      </trkpt>
      <trkpt lat="45.0291" lon="3.50967">
        <ele>724.01</ele>
        <time>2021-08-05T09:37:59Z</time>
      </trkpt>
      <trkpt lat="45.02919" lon="3.50967">
        <ele>721.61</ele>
        <time>2021-08-05T09:38:13Z</time>
      </trkpt>
      <trkpt lat="45.02921" lon="3.50968">
        <ele>720.65</ele>
        <time>2021-08-05T09:38:28Z</time>
      </trkpt>
      <trkpt lat="45.02925" lon="3.50968">
        <ele>719.68</ele>
        <time>2021-08-05T09:38:31Z</time>
      </trkpt>
      <trkpt lat="45.02934" lon="3.50973">
        <ele>719.2</ele>
        <time>2021-08-05T09:38:41Z</time>
      </trkpt>
      <trkpt lat="45.02942" lon="3.50974">
        <ele>718.24</ele>
        <time>2021-08-05T09:38:47Z</time>
      </trkpt>
      <trkpt lat="45.02956" lon="3.50976">
        <ele>713.92</ele>
        <time>2021-08-05T09:39:01Z</time>
      </trkpt>
      <trkpt lat="45.02968" lon="3.50978">
        <ele>713.44</ele>
        <time>2021-08-05T09:39:15Z</time>
      </trkpt>
      <trkpt lat="45.02983" lon="3.50979">
        <ele>714.88</ele>
        <time>2021-08-05T09:39:28Z</time>
      </trkpt>
      <trkpt lat="45.03005" lon="3.50979">
        <ele>711.99</ele>
        <time>2021-08-05T09:39:44Z</time>
      </trkpt>
      <trkpt lat="45.03012" lon="3.5098">
        <ele>711.99</ele>
        <time>2021-08-05T09:39:49Z</time>
      </trkpt>
      <trkpt lat="45.03032" lon="3.50982">
        <ele>709.59</ele>
        <time>2021-08-05T09:40:06Z</time>
      </trkpt>
      <trkpt lat="45.03043" lon="3.50982">
        <ele>708.63</ele>
        <time>2021-08-05T09:40:20Z</time>
      </trkpt>
      <trkpt lat="45.03055" lon="3.50971">
        <ele>709.11</ele>
        <time>2021-08-05T09:40:33Z</time>
      </trkpt>
      <trkpt lat="45.03066" lon="3.50959">
        <ele>707.19</ele>
        <time>2021-08-05T09:40:47Z</time>
      </trkpt>
      <trkpt lat="45.03068" lon="3.50959">
        <ele>707.19</ele>
        <time>2021-08-05T09:40:50Z</time>
      </trkpt>
      <trkpt lat="45.03073" lon="3.50962">
        <ele>704.3</ele>
        <time>2021-08-05T09:41:03Z</time>
      </trkpt>
      <trkpt lat="45.03074" lon="3.50962">
        <ele>703.34</ele>
        <time>2021-08-05T09:41:11Z</time>
      </trkpt>
      <trkpt lat="45.03074" lon="3.50939">
        <ele>703.82</ele>
        <time>2021-08-05T09:41:24Z</time>
      </trkpt>
      <trkpt lat="45.03074" lon="3.50924">
        <ele>702.38</ele>
        <time>2021-08-05T09:41:32Z</time>
      </trkpt>
      <trkpt lat="45.03075" lon="3.50915">
        <ele>702.38</ele>
        <time>2021-08-05T09:41:38Z</time>
      </trkpt>
      <trkpt lat="45.03078" lon="3.50897">
        <ele>699.5</ele>
        <time>2021-08-05T09:41:53Z</time>
      </trkpt>
      <trkpt lat="45.03075" lon="3.50894">
        <ele>698.53</ele>
        <time>2021-08-05T09:42:03Z</time>
      </trkpt>
      <trkpt lat="45.03068" lon="3.50887">
        <ele>696.13</ele>
        <time>2021-08-05T09:42:17Z</time>
      </trkpt>
      <trkpt lat="45.03069" lon="3.50887">
        <ele>695.17</ele>
        <time>2021-08-05T09:42:36Z</time>
      </trkpt>
      <trkpt lat="45.03067" lon="3.50885">
        <ele>693.25</ele>
        <time>2021-08-05T09:42:51Z</time>
      </trkpt>
      <trkpt lat="45.03065" lon="3.50883">
        <ele>693.25</ele>
        <time>2021-08-05T09:42:55Z</time>
      </trkpt>
      <trkpt lat="45.03059" lon="3.50878">
        <ele>694.69</ele>
        <time>2021-08-05T09:43:08Z</time>
      </trkpt>
      <trkpt lat="45.03045" lon="3.50869">
        <ele>695.65</ele>
        <time>2021-08-05T09:43:21Z</time>
      </trkpt>
      <trkpt lat="45.03032" lon="3.50863">
        <ele>697.09</ele>
        <time>2021-08-05T09:43:33Z</time>
      </trkpt>
      <trkpt lat="45.03013" lon="3.50853">
        <ele>696.13</ele>
        <time>2021-08-05T09:43:48Z</time>
      </trkpt>
      <trkpt lat="45.03012" lon="3.50847">
        <ele>694.69</ele>
        <time>2021-08-05T09:43:52Z</time>
      </trkpt>
      <trkpt lat="45.03012" lon="3.50833">
        <ele>690.84</ele>
        <time>2021-08-05T09:44:05Z</time>
      </trkpt>
      <trkpt lat="45.03012" lon="3.50831">
        <ele>690.36</ele>
        <time>2021-08-05T09:44:07Z</time>
      </trkpt>
      <trkpt lat="45.03007" lon="3.50849">
        <ele>691.81</ele>
        <time>2021-08-05T09:44:21Z</time>
      </trkpt>
      <trkpt lat="45.03007" lon="3.50856">
        <ele>691.33</ele>
        <time>2021-08-05T09:44:25Z</time>
      </trkpt>
      <trkpt lat="45.03007" lon="3.5086">
        <ele>691.33</ele>
        <time>2021-08-05T09:44:28Z</time>
      </trkpt>
      <trkpt lat="45.03002" lon="3.50874">
        <ele>691.33</ele>
        <time>2021-08-05T09:44:41Z</time>
      </trkpt>
      <trkpt lat="45.03001" lon="3.50872">
        <ele>691.81</ele>
        <time>2021-08-05T09:44:43Z</time>
      </trkpt>
      <trkpt lat="45.02984" lon="3.50863">
        <ele>695.17</ele>
        <time>2021-08-05T09:45:00Z</time>
      </trkpt>
      <trkpt lat="45.02978" lon="3.50854">
        <ele>699.02</ele>
        <time>2021-08-05T09:45:13Z</time>
      </trkpt>
      <trkpt lat="45.02976" lon="3.5085">
        <ele>699.98</ele>
        <time>2021-08-05T09:45:19Z</time>
      </trkpt>
      <trkpt lat="45.02977" lon="3.50856">
        <ele>698.05</ele>
        <time>2021-08-05T09:45:33Z</time>
      </trkpt>
      <trkpt lat="45.02977" lon="3.50854">
        <ele>697.09</ele>
        <time>2021-08-05T09:45:51Z</time>
      </trkpt>
      <trkpt lat="45.02977" lon="3.50853">
        <ele>696.13</ele>
        <time>2021-08-05T09:46:13Z</time>
      </trkpt>
      <trkpt lat="45.02976" lon="3.50853">
        <ele>696.61</ele>
        <time>2021-08-05T09:46:15Z</time>
      </trkpt>
      <trkpt lat="45.02975" lon="3.50849">
        <ele>696.13</ele>
        <time>2021-08-05T09:46:27Z</time>
      </trkpt>
      <trkpt lat="45.02975" lon="3.50849">
        <ele>695.65</ele>
        <time>2021-08-05T09:46:31Z</time>
      </trkpt>
      <trkpt lat="45.02978" lon="3.50854">
        <ele>695.65</ele>
        <time>2021-08-05T09:46:40Z</time>
      </trkpt>
      <trkpt lat="45.02978" lon="3.50857">
        <ele>695.17</ele>
        <time>2021-08-05T09:46:54Z</time>
      </trkpt>
      <trkpt lat="45.02979" lon="3.50859">
        <ele>694.21</ele>
        <time>2021-08-05T09:47:14Z</time>
      </trkpt>
      <trkpt lat="45.02983" lon="3.50863">
        <ele>693.73</ele>
        <time>2021-08-05T09:47:27Z</time>
      </trkpt>
      <trkpt lat="45.02986" lon="3.50864">
        <ele>693.25</ele>
        <time>2021-08-05T09:47:41Z</time>
      </trkpt>
      <trkpt lat="45.02986" lon="3.50864">
        <ele>692.29</ele>
        <time>2021-08-05T09:47:55Z</time>
      </trkpt>
      <trkpt lat="45.03001" lon="3.50874">
        <ele>689.88</ele>
        <time>2021-08-05T09:48:11Z</time>
      </trkpt>
      <trkpt lat="45.03003" lon="3.5088">
        <ele>689.4</ele>
        <time>2021-08-05T09:48:28Z</time>
      </trkpt>
      <trkpt lat="45.03007" lon="3.50885">
        <ele>688.92</ele>
        <time>2021-08-05T09:48:47Z</time>
      </trkpt>
      <trkpt lat="45.03013" lon="3.50888">
        <ele>689.4</ele>
        <time>2021-08-05T09:49:05Z</time>
      </trkpt>
      <trkpt lat="45.03015" lon="3.50888">
        <ele>689.4</ele>
        <time>2021-08-05T09:49:21Z</time>
      </trkpt>
      <trkpt lat="45.03028" lon="3.50891">
        <ele>687.96</ele>
        <time>2021-08-05T09:49:32Z</time>
      </trkpt>
      <trkpt lat="45.03039" lon="3.50892">
        <ele>686.52</ele>
        <time>2021-08-05T09:49:45Z</time>
      </trkpt>
      <trkpt lat="45.03054" lon="3.50896">
        <ele>684.6</ele>
        <time>2021-08-05T09:49:57Z</time>
      </trkpt>
      <trkpt lat="45.0306" lon="3.50894">
        <ele>685.56</ele>
        <time>2021-08-05T09:50:09Z</time>
      </trkpt>
      <trkpt lat="45.03063" lon="3.50891">
        <ele>685.56</ele>
        <time>2021-08-05T09:50:22Z</time>
      </trkpt>
      <trkpt lat="45.03066" lon="3.50888">
        <ele>686.04</ele>
        <time>2021-08-05T09:50:35Z</time>
      </trkpt>
      <trkpt lat="45.03067" lon="3.50888">
        <ele>686.52</ele>
        <time>2021-08-05T09:50:41Z</time>
      </trkpt>
      <trkpt lat="45.03069" lon="3.50888">
        <ele>685.56</ele>
        <time>2021-08-05T09:50:43Z</time>
      </trkpt>
      <trkpt lat="45.03071" lon="3.50889">
        <ele>684.6</ele>
        <time>2021-08-05T09:50:55Z</time>
      </trkpt>
      <trkpt lat="45.03076" lon="3.50888">
        <ele>688.92</ele>
        <time>2021-08-05T09:51:26Z</time>
      </trkpt>
      <trkpt lat="45.03077" lon="3.50888">
        <ele>689.4</ele>
        <time>2021-08-05T09:51:48Z</time>
      </trkpt>
      <trkpt lat="45.03078" lon="3.50887">
        <ele>689.88</ele>
        <time>2021-08-05T09:52:12Z</time>
      </trkpt>
      <trkpt lat="45.03079" lon="3.50887">
        <ele>691.81</ele>
        <time>2021-08-05T09:52:40Z</time>
      </trkpt>
      <trkpt lat="45.0308" lon="3.50888">
        <ele>692.29</ele>
        <time>2021-08-05T09:53:07Z</time>
      </trkpt>
      <trkpt lat="45.03081" lon="3.50887">
        <ele>691.81</ele>
        <time>2021-08-05T09:53:32Z</time>
      </trkpt>
      <trkpt lat="45.03081" lon="3.50886">
        <ele>692.29</ele>
        <time>2021-08-05T09:53:38Z</time>
      </trkpt>
      <trkpt lat="45.0308" lon="3.50887">
        <ele>691.81</ele>
        <time>2021-08-05T09:53:48Z</time>
      </trkpt>
      <trkpt lat="45.03075" lon="3.50889">
        <ele>691.81</ele>
        <time>2021-08-05T09:54:02Z</time>
      </trkpt>
      <trkpt lat="45.03074" lon="3.50889">
        <ele>690.36</ele>
        <time>2021-08-05T09:54:17Z</time>
      </trkpt>
      <trkpt lat="45.03075" lon="3.50886">
        <ele>689.4</ele>
        <time>2021-08-05T09:54:20Z</time>
      </trkpt>
      <trkpt lat="45.03074" lon="3.50884">
        <ele>688.44</ele>
        <time>2021-08-05T09:54:33Z</time>
      </trkpt>
      <trkpt lat="45.03072" lon="3.50884">
        <ele>686.52</ele>
        <time>2021-08-05T09:55:06Z</time>
      </trkpt>
      <trkpt lat="45.03071" lon="3.50886">
        <ele>685.56</ele>
        <time>2021-08-05T09:55:34Z</time>
      </trkpt>
      <trkpt lat="45.03071" lon="3.50886">
        <ele>685.08</ele>
        <time>2021-08-05T09:55:59Z</time>
      </trkpt>
      <trkpt lat="45.03072" lon="3.50885">
        <ele>685.08</ele>
        <time>2021-08-05T09:56:27Z</time>
      </trkpt>
      <trkpt lat="45.03073" lon="3.50885">
        <ele>684.6</ele>
        <time>2021-08-05T09:56:57Z</time>
      </trkpt>
      <trkpt lat="45.03073" lon="3.50884">
        <ele>684.12</ele>
        <time>2021-08-05T09:57:29Z</time>
      </trkpt>
      <trkpt lat="45.03074" lon="3.50884">
        <ele>683.15</ele>
        <time>2021-08-05T09:58:00Z</time>
      </trkpt>
      <trkpt lat="45.03075" lon="3.50884">
        <ele>682.67</ele>
        <time>2021-08-05T09:58:25Z</time>
      </trkpt>
      <trkpt lat="45.03075" lon="3.50884">
        <ele>682.67</ele>
        <time>2021-08-05T09:58:52Z</time>
      </trkpt>
      <trkpt lat="45.03076" lon="3.50884">
        <ele>682.19</ele>
        <time>2021-08-05T09:59:19Z</time>
      </trkpt>
      <trkpt lat="45.03075" lon="3.50884">
        <ele>682.19</ele>
        <time>2021-08-05T09:59:46Z</time>
      </trkpt>
      <trkpt lat="45.03075" lon="3.50883">
        <ele>682.67</ele>
        <time>2021-08-05T10:00:17Z</time>
      </trkpt>
      <trkpt lat="45.03074" lon="3.50883">
        <ele>682.67</ele>
        <time>2021-08-05T10:00:47Z</time>
      </trkpt>
      <trkpt lat="45.03075" lon="3.50881">
        <ele>682.19</ele>
        <time>2021-08-05T10:01:13Z</time>
      </trkpt>
      <trkpt lat="45.03076" lon="3.5088">
        <ele>682.19</ele>
        <time>2021-08-05T10:01:44Z</time>
      </trkpt>
      <trkpt lat="45.03074" lon="3.50882">
        <ele>683.15</ele>
        <time>2021-08-05T10:02:06Z</time>
      </trkpt>
      <trkpt lat="45.03074" lon="3.50882">
        <ele>683.63</ele>
        <time>2021-08-05T10:02:40Z</time>
      </trkpt>
      <trkpt lat="45.03074" lon="3.50882">
        <ele>683.15</ele>
        <time>2021-08-05T10:03:03Z</time>
      </trkpt>
      <trkpt lat="45.03074" lon="3.50881">
        <ele>682.67</ele>
        <time>2021-08-05T10:03:29Z</time>
      </trkpt>
      <trkpt lat="45.03074" lon="3.5088">
        <ele>682.19</ele>
        <time>2021-08-05T10:03:55Z</time>
      </trkpt>
      <trkpt lat="45.03074" lon="3.5088">
        <ele>681.71</ele>
        <time>2021-08-05T10:04:20Z</time>
      </trkpt>
      <trkpt lat="45.03075" lon="3.5088">
        <ele>681.23</ele>
        <time>2021-08-05T10:04:47Z</time>
      </trkpt>
      <trkpt lat="45.03075" lon="3.50879">
        <ele>680.75</ele>
        <time>2021-08-05T10:05:14Z</time>
      </trkpt>
      <trkpt lat="45.03075" lon="3.50879">
        <ele>680.27</ele>
        <time>2021-08-05T10:05:45Z</time>
      </trkpt>
      <trkpt lat="45.03075" lon="3.50879">
        <ele>680.27</ele>
        <time>2021-08-05T10:06:09Z</time>
      </trkpt>
      <trkpt lat="45.03075" lon="3.50879">
        <ele>680.75</ele>
        <time>2021-08-05T10:06:33Z</time>
      </trkpt>
      <trkpt lat="45.03075" lon="3.50879">
        <ele>681.23</ele>
        <time>2021-08-05T10:06:59Z</time>
      </trkpt>
      <trkpt lat="45.03075" lon="3.50879">
        <ele>681.23</ele>
        <time>2021-08-05T10:07:25Z</time>
      </trkpt>
      <trkpt lat="45.03075" lon="3.50879">
        <ele>680.75</ele>
        <time>2021-08-05T10:07:53Z</time>
      </trkpt>
      <trkpt lat="45.03074" lon="3.50881">
        <ele>680.75</ele>
        <time>2021-08-05T10:08:23Z</time>
      </trkpt>
      <trkpt lat="45.03073" lon="3.50881">
        <ele>682.19</ele>
        <time>2021-08-05T10:08:57Z</time>
      </trkpt>
      <trkpt lat="45.03072" lon="3.50882">
        <ele>682.19</ele>
        <time>2021-08-05T10:09:28Z</time>
      </trkpt>
      <trkpt lat="45.03071" lon="3.50883">
        <ele>683.15</ele>
        <time>2021-08-05T10:10:03Z</time>
      </trkpt>
      <trkpt lat="45.03071" lon="3.50885">
        <ele>682.19</ele>
        <time>2021-08-05T10:10:34Z</time>
      </trkpt>
      <trkpt lat="45.03072" lon="3.50885">
        <ele>682.19</ele>
        <time>2021-08-05T10:11:06Z</time>
      </trkpt>
      <trkpt lat="45.03073" lon="3.50885">
        <ele>681.71</ele>
        <time>2021-08-05T10:11:29Z</time>
      </trkpt>
      <trkpt lat="45.03073" lon="3.50884">
        <ele>682.19</ele>
        <time>2021-08-05T10:11:55Z</time>
      </trkpt>
      <trkpt lat="45.03072" lon="3.50884">
        <ele>682.19</ele>
        <time>2021-08-05T10:12:15Z</time>
      </trkpt>
      <trkpt lat="45.03072" lon="3.50883">
        <ele>682.19</ele>
        <time>2021-08-05T10:12:43Z</time>
      </trkpt>
      <trkpt lat="45.03072" lon="3.50883">
        <ele>682.19</ele>
        <time>2021-08-05T10:13:10Z</time>
      </trkpt>
      <trkpt lat="45.03072" lon="3.50882">
        <ele>681.23</ele>
        <time>2021-08-05T10:13:30Z</time>
      </trkpt>
      <trkpt lat="45.03072" lon="3.50882">
        <ele>680.27</ele>
        <time>2021-08-05T10:13:51Z</time>
      </trkpt>
      <trkpt lat="45.03072" lon="3.50882">
        <ele>680.75</ele>
        <time>2021-08-05T10:14:14Z</time>
      </trkpt>
      <trkpt lat="45.03072" lon="3.50881">
        <ele>680.27</ele>
        <time>2021-08-05T10:14:40Z</time>
      </trkpt>
      <trkpt lat="45.03072" lon="3.50881">
        <ele>680.27</ele>
        <time>2021-08-05T10:15:03Z</time>
      </trkpt>
      <trkpt lat="45.03073" lon="3.50881">
        <ele>680.27</ele>
        <time>2021-08-05T10:15:34Z</time>
      </trkpt>
      <trkpt lat="45.03072" lon="3.50881">
        <ele>680.27</ele>
        <time>2021-08-05T10:15:57Z</time>
      </trkpt>
      <trkpt lat="45.03072" lon="3.50882">
        <ele>679.31</ele>
        <time>2021-08-05T10:16:22Z</time>
      </trkpt>
      <trkpt lat="45.03071" lon="3.50882">
        <ele>679.31</ele>
        <time>2021-08-05T10:16:48Z</time>
      </trkpt>
      <trkpt lat="45.03071" lon="3.50882">
        <ele>678.83</ele>
        <time>2021-08-05T10:17:17Z</time>
      </trkpt>
      <trkpt lat="45.0307" lon="3.50882">
        <ele>677.39</ele>
        <time>2021-08-05T10:17:47Z</time>
      </trkpt>
      <trkpt lat="45.0307" lon="3.50883">
        <ele>677.39</ele>
        <time>2021-08-05T10:18:14Z</time>
      </trkpt>
      <trkpt lat="45.03069" lon="3.50882">
        <ele>675.94</ele>
        <time>2021-08-05T10:18:40Z</time>
      </trkpt>
      <trkpt lat="45.03069" lon="3.50881">
        <ele>675.94</ele>
        <time>2021-08-05T10:19:09Z</time>
      </trkpt>
      <trkpt lat="45.03068" lon="3.50883">
        <ele>677.39</ele>
        <time>2021-08-05T10:19:32Z</time>
      </trkpt>
      <trkpt lat="45.03068" lon="3.50883">
        <ele>677.39</ele>
        <time>2021-08-05T10:19:36Z</time>
      </trkpt>
      <trkpt lat="45.0307" lon="3.50885">
        <ele>679.79</ele>
        <time>2021-08-05T10:19:42Z</time>
      </trkpt>
      <trkpt lat="45.03067" lon="3.50889">
        <ele>680.27</ele>
        <time>2021-08-05T10:19:48Z</time>
      </trkpt>
      <trkpt lat="45.03062" lon="3.50887">
        <ele>680.27</ele>
        <time>2021-08-05T10:19:53Z</time>
      </trkpt>
      <trkpt lat="45.03066" lon="3.50888">
        <ele>681.71</ele>
        <time>2021-08-05T10:20:05Z</time>
      </trkpt>
      <trkpt lat="45.03072" lon="3.50889">
        <ele>682.67</ele>
        <time>2021-08-05T10:20:17Z</time>
      </trkpt>
      <trkpt lat="45.03073" lon="3.50888">
        <ele>682.19</ele>
        <time>2021-08-05T10:20:28Z</time>
      </trkpt>
      <trkpt lat="45.03073" lon="3.50886">
        <ele>682.19</ele>
        <time>2021-08-05T10:20:48Z</time>
      </trkpt>
      <trkpt lat="45.03073" lon="3.50886">
        <ele>682.19</ele>
        <time>2021-08-05T10:20:50Z</time>
      </trkpt>
      <trkpt lat="45.0307" lon="3.50887">
        <ele>682.19</ele>
        <time>2021-08-05T10:20:54Z</time>
      </trkpt>
      <trkpt lat="45.03064" lon="3.50889">
        <ele>684.12</ele>
        <time>2021-08-05T10:21:08Z</time>
      </trkpt>
      <trkpt lat="45.03063" lon="3.50887">
        <ele>684.12</ele>
        <time>2021-08-05T10:21:15Z</time>
      </trkpt>
      <trkpt lat="45.03066" lon="3.50885">
        <ele>683.63</ele>
        <time>2021-08-05T10:21:18Z</time>
      </trkpt>
      <trkpt lat="45.03074" lon="3.50885">
        <ele>686.52</ele>
        <time>2021-08-05T10:21:30Z</time>
      </trkpt>
      <trkpt lat="45.03074" lon="3.50888">
        <ele>685.08</ele>
        <time>2021-08-05T10:21:44Z</time>
      </trkpt>
      <trkpt lat="45.03072" lon="3.50891">
        <ele>686.04</ele>
        <time>2021-08-05T10:21:54Z</time>
      </trkpt>
      <trkpt lat="45.03071" lon="3.50891">
        <ele>686.04</ele>
        <time>2021-08-05T10:22:04Z</time>
      </trkpt>
      <trkpt lat="45.03069" lon="3.50888">
        <ele>686.52</ele>
        <time>2021-08-05T10:22:18Z</time>
      </trkpt>
      <trkpt lat="45.03072" lon="3.50886">
        <ele>686.52</ele>
        <time>2021-08-05T10:22:29Z</time>
      </trkpt>
      <trkpt lat="45.03076" lon="3.50896">
        <ele>686.52</ele>
        <time>2021-08-05T10:22:41Z</time>
      </trkpt>
      <trkpt lat="45.03076" lon="3.50899">
        <ele>686.04</ele>
        <time>2021-08-05T10:22:43Z</time>
      </trkpt>
      <trkpt lat="45.03075" lon="3.50914">
        <ele>685.56</ele>
        <time>2021-08-05T10:22:52Z</time>
      </trkpt>
      <trkpt lat="45.03074" lon="3.50921">
        <ele>686.04</ele>
        <time>2021-08-05T10:22:57Z</time>
      </trkpt>
      <trkpt lat="45.03076" lon="3.50944">
        <ele>688.44</ele>
        <time>2021-08-05T10:23:13Z</time>
      </trkpt>
      <trkpt lat="45.03076" lon="3.50951">
        <ele>688.92</ele>
        <time>2021-08-05T10:23:24Z</time>
      </trkpt>
      <trkpt lat="45.03079" lon="3.50961">
        <ele>690.36</ele>
        <time>2021-08-05T10:23:33Z</time>
      </trkpt>
      <trkpt lat="45.03081" lon="3.50962">
        <ele>690.84</ele>
        <time>2021-08-05T10:23:35Z</time>
      </trkpt>
      <trkpt lat="45.0309" lon="3.50969">
        <ele>695.17</ele>
        <time>2021-08-05T10:23:48Z</time>
      </trkpt>
      <trkpt lat="45.03092" lon="3.50972">
        <ele>695.65</ele>
        <time>2021-08-05T10:23:52Z</time>
      </trkpt>
      <trkpt lat="45.03106" lon="3.50977">
        <ele>699.98</ele>
        <time>2021-08-05T10:24:07Z</time>
      </trkpt>
      <trkpt lat="45.03113" lon="3.50976">
        <ele>701.9</ele>
        <time>2021-08-05T10:24:19Z</time>
      </trkpt>
      <trkpt lat="45.03118" lon="3.50974">
        <ele>703.82</ele>
        <time>2021-08-05T10:24:34Z</time>
      </trkpt>
      <trkpt lat="45.03122" lon="3.50975">
        <ele>704.78</ele>
        <time>2021-08-05T10:24:46Z</time>
      </trkpt>
      <trkpt lat="45.03123" lon="3.50975">
        <ele>704.78</ele>
        <time>2021-08-05T10:24:47Z</time>
      </trkpt>
      <trkpt lat="45.0313" lon="3.50971">
        <ele>706.71</ele>
        <time>2021-08-05T10:25:01Z</time>
      </trkpt>
      <trkpt lat="45.03135" lon="3.50972">
        <ele>705.75</ele>
        <time>2021-08-05T10:25:15Z</time>
      </trkpt>
      <trkpt lat="45.0314" lon="3.50972">
        <ele>706.23</ele>
        <time>2021-08-05T10:25:29Z</time>
      </trkpt>
      <trkpt lat="45.03147" lon="3.50973">
        <ele>707.19</ele>
        <time>2021-08-05T10:25:43Z</time>
      </trkpt>
      <trkpt lat="45.03149" lon="3.50973">
        <ele>707.67</ele>
        <time>2021-08-05T10:25:50Z</time>
      </trkpt>
      <trkpt lat="45.03154" lon="3.50975">
        <ele>708.15</ele>
        <time>2021-08-05T10:25:54Z</time>
      </trkpt>
      <trkpt lat="45.03159" lon="3.50982">
        <ele>708.63</ele>
        <time>2021-08-05T10:26:00Z</time>
      </trkpt>
      <trkpt lat="45.03159" lon="3.50986">
        <ele>708.15</ele>
        <time>2021-08-05T10:26:02Z</time>
      </trkpt>
      <trkpt lat="45.03158" lon="3.50992">
        <ele>708.15</ele>
        <time>2021-08-05T10:26:06Z</time>
      </trkpt>
      <trkpt lat="45.03154" lon="3.50996">
        <ele>708.63</ele>
        <time>2021-08-05T10:26:11Z</time>
      </trkpt>
      <trkpt lat="45.03151" lon="3.51003">
        <ele>709.11</ele>
        <time>2021-08-05T10:26:17Z</time>
      </trkpt>
      <trkpt lat="45.03149" lon="3.51004">
        <ele>709.11</ele>
        <time>2021-08-05T10:26:19Z</time>
      </trkpt>
      <trkpt lat="45.03143" lon="3.5101">
        <ele>708.63</ele>
        <time>2021-08-05T10:26:31Z</time>
      </trkpt>
      <trkpt lat="45.03142" lon="3.51011">
        <ele>708.63</ele>
        <time>2021-08-05T10:26:33Z</time>
      </trkpt>
      <trkpt lat="45.03141" lon="3.51021">
        <ele>710.07</ele>
        <time>2021-08-05T10:26:43Z</time>
      </trkpt>
      <trkpt lat="45.03144" lon="3.51025">
        <ele>711.51</ele>
        <time>2021-08-05T10:26:48Z</time>
      </trkpt>
      <trkpt lat="45.03152" lon="3.51034">
        <ele>715.36</ele>
        <time>2021-08-05T10:27:02Z</time>
      </trkpt>
      <trkpt lat="45.03162" lon="3.51043">
        <ele>717.76</ele>
        <time>2021-08-05T10:27:15Z</time>
      </trkpt>
      <trkpt lat="45.03171" lon="3.51052">
        <ele>719.2</ele>
        <time>2021-08-05T10:27:29Z</time>
      </trkpt>
      <trkpt lat="45.0318" lon="3.51062">
        <ele>719.68</ele>
        <time>2021-08-05T10:27:40Z</time>
      </trkpt>
      <trkpt lat="45.03185" lon="3.51083">
        <ele>720.16</ele>
        <time>2021-08-05T10:27:56Z</time>
      </trkpt>
      <trkpt lat="45.03187" lon="3.51096">
        <ele>722.09</ele>
        <time>2021-08-05T10:28:05Z</time>
      </trkpt>
      <trkpt lat="45.03184" lon="3.51106">
        <ele>722.09</ele>
        <time>2021-08-05T10:28:11Z</time>
      </trkpt>
      <trkpt lat="45.03188" lon="3.51126">
        <ele>724.49</ele>
        <time>2021-08-05T10:28:24Z</time>
      </trkpt>
      <trkpt lat="45.03193" lon="3.51136">
        <ele>726.41</ele>
        <time>2021-08-05T10:28:37Z</time>
      </trkpt>
      <trkpt lat="45.03201" lon="3.51119">
        <ele>725.45</ele>
        <time>2021-08-05T10:28:54Z</time>
      </trkpt>
      <trkpt lat="45.03212" lon="3.511">
        <ele>727.86</ele>
        <time>2021-08-05T10:29:09Z</time>
      </trkpt>
      <trkpt lat="45.0322" lon="3.51092">
        <ele>728.34</ele>
        <time>2021-08-05T10:29:20Z</time>
      </trkpt>
      <trkpt lat="45.03225" lon="3.51085">
        <ele>728.82</ele>
        <time>2021-08-05T10:29:29Z</time>
      </trkpt>
      <trkpt lat="45.03236" lon="3.51079">
        <ele>729.3</ele>
        <time>2021-08-05T10:29:45Z</time>
      </trkpt>
      <trkpt lat="45.03253" lon="3.51075">
        <ele>731.22</ele>
        <time>2021-08-05T10:30:01Z</time>
      </trkpt>
      <trkpt lat="45.03272" lon="3.51077">
        <ele>732.18</ele>
        <time>2021-08-05T10:30:17Z</time>
      </trkpt>
      <trkpt lat="45.03288" lon="3.51074">
        <ele>734.1</ele>
        <time>2021-08-05T10:30:32Z</time>
      </trkpt>
      <trkpt lat="45.03288" lon="3.51074">
        <ele>734.1</ele>
        <time>2021-08-05T10:30:33Z</time>
      </trkpt>
      <trkpt lat="45.03289" lon="3.51075">
        <ele>733.14</ele>
        <time>2021-08-05T10:30:43Z</time>
      </trkpt>
      <trkpt lat="45.0329" lon="3.51073">
        <ele>732.18</ele>
        <time>2021-08-05T10:30:57Z</time>
      </trkpt>
      <trkpt lat="45.03301" lon="3.51071">
        <ele>732.18</ele>
        <time>2021-08-05T10:31:07Z</time>
      </trkpt>
      <trkpt lat="45.03317" lon="3.51065">
        <ele>732.66</ele>
        <time>2021-08-05T10:31:22Z</time>
      </trkpt>
      <trkpt lat="45.03319" lon="3.51065">
        <ele>732.66</ele>
        <time>2021-08-05T10:31:23Z</time>
      </trkpt>
      <trkpt lat="45.03321" lon="3.51065">
        <ele>732.66</ele>
        <time>2021-08-05T10:31:25Z</time>
      </trkpt>
      <trkpt lat="45.03337" lon="3.51059">
        <ele>734.58</ele>
        <time>2021-08-05T10:31:40Z</time>
      </trkpt>
      <trkpt lat="45.03353" lon="3.51053">
        <ele>737.47</ele>
        <time>2021-08-05T10:31:55Z</time>
      </trkpt>
      <trkpt lat="45.03366" lon="3.5105">
        <ele>739.39</ele>
        <time>2021-08-05T10:32:07Z</time>
      </trkpt>
      <trkpt lat="45.03384" lon="3.51049">
        <ele>741.79</ele>
        <time>2021-08-05T10:32:23Z</time>
      </trkpt>
      <trkpt lat="45.03403" lon="3.51045">
        <ele>742.28</ele>
        <time>2021-08-05T10:32:40Z</time>
      </trkpt>
      <trkpt lat="45.03419" lon="3.51046">
        <ele>743.24</ele>
        <time>2021-08-05T10:32:55Z</time>
      </trkpt>
      <trkpt lat="45.03421" lon="3.51045">
        <ele>743.24</ele>
        <time>2021-08-05T10:32:59Z</time>
      </trkpt>
      <trkpt lat="45.03429" lon="3.51048">
        <ele>744.68</ele>
        <time>2021-08-05T10:33:06Z</time>
      </trkpt>
      <trkpt lat="45.03442" lon="3.51059">
        <ele>747.08</ele>
        <time>2021-08-05T10:33:20Z</time>
      </trkpt>
      <trkpt lat="45.03443" lon="3.51062">
        <ele>747.08</ele>
        <time>2021-08-05T10:33:22Z</time>
      </trkpt>
      <trkpt lat="45.03445" lon="3.51064">
        <ele>747.56</ele>
        <time>2021-08-05T10:33:24Z</time>
      </trkpt>
      <trkpt lat="45.03449" lon="3.51078">
        <ele>750.45</ele>
        <time>2021-08-05T10:33:36Z</time>
      </trkpt>
      <trkpt lat="45.03447" lon="3.5108">
        <ele>750.93</ele>
        <time>2021-08-05T10:33:38Z</time>
      </trkpt>
      <trkpt lat="45.03444" lon="3.51084">
        <ele>751.41</ele>
        <time>2021-08-05T10:33:42Z</time>
      </trkpt>
      <trkpt lat="45.03442" lon="3.51085">
        <ele>751.41</ele>
        <time>2021-08-05T10:33:44Z</time>
      </trkpt>
      <trkpt lat="45.03436" lon="3.51085">
        <ele>752.37</ele>
        <time>2021-08-05T10:33:58Z</time>
      </trkpt>
      <trkpt lat="45.03436" lon="3.51085">
        <ele>752.37</ele>
        <time>2021-08-05T10:34:00Z</time>
      </trkpt>
      <trkpt lat="45.03434" lon="3.51082">
        <ele>751.41</ele>
        <time>2021-08-05T10:34:04Z</time>
      </trkpt>
      <trkpt lat="45.03434" lon="3.51079">
        <ele>750.45</ele>
        <time>2021-08-05T10:34:10Z</time>
      </trkpt>
      <trkpt lat="45.03434" lon="3.51079">
        <ele>750.45</ele>
        <time>2021-08-05T10:34:32Z</time>
      </trkpt>
      <trkpt lat="45.03435" lon="3.51079">
        <ele>751.89</ele>
        <time>2021-08-05T10:35:21Z</time>
      </trkpt>
      <trkpt lat="45.03435" lon="3.51079">
        <ele>751.89</ele>
        <time>2021-08-05T10:36:05Z</time>
      </trkpt>
      <trkpt lat="45.03435" lon="3.5108">
        <ele>751.89</ele>
        <time>2021-08-05T10:36:46Z</time>
      </trkpt>
      <trkpt lat="45.03435" lon="3.5108">
        <ele>751.89</ele>
        <time>2021-08-05T10:37:17Z</time>
      </trkpt>
      <trkpt lat="45.03435" lon="3.51079">
        <ele>751.41</ele>
        <time>2021-08-05T10:37:39Z</time>
      </trkpt>
      <trkpt lat="45.03436" lon="3.51085">
        <ele>752.37</ele>
        <time>2021-08-05T10:37:47Z</time>
      </trkpt>
      <trkpt lat="45.03435" lon="3.51086">
        <ele>752.37</ele>
        <time>2021-08-05T10:37:49Z</time>
      </trkpt>
      <trkpt lat="45.03429" lon="3.51088">
        <ele>753.33</ele>
        <time>2021-08-05T10:37:53Z</time>
      </trkpt>
      <trkpt lat="45.03421" lon="3.51094">
        <ele>754.77</ele>
        <time>2021-08-05T10:38:00Z</time>
      </trkpt>
      <trkpt lat="45.03405" lon="3.51114">
        <ele>757.18</ele>
        <time>2021-08-05T10:38:17Z</time>
      </trkpt>
      <trkpt lat="45.03389" lon="3.51131">
        <ele>761.98</ele>
        <time>2021-08-05T10:38:33Z</time>
      </trkpt>
      <trkpt lat="45.03389" lon="3.51132">
        <ele>761.98</ele>
        <time>2021-08-05T10:38:34Z</time>
      </trkpt>
      <trkpt lat="45.03374" lon="3.51149">
        <ele>766.79</ele>
        <time>2021-08-05T10:38:50Z</time>
      </trkpt>
      <trkpt lat="45.03358" lon="3.51163">
        <ele>769.67</ele>
        <time>2021-08-05T10:39:05Z</time>
      </trkpt>
      <trkpt lat="45.03336" lon="3.51186">
        <ele>773.04</ele>
        <time>2021-08-05T10:39:24Z</time>
      </trkpt>
      <trkpt lat="45.03324" lon="3.512">
        <ele>776.4</ele>
        <time>2021-08-05T10:39:39Z</time>
      </trkpt>
      <trkpt lat="45.03309" lon="3.51217">
        <ele>779.77</ele>
        <time>2021-08-05T10:39:55Z</time>
      </trkpt>
      <trkpt lat="45.03304" lon="3.51223">
        <ele>781.69</ele>
        <time>2021-08-05T10:40:05Z</time>
      </trkpt>
      <trkpt lat="45.03293" lon="3.51236">
        <ele>782.65</ele>
        <time>2021-08-05T10:40:21Z</time>
      </trkpt>
      <trkpt lat="45.03293" lon="3.51238">
        <ele>783.13</ele>
        <time>2021-08-05T10:40:25Z</time>
      </trkpt>
      <trkpt lat="45.0329" lon="3.51244">
        <ele>782.65</ele>
        <time>2021-08-05T10:40:29Z</time>
      </trkpt>
      <trkpt lat="45.03278" lon="3.51268">
        <ele>784.09</ele>
        <time>2021-08-05T10:40:46Z</time>
      </trkpt>
      <trkpt lat="45.0327" lon="3.5129">
        <ele>786.02</ele>
        <time>2021-08-05T10:41:01Z</time>
      </trkpt>
      <trkpt lat="45.03259" lon="3.5132">
        <ele>788.42</ele>
        <time>2021-08-05T10:41:19Z</time>
      </trkpt>
      <trkpt lat="45.0325" lon="3.51345">
        <ele>788.9</ele>
        <time>2021-08-05T10:41:35Z</time>
      </trkpt>
      <trkpt lat="45.03243" lon="3.5137">
        <ele>789.38</ele>
        <time>2021-08-05T10:41:50Z</time>
      </trkpt>
      <trkpt lat="45.03241" lon="3.51375">
        <ele>790.82</ele>
        <time>2021-08-05T10:41:54Z</time>
      </trkpt>
      <trkpt lat="45.03239" lon="3.51382">
        <ele>791.78</ele>
        <time>2021-08-05T10:41:59Z</time>
      </trkpt>
      <trkpt lat="45.03237" lon="3.51405">
        <ele>794.67</ele>
        <time>2021-08-05T10:42:14Z</time>
      </trkpt>
      <trkpt lat="45.03235" lon="3.51413">
        <ele>795.63</ele>
        <time>2021-08-05T10:42:20Z</time>
      </trkpt>
      <trkpt lat="45.03234" lon="3.51424">
        <ele>796.11</ele>
        <time>2021-08-05T10:42:27Z</time>
      </trkpt>
      <trkpt lat="45.03226" lon="3.51443">
        <ele>797.55</ele>
        <time>2021-08-05T10:42:41Z</time>
      </trkpt>
      <trkpt lat="45.03224" lon="3.51457">
        <ele>799.95</ele>
        <time>2021-08-05T10:42:55Z</time>
      </trkpt>
      <trkpt lat="45.03222" lon="3.51459">
        <ele>798.99</ele>
        <time>2021-08-05T10:43:06Z</time>
      </trkpt>
      <trkpt lat="45.03221" lon="3.51458">
        <ele>797.55</ele>
        <time>2021-08-05T10:43:27Z</time>
      </trkpt>
      <trkpt lat="45.0322" lon="3.51459">
        <ele>797.55</ele>
        <time>2021-08-05T10:43:35Z</time>
      </trkpt>
      <trkpt lat="45.03203" lon="3.51473">
        <ele>800.44</ele>
        <time>2021-08-05T10:43:51Z</time>
      </trkpt>
      <trkpt lat="45.03187" lon="3.51479">
        <ele>800.92</ele>
        <time>2021-08-05T10:44:04Z</time>
      </trkpt>
      <trkpt lat="45.03176" lon="3.51484">
        <ele>801.4</ele>
        <time>2021-08-05T10:44:17Z</time>
      </trkpt>
      <trkpt lat="45.03154" lon="3.51493">
        <ele>802.84</ele>
        <time>2021-08-05T10:44:35Z</time>
      </trkpt>
      <trkpt lat="45.03148" lon="3.51491">
        <ele>803.32</ele>
        <time>2021-08-05T10:44:49Z</time>
      </trkpt>
      <trkpt lat="45.03129" lon="3.51497">
        <ele>806.68</ele>
        <time>2021-08-05T10:45:07Z</time>
      </trkpt>
      <trkpt lat="45.0311" lon="3.51499">
        <ele>810.05</ele>
        <time>2021-08-05T10:45:23Z</time>
      </trkpt>
      <trkpt lat="45.03107" lon="3.51501">
        <ele>810.53</ele>
        <time>2021-08-05T10:45:26Z</time>
      </trkpt>
      <trkpt lat="45.03101" lon="3.51506">
        <ele>813.41</ele>
        <time>2021-08-05T10:45:42Z</time>
      </trkpt>
      <trkpt lat="45.03103" lon="3.51513">
        <ele>815.34</ele>
        <time>2021-08-05T10:45:49Z</time>
      </trkpt>
      <trkpt lat="45.03106" lon="3.51518">
        <ele>815.82</ele>
        <time>2021-08-05T10:45:54Z</time>
      </trkpt>
      <trkpt lat="45.0311" lon="3.51529">
        <ele>817.26</ele>
        <time>2021-08-05T10:46:03Z</time>
      </trkpt>
      <trkpt lat="45.03112" lon="3.51546">
        <ele>819.66</ele>
        <time>2021-08-05T10:46:18Z</time>
      </trkpt>
      <trkpt lat="45.03112" lon="3.51552">
        <ele>820.14</ele>
        <time>2021-08-05T10:46:23Z</time>
      </trkpt>
      <trkpt lat="45.03112" lon="3.51571">
        <ele>821.1</ele>
        <time>2021-08-05T10:46:39Z</time>
      </trkpt>
      <trkpt lat="45.03114" lon="3.5159">
        <ele>824.47</ele>
        <time>2021-08-05T10:46:52Z</time>
      </trkpt>
      <trkpt lat="45.03117" lon="3.51602">
        <ele>827.35</ele>
        <time>2021-08-05T10:47:01Z</time>
      </trkpt>
      <trkpt lat="45.03117" lon="3.51605">
        <ele>827.83</ele>
        <time>2021-08-05T10:47:03Z</time>
      </trkpt>
      <trkpt lat="45.03119" lon="3.51612">
        <ele>828.31</ele>
        <time>2021-08-05T10:47:08Z</time>
      </trkpt>
      <trkpt lat="45.03117" lon="3.51617">
        <ele>829.76</ele>
        <time>2021-08-05T10:47:19Z</time>
      </trkpt>
      <trkpt lat="45.0312" lon="3.51625">
        <ele>831.68</ele>
        <time>2021-08-05T10:47:29Z</time>
      </trkpt>
      <trkpt lat="45.03122" lon="3.51635">
        <ele>833.6</ele>
        <time>2021-08-05T10:47:37Z</time>
      </trkpt>
      <trkpt lat="45.03123" lon="3.51643">
        <ele>836</ele>
        <time>2021-08-05T10:47:50Z</time>
      </trkpt>
      <trkpt lat="45.03123" lon="3.51645">
        <ele>836</ele>
        <time>2021-08-05T10:47:53Z</time>
      </trkpt>
      <trkpt lat="45.03122" lon="3.51654">
        <ele>836</ele>
        <time>2021-08-05T10:47:59Z</time>
      </trkpt>
      <trkpt lat="45.03123" lon="3.51662">
        <ele>836</ele>
        <time>2021-08-05T10:48:04Z</time>
      </trkpt>
      <trkpt lat="45.03121" lon="3.51676">
        <ele>836</ele>
        <time>2021-08-05T10:48:17Z</time>
      </trkpt>
      <trkpt lat="45.03121" lon="3.51676">
        <ele>836</ele>
        <time>2021-08-05T10:48:21Z</time>
      </trkpt>
      <trkpt lat="45.0312" lon="3.51691">
        <ele>838.89</ele>
        <time>2021-08-05T10:48:34Z</time>
      </trkpt>
      <trkpt lat="45.03117" lon="3.51711">
        <ele>841.77</ele>
        <time>2021-08-05T10:48:49Z</time>
      </trkpt>
      <trkpt lat="45.03114" lon="3.5173">
        <ele>845.14</ele>
        <time>2021-08-05T10:49:03Z</time>
      </trkpt>
      <trkpt lat="45.0311" lon="3.51743">
        <ele>846.58</ele>
        <time>2021-08-05T10:49:15Z</time>
      </trkpt>
      <trkpt lat="45.03111" lon="3.51757">
        <ele>847.54</ele>
        <time>2021-08-05T10:49:28Z</time>
      </trkpt>
      <trkpt lat="45.03111" lon="3.51761">
        <ele>847.54</ele>
        <time>2021-08-05T10:49:31Z</time>
      </trkpt>
      <trkpt lat="45.03111" lon="3.51763">
        <ele>848.5</ele>
        <time>2021-08-05T10:49:33Z</time>
      </trkpt>
      <trkpt lat="45.03116" lon="3.51775">
        <ele>850.9</ele>
        <time>2021-08-05T10:49:43Z</time>
      </trkpt>
      <trkpt lat="45.03128" lon="3.51797">
        <ele>852.83</ele>
        <time>2021-08-05T10:50:03Z</time>
      </trkpt>
      <trkpt lat="45.03132" lon="3.51801">
        <ele>852.83</ele>
        <time>2021-08-05T10:50:10Z</time>
      </trkpt>
      <trkpt lat="45.03141" lon="3.51813">
        <ele>853.31</ele>
        <time>2021-08-05T10:50:21Z</time>
      </trkpt>
      <trkpt lat="45.03144" lon="3.5182">
        <ele>853.79</ele>
        <time>2021-08-05T10:50:27Z</time>
      </trkpt>
      <trkpt lat="45.03147" lon="3.51833">
        <ele>854.75</ele>
        <time>2021-08-05T10:50:34Z</time>
      </trkpt>
      <trkpt lat="45.03148" lon="3.5185">
        <ele>853.79</ele>
        <time>2021-08-05T10:50:45Z</time>
      </trkpt>
      <trkpt lat="45.03151" lon="3.51865">
        <ele>852.35</ele>
        <time>2021-08-05T10:50:59Z</time>
      </trkpt>
      <trkpt lat="45.03152" lon="3.51869">
        <ele>851.38</ele>
        <time>2021-08-05T10:51:12Z</time>
      </trkpt>
      <trkpt lat="45.03155" lon="3.51877">
        <ele>851.38</ele>
        <time>2021-08-05T10:51:25Z</time>
      </trkpt>
      <trkpt lat="45.03157" lon="3.51908">
        <ele>851.38</ele>
        <time>2021-08-05T10:51:44Z</time>
      </trkpt>
      <trkpt lat="45.03149" lon="3.51926">
        <ele>850.42</ele>
        <time>2021-08-05T10:52:00Z</time>
      </trkpt>
      <trkpt lat="45.03148" lon="3.51923">
        <ele>850.9</ele>
        <time>2021-08-05T10:52:14Z</time>
      </trkpt>
      <trkpt lat="45.03141" lon="3.51914">
        <ele>850.9</ele>
        <time>2021-08-05T10:52:28Z</time>
      </trkpt>
      <trkpt lat="45.03135" lon="3.51911">
        <ele>852.35</ele>
        <time>2021-08-05T10:52:39Z</time>
      </trkpt>
      <trkpt lat="45.03136" lon="3.51907">
        <ele>852.35</ele>
        <time>2021-08-05T10:52:49Z</time>
      </trkpt>
      <trkpt lat="45.03131" lon="3.51908">
        <ele>851.87</ele>
        <time>2021-08-05T10:52:55Z</time>
      </trkpt>
      <trkpt lat="45.03119" lon="3.51913">
        <ele>854.75</ele>
        <time>2021-08-05T10:53:08Z</time>
      </trkpt>
      <trkpt lat="45.03108" lon="3.51913">
        <ele>857.63</ele>
        <time>2021-08-05T10:53:20Z</time>
      </trkpt>
      <trkpt lat="45.03097" lon="3.51915">
        <ele>862.44</ele>
        <time>2021-08-05T10:53:33Z</time>
      </trkpt>
      <trkpt lat="45.03087" lon="3.51915">
        <ele>866.29</ele>
        <time>2021-08-05T10:53:46Z</time>
      </trkpt>
      <trkpt lat="45.03078" lon="3.51916">
        <ele>870.61</ele>
        <time>2021-08-05T10:53:59Z</time>
      </trkpt>
      <trkpt lat="45.03073" lon="3.51917">
        <ele>870.13</ele>
        <time>2021-08-05T10:54:06Z</time>
      </trkpt>
      <trkpt lat="45.03068" lon="3.51909">
        <ele>870.13</ele>
        <time>2021-08-05T10:54:19Z</time>
      </trkpt>
      <trkpt lat="45.03067" lon="3.51907">
        <ele>869.17</ele>
        <time>2021-08-05T10:54:35Z</time>
      </trkpt>
      <trkpt lat="45.03065" lon="3.51906">
        <ele>868.69</ele>
        <time>2021-08-05T10:54:38Z</time>
      </trkpt>
      <trkpt lat="45.03052" lon="3.51916">
        <ele>872.05</ele>
        <time>2021-08-05T10:54:53Z</time>
      </trkpt>
      <trkpt lat="45.03047" lon="3.51925">
        <ele>872.05</ele>
        <time>2021-08-05T10:55:02Z</time>
      </trkpt>
      <trkpt lat="45.03035" lon="3.5194">
        <ele>872.53</ele>
        <time>2021-08-05T10:55:16Z</time>
      </trkpt>
      <trkpt lat="45.03023" lon="3.51953">
        <ele>875.9</ele>
        <time>2021-08-05T10:55:31Z</time>
      </trkpt>
      <trkpt lat="45.03017" lon="3.51966">
        <ele>880.22</ele>
        <time>2021-08-05T10:55:43Z</time>
      </trkpt>
      <trkpt lat="45.03009" lon="3.51983">
        <ele>884.07</ele>
        <time>2021-08-05T10:55:56Z</time>
      </trkpt>
      <trkpt lat="45.03002" lon="3.52001">
        <ele>885.99</ele>
        <time>2021-08-05T10:56:12Z</time>
      </trkpt>
      <trkpt lat="45.02995" lon="3.52018">
        <ele>888.4</ele>
        <time>2021-08-05T10:56:24Z</time>
      </trkpt>
      <trkpt lat="45.02985" lon="3.5204">
        <ele>891.28</ele>
        <time>2021-08-05T10:56:39Z</time>
      </trkpt>
      <trkpt lat="45.02981" lon="3.52055">
        <ele>892.24</ele>
        <time>2021-08-05T10:56:52Z</time>
      </trkpt>
      <trkpt lat="45.02977" lon="3.52074">
        <ele>894.64</ele>
        <time>2021-08-05T10:57:06Z</time>
      </trkpt>
      <trkpt lat="45.02977" lon="3.52077">
        <ele>895.12</ele>
        <time>2021-08-05T10:57:08Z</time>
      </trkpt>
      <trkpt lat="45.02976" lon="3.5208">
        <ele>895.61</ele>
        <time>2021-08-05T10:57:10Z</time>
      </trkpt>
      <trkpt lat="45.02974" lon="3.52088">
        <ele>897.05</ele>
        <time>2021-08-05T10:57:25Z</time>
      </trkpt>
      <trkpt lat="45.02968" lon="3.52116">
        <ele>898.01</ele>
        <time>2021-08-05T10:57:43Z</time>
      </trkpt>
      <trkpt lat="45.02964" lon="3.52135">
        <ele>899.45</ele>
        <time>2021-08-05T10:57:55Z</time>
      </trkpt>
      <trkpt lat="45.02962" lon="3.52141">
        <ele>899.45</ele>
        <time>2021-08-05T10:58:09Z</time>
      </trkpt>
      <trkpt lat="45.02962" lon="3.52141">
        <ele>899.45</ele>
        <time>2021-08-05T10:58:10Z</time>
      </trkpt>
      <trkpt lat="45.02963" lon="3.52141">
        <ele>899.45</ele>
        <time>2021-08-05T10:58:12Z</time>
      </trkpt>
      <trkpt lat="45.02967" lon="3.52146">
        <ele>899.93</ele>
        <time>2021-08-05T10:58:18Z</time>
      </trkpt>
      <trkpt lat="45.02968" lon="3.52159">
        <ele>901.85</ele>
        <time>2021-08-05T10:58:26Z</time>
      </trkpt>
      <trkpt lat="45.02961" lon="3.52165">
        <ele>900.89</ele>
        <time>2021-08-05T10:58:32Z</time>
      </trkpt>
      <trkpt lat="45.02959" lon="3.52168">
        <ele>900.89</ele>
        <time>2021-08-05T10:58:34Z</time>
      </trkpt>
      <trkpt lat="45.02959" lon="3.52171">
        <ele>901.85</ele>
        <time>2021-08-05T10:58:37Z</time>
      </trkpt>
      <trkpt lat="45.0296" lon="3.52186">
        <ele>904.26</ele>
        <time>2021-08-05T10:58:49Z</time>
      </trkpt>
      <trkpt lat="45.02945" lon="3.5219">
        <ele>906.18</ele>
        <time>2021-08-05T10:59:02Z</time>
      </trkpt>
      <trkpt lat="45.02941" lon="3.52192">
        <ele>907.14</ele>
        <time>2021-08-05T10:59:07Z</time>
      </trkpt>
      <trkpt lat="45.0294" lon="3.52195">
        <ele>908.1</ele>
        <time>2021-08-05T10:59:10Z</time>
      </trkpt>
      <trkpt lat="45.0293" lon="3.52209">
        <ele>909.54</ele>
        <time>2021-08-05T10:59:26Z</time>
      </trkpt>
      <trkpt lat="45.02919" lon="3.52222">
        <ele>912.91</ele>
        <time>2021-08-05T10:59:41Z</time>
      </trkpt>
      <trkpt lat="45.02907" lon="3.52238">
        <ele>920.6</ele>
        <time>2021-08-05T10:59:56Z</time>
      </trkpt>
      <trkpt lat="45.02901" lon="3.52246">
        <ele>921.56</ele>
        <time>2021-08-05T11:00:11Z</time>
      </trkpt>
      <trkpt lat="45.02898" lon="3.52249">
        <ele>922.52</ele>
        <time>2021-08-05T11:00:15Z</time>
      </trkpt>
      <trkpt lat="45.02879" lon="3.5226">
        <ele>929.25</ele>
        <time>2021-08-05T11:00:32Z</time>
      </trkpt>
      <trkpt lat="45.02869" lon="3.52267">
        <ele>928.77</ele>
        <time>2021-08-05T11:00:44Z</time>
      </trkpt>
      <trkpt lat="45.02858" lon="3.52275">
        <ele>929.73</ele>
        <time>2021-08-05T11:00:58Z</time>
      </trkpt>
      <trkpt lat="45.02852" lon="3.5228">
        <ele>933.1</ele>
        <time>2021-08-05T11:01:12Z</time>
      </trkpt>
      <trkpt lat="45.02844" lon="3.52286">
        <ele>935.5</ele>
        <time>2021-08-05T11:01:25Z</time>
      </trkpt>
      <trkpt lat="45.02836" lon="3.52296">
        <ele>936.94</ele>
        <time>2021-08-05T11:01:39Z</time>
      </trkpt>
      <trkpt lat="45.02832" lon="3.52305">
        <ele>935.98</ele>
        <time>2021-08-05T11:01:57Z</time>
      </trkpt>
      <trkpt lat="45.0283" lon="3.52304">
        <ele>934.54</ele>
        <time>2021-08-05T11:02:09Z</time>
      </trkpt>
      <trkpt lat="45.0283" lon="3.52301">
        <ele>933.58</ele>
        <time>2021-08-05T11:02:46Z</time>
      </trkpt>
      <trkpt lat="45.0283" lon="3.52301">
        <ele>931.65</ele>
        <time>2021-08-05T11:03:24Z</time>
      </trkpt>
      <trkpt lat="45.0283" lon="3.52301">
        <ele>931.65</ele>
        <time>2021-08-05T11:04:01Z</time>
      </trkpt>
      <trkpt lat="45.02829" lon="3.523">
        <ele>933.1</ele>
        <time>2021-08-05T11:04:39Z</time>
      </trkpt>
      <trkpt lat="45.02829" lon="3.52303">
        <ele>933.58</ele>
        <time>2021-08-05T11:05:23Z</time>
      </trkpt>
      <trkpt lat="45.0283" lon="3.52303">
        <ele>935.02</ele>
        <time>2021-08-05T11:06:04Z</time>
      </trkpt>
      <trkpt lat="45.0283" lon="3.52303">
        <ele>936.46</ele>
        <time>2021-08-05T11:06:47Z</time>
      </trkpt>
      <trkpt lat="45.0283" lon="3.52303">
        <ele>935.98</ele>
        <time>2021-08-05T11:07:23Z</time>
      </trkpt>
      <trkpt lat="45.0283" lon="3.52303">
        <ele>935.98</ele>
        <time>2021-08-05T11:07:54Z</time>
      </trkpt>
      <trkpt lat="45.0283" lon="3.52302">
        <ele>935.5</ele>
        <time>2021-08-05T11:08:12Z</time>
      </trkpt>
      <trkpt lat="45.0283" lon="3.52302">
        <ele>935.5</ele>
        <time>2021-08-05T11:08:41Z</time>
      </trkpt>
      <trkpt lat="45.02829" lon="3.52301">
        <ele>935.98</ele>
        <time>2021-08-05T11:08:55Z</time>
      </trkpt>
      <trkpt lat="45.02825" lon="3.52305">
        <ele>936.94</ele>
        <time>2021-08-05T11:09:09Z</time>
      </trkpt>
      <trkpt lat="45.02817" lon="3.52313">
        <ele>939.35</ele>
        <time>2021-08-05T11:09:23Z</time>
      </trkpt>
      <trkpt lat="45.02808" lon="3.52322">
        <ele>941.75</ele>
        <time>2021-08-05T11:09:36Z</time>
      </trkpt>
      <trkpt lat="45.02798" lon="3.52328">
        <ele>948.48</ele>
        <time>2021-08-05T11:09:46Z</time>
      </trkpt>
      <trkpt lat="45.0279" lon="3.52338">
        <ele>952.32</ele>
        <time>2021-08-05T11:09:57Z</time>
      </trkpt>
      <trkpt lat="45.02777" lon="3.52351">
        <ele>954.25</ele>
        <time>2021-08-05T11:10:11Z</time>
      </trkpt>
      <trkpt lat="45.0277" lon="3.52362">
        <ele>960.49</ele>
        <time>2021-08-05T11:10:22Z</time>
      </trkpt>
      <trkpt lat="45.02766" lon="3.52369">
        <ele>964.34</ele>
        <time>2021-08-05T11:10:32Z</time>
      </trkpt>
      <trkpt lat="45.0276" lon="3.52376">
        <ele>968.18</ele>
        <time>2021-08-05T11:10:44Z</time>
      </trkpt>
      <trkpt lat="45.0275" lon="3.52385">
        <ele>972.99</ele>
        <time>2021-08-05T11:10:59Z</time>
      </trkpt>
      <trkpt lat="45.0274" lon="3.52393">
        <ele>973.95</ele>
        <time>2021-08-05T11:11:11Z</time>
      </trkpt>
      <trkpt lat="45.02725" lon="3.52403">
        <ele>972.99</ele>
        <time>2021-08-05T11:11:25Z</time>
      </trkpt>
      <trkpt lat="45.02715" lon="3.52409">
        <ele>972.99</ele>
        <time>2021-08-05T11:11:38Z</time>
      </trkpt>
      <trkpt lat="45.02704" lon="3.52413">
        <ele>970.59</ele>
        <time>2021-08-05T11:11:50Z</time>
      </trkpt>
      <trkpt lat="45.02692" lon="3.52418">
        <ele>971.07</ele>
        <time>2021-08-05T11:12:04Z</time>
      </trkpt>
      <trkpt lat="45.02679" lon="3.52426">
        <ele>972.51</ele>
        <time>2021-08-05T11:12:17Z</time>
      </trkpt>
      <trkpt lat="45.02674" lon="3.52428">
        <ele>968.67</ele>
        <time>2021-08-05T11:12:28Z</time>
      </trkpt>
      <trkpt lat="45.0267" lon="3.52428">
        <ele>965.78</ele>
        <time>2021-08-05T11:12:40Z</time>
      </trkpt>
      <trkpt lat="45.02667" lon="3.52426">
        <ele>965.3</ele>
        <time>2021-08-05T11:12:55Z</time>
      </trkpt>
      <trkpt lat="45.02653" lon="3.52431">
        <ele>966.26</ele>
        <time>2021-08-05T11:13:07Z</time>
      </trkpt>
      <trkpt lat="45.02636" lon="3.52435">
        <ele>962.42</ele>
        <time>2021-08-05T11:13:17Z</time>
      </trkpt>
      <trkpt lat="45.02615" lon="3.52439">
        <ele>958.57</ele>
        <time>2021-08-05T11:13:32Z</time>
      </trkpt>
      <trkpt lat="45.02603" lon="3.52444">
        <ele>957.13</ele>
        <time>2021-08-05T11:13:46Z</time>
      </trkpt>
      <trkpt lat="45.02592" lon="3.52445">
        <ele>958.57</ele>
        <time>2021-08-05T11:13:59Z</time>
      </trkpt>
      <trkpt lat="45.02585" lon="3.52449">
        <ele>959.05</ele>
        <time>2021-08-05T11:14:13Z</time>
      </trkpt>
      <trkpt lat="45.0258" lon="3.5246">
        <ele>962.42</ele>
        <time>2021-08-05T11:14:29Z</time>
      </trkpt>
      <trkpt lat="45.02577" lon="3.52471">
        <ele>960.01</ele>
        <time>2021-08-05T11:14:42Z</time>
      </trkpt>
      <trkpt lat="45.02572" lon="3.52485">
        <ele>957.61</ele>
        <time>2021-08-05T11:14:58Z</time>
      </trkpt>
      <trkpt lat="45.02569" lon="3.52491">
        <ele>958.09</ele>
        <time>2021-08-05T11:15:11Z</time>
      </trkpt>
      <trkpt lat="45.02562" lon="3.52506">
        <ele>953.77</ele>
        <time>2021-08-05T11:15:25Z</time>
      </trkpt>
      <trkpt lat="45.02555" lon="3.52519">
        <ele>952.8</ele>
        <time>2021-08-05T11:15:40Z</time>
      </trkpt>
      <trkpt lat="45.02548" lon="3.52529">
        <ele>954.25</ele>
        <time>2021-08-05T11:15:51Z</time>
      </trkpt>
      <trkpt lat="45.02537" lon="3.52541">
        <ele>953.77</ele>
        <time>2021-08-05T11:16:06Z</time>
      </trkpt>
      <trkpt lat="45.02529" lon="3.52554">
        <ele>959.05</ele>
        <time>2021-08-05T11:16:19Z</time>
      </trkpt>
      <trkpt lat="45.02528" lon="3.52559">
        <ele>959.05</ele>
        <time>2021-08-05T11:16:32Z</time>
      </trkpt>
      <trkpt lat="45.02529" lon="3.5256">
        <ele>960.01</ele>
        <time>2021-08-05T11:16:46Z</time>
      </trkpt>
      <trkpt lat="45.02531" lon="3.52561">
        <ele>960.98</ele>
        <time>2021-08-05T11:17:00Z</time>
      </trkpt>
      <trkpt lat="45.02537" lon="3.52567">
        <ele>961.94</ele>
        <time>2021-08-05T11:17:13Z</time>
      </trkpt>
      <trkpt lat="45.02543" lon="3.52579">
        <ele>964.34</ele>
        <time>2021-08-05T11:17:28Z</time>
      </trkpt>
      <trkpt lat="45.02547" lon="3.52588">
        <ele>966.74</ele>
        <time>2021-08-05T11:17:43Z</time>
      </trkpt>
      <trkpt lat="45.02549" lon="3.52589">
        <ele>967.22</ele>
        <time>2021-08-05T11:17:57Z</time>
      </trkpt>
      <trkpt lat="45.0255" lon="3.5259">
        <ele>966.26</ele>
        <time>2021-08-05T11:18:11Z</time>
      </trkpt>
      <trkpt lat="45.0255" lon="3.52598">
        <ele>966.74</ele>
        <time>2021-08-05T11:18:24Z</time>
      </trkpt>
      <trkpt lat="45.02551" lon="3.52616">
        <ele>966.26</ele>
        <time>2021-08-05T11:18:37Z</time>
      </trkpt>
      <trkpt lat="45.0255" lon="3.52631">
        <ele>967.22</ele>
        <time>2021-08-05T11:18:50Z</time>
      </trkpt>
      <trkpt lat="45.0255" lon="3.52644">
        <ele>967.22</ele>
        <time>2021-08-05T11:19:02Z</time>
      </trkpt>
      <trkpt lat="45.02545" lon="3.52653">
        <ele>967.7</ele>
        <time>2021-08-05T11:19:16Z</time>
      </trkpt>
      <trkpt lat="45.02539" lon="3.52663">
        <ele>969.15</ele>
        <time>2021-08-05T11:19:29Z</time>
      </trkpt>
      <trkpt lat="45.02536" lon="3.52671">
        <ele>972.51</ele>
        <time>2021-08-05T11:19:39Z</time>
      </trkpt>
      <trkpt lat="45.02536" lon="3.52671">
        <ele>972.51</ele>
        <time>2021-08-05T11:19:44Z</time>
      </trkpt>
      <trkpt lat="45.02526" lon="3.52667">
        <ele>974.91</ele>
        <time>2021-08-05T11:20:00Z</time>
      </trkpt>
      <trkpt lat="45.02522" lon="3.52656">
        <ele>975.39</ele>
        <time>2021-08-05T11:20:16Z</time>
      </trkpt>
      <trkpt lat="45.02522" lon="3.52653">
        <ele>975.39</ele>
        <time>2021-08-05T11:20:31Z</time>
      </trkpt>
      <trkpt lat="45.02517" lon="3.52653">
        <ele>978.28</ele>
        <time>2021-08-05T11:20:45Z</time>
      </trkpt>
      <trkpt lat="45.0251" lon="3.5266">
        <ele>980.68</ele>
        <time>2021-08-05T11:20:57Z</time>
      </trkpt>
      <trkpt lat="45.02506" lon="3.52668">
        <ele>982.12</ele>
        <time>2021-08-05T11:21:08Z</time>
      </trkpt>
      <trkpt lat="45.02505" lon="3.52679">
        <ele>983.09</ele>
        <time>2021-08-05T11:21:22Z</time>
      </trkpt>
      <trkpt lat="45.02504" lon="3.52686">
        <ele>984.53</ele>
        <time>2021-08-05T11:21:36Z</time>
      </trkpt>
      <trkpt lat="45.02507" lon="3.52691">
        <ele>983.09</ele>
        <time>2021-08-05T11:21:49Z</time>
      </trkpt>
      <trkpt lat="45.02502" lon="3.52687">
        <ele>983.57</ele>
        <time>2021-08-05T11:22:02Z</time>
      </trkpt>
      <trkpt lat="45.02496" lon="3.52683">
        <ele>984.05</ele>
        <time>2021-08-05T11:22:20Z</time>
      </trkpt>
      <trkpt lat="45.02492" lon="3.52697">
        <ele>985.97</ele>
        <time>2021-08-05T11:22:34Z</time>
      </trkpt>
      <trkpt lat="45.02486" lon="3.52709">
        <ele>990.78</ele>
        <time>2021-08-05T11:22:47Z</time>
      </trkpt>
      <trkpt lat="45.02481" lon="3.52722">
        <ele>992.22</ele>
        <time>2021-08-05T11:22:59Z</time>
      </trkpt>
      <trkpt lat="45.02472" lon="3.52733">
        <ele>989.33</ele>
        <time>2021-08-05T11:23:13Z</time>
      </trkpt>
      <trkpt lat="45.02462" lon="3.52753">
        <ele>994.62</ele>
        <time>2021-08-05T11:23:31Z</time>
      </trkpt>
      <trkpt lat="45.02459" lon="3.52764">
        <ele>994.62</ele>
        <time>2021-08-05T11:23:45Z</time>
      </trkpt>
      <trkpt lat="45.02451" lon="3.52779">
        <ele>994.62</ele>
        <time>2021-08-05T11:23:59Z</time>
      </trkpt>
      <trkpt lat="45.02446" lon="3.5279">
        <ele>997.51</ele>
        <time>2021-08-05T11:24:14Z</time>
      </trkpt>
      <trkpt lat="45.02438" lon="3.52817">
        <ele>1001.35</ele>
        <time>2021-08-05T11:24:30Z</time>
      </trkpt>
      <trkpt lat="45.02433" lon="3.52833">
        <ele>1002.79</ele>
        <time>2021-08-05T11:24:46Z</time>
      </trkpt>
      <trkpt lat="45.02424" lon="3.52857">
        <ele>1011.44</ele>
        <time>2021-08-05T11:25:01Z</time>
      </trkpt>
      <trkpt lat="45.0242" lon="3.5287">
        <ele>1009.52</ele>
        <time>2021-08-05T11:25:17Z</time>
      </trkpt>
      <trkpt lat="45.02417" lon="3.52878">
        <ele>1009.52</ele>
        <time>2021-08-05T11:25:29Z</time>
      </trkpt>
      <trkpt lat="45.02419" lon="3.52886">
        <ele>1008.08</ele>
        <time>2021-08-05T11:25:44Z</time>
      </trkpt>
      <trkpt lat="45.02411" lon="3.52894">
        <ele>1009.04</ele>
        <time>2021-08-05T11:25:56Z</time>
      </trkpt>
      <trkpt lat="45.02409" lon="3.52892">
        <ele>1010.96</ele>
        <time>2021-08-05T11:26:07Z</time>
      </trkpt>
      <trkpt lat="45.02406" lon="3.52889">
        <ele>1011.93</ele>
        <time>2021-08-05T11:26:20Z</time>
      </trkpt>
      <trkpt lat="45.02404" lon="3.5289">
        <ele>1011.93</ele>
        <time>2021-08-05T11:26:32Z</time>
      </trkpt>
      <trkpt lat="45.02401" lon="3.52893">
        <ele>1011.93</ele>
        <time>2021-08-05T11:26:46Z</time>
      </trkpt>
      <trkpt lat="45.024" lon="3.52912">
        <ele>1010.48</ele>
        <time>2021-08-05T11:27:01Z</time>
      </trkpt>
      <trkpt lat="45.02398" lon="3.52919">
        <ele>1010.48</ele>
        <time>2021-08-05T11:27:05Z</time>
      </trkpt>
      <trkpt lat="45.02394" lon="3.52941">
        <ele>1013.37</ele>
        <time>2021-08-05T11:27:18Z</time>
      </trkpt>
      <trkpt lat="45.02388" lon="3.52945">
        <ele>1012.89</ele>
        <time>2021-08-05T11:27:26Z</time>
      </trkpt>
      <trkpt lat="45.02371" lon="3.52962">
        <ele>1014.33</ele>
        <time>2021-08-05T11:27:43Z</time>
      </trkpt>
      <trkpt lat="45.02357" lon="3.52979">
        <ele>1017.21</ele>
        <time>2021-08-05T11:28:00Z</time>
      </trkpt>
      <trkpt lat="45.02348" lon="3.52989">
        <ele>1015.77</ele>
        <time>2021-08-05T11:28:14Z</time>
      </trkpt>
      <trkpt lat="45.02348" lon="3.5299">
        <ele>1015.77</ele>
        <time>2021-08-05T11:28:17Z</time>
      </trkpt>
      <trkpt lat="45.02344" lon="3.52987">
        <ele>1014.33</ele>
        <time>2021-08-05T11:28:31Z</time>
      </trkpt>
      <trkpt lat="45.02339" lon="3.53002">
        <ele>1016.25</ele>
        <time>2021-08-05T11:28:46Z</time>
      </trkpt>
      <trkpt lat="45.02336" lon="3.53013">
        <ele>1017.69</ele>
        <time>2021-08-05T11:29:03Z</time>
      </trkpt>
      <trkpt lat="45.0233" lon="3.53022">
        <ele>1018.65</ele>
        <time>2021-08-05T11:29:15Z</time>
      </trkpt>
      <trkpt lat="45.02328" lon="3.53025">
        <ele>1019.13</ele>
        <time>2021-08-05T11:29:18Z</time>
      </trkpt>
      <trkpt lat="45.02318" lon="3.53048">
        <ele>1022.5</ele>
        <time>2021-08-05T11:29:34Z</time>
      </trkpt>
      <trkpt lat="45.02317" lon="3.53053">
        <ele>1022.5</ele>
        <time>2021-08-05T11:29:48Z</time>
      </trkpt>
      <trkpt lat="45.02317" lon="3.53054">
        <ele>1022.5</ele>
        <time>2021-08-05T11:29:49Z</time>
      </trkpt>
      <trkpt lat="45.0231" lon="3.53069">
        <ele>1024.42</ele>
        <time>2021-08-05T11:30:02Z</time>
      </trkpt>
      <trkpt lat="45.02303" lon="3.53088">
        <ele>1023.94</ele>
        <time>2021-08-05T11:30:17Z</time>
      </trkpt>
      <trkpt lat="45.02297" lon="3.531">
        <ele>1024.9</ele>
        <time>2021-08-05T11:30:31Z</time>
      </trkpt>
      <trkpt lat="45.02296" lon="3.53103">
        <ele>1025.38</ele>
        <time>2021-08-05T11:30:33Z</time>
      </trkpt>
      <trkpt lat="45.02287" lon="3.53121">
        <ele>1026.34</ele>
        <time>2021-08-05T11:30:46Z</time>
      </trkpt>
      <trkpt lat="45.02284" lon="3.53129">
        <ele>1027.31</ele>
        <time>2021-08-05T11:30:57Z</time>
      </trkpt>
      <trkpt lat="45.0228" lon="3.53141">
        <ele>1029.71</ele>
        <time>2021-08-05T11:31:07Z</time>
      </trkpt>
      <trkpt lat="45.02276" lon="3.53159">
        <ele>1031.15</ele>
        <time>2021-08-05T11:31:20Z</time>
      </trkpt>
      <trkpt lat="45.0227" lon="3.53174">
        <ele>1033.55</ele>
        <time>2021-08-05T11:31:34Z</time>
      </trkpt>
      <trkpt lat="45.02265" lon="3.53187">
        <ele>1036.44</ele>
        <time>2021-08-05T11:31:47Z</time>
      </trkpt>
      <trkpt lat="45.02261" lon="3.53209">
        <ele>1038.36</ele>
        <time>2021-08-05T11:31:59Z</time>
      </trkpt>
      <trkpt lat="45.02255" lon="3.53218">
        <ele>1037.4</ele>
        <time>2021-08-05T11:32:13Z</time>
      </trkpt>
      <trkpt lat="45.02254" lon="3.53228">
        <ele>1037.4</ele>
        <time>2021-08-05T11:32:24Z</time>
      </trkpt>
      <trkpt lat="45.02248" lon="3.53247">
        <ele>1035</ele>
        <time>2021-08-05T11:32:37Z</time>
      </trkpt>
      <trkpt lat="45.02243" lon="3.53258">
        <ele>1032.59</ele>
        <time>2021-08-05T11:32:44Z</time>
      </trkpt>
      <trkpt lat="45.02243" lon="3.53262">
        <ele>1032.59</ele>
        <time>2021-08-05T11:32:47Z</time>
      </trkpt>
      <trkpt lat="45.02233" lon="3.53286">
        <ele>1034.52</ele>
        <time>2021-08-05T11:33:01Z</time>
      </trkpt>
      <trkpt lat="45.02228" lon="3.53295">
        <ele>1036.44</ele>
        <time>2021-08-05T11:33:07Z</time>
      </trkpt>
      <trkpt lat="45.02217" lon="3.53311">
        <ele>1036.92</ele>
        <time>2021-08-05T11:33:20Z</time>
      </trkpt>
      <trkpt lat="45.02209" lon="3.53321">
        <ele>1033.55</ele>
        <time>2021-08-05T11:33:33Z</time>
      </trkpt>
      <trkpt lat="45.02208" lon="3.53322">
        <ele>1031.15</ele>
        <time>2021-08-05T11:33:45Z</time>
      </trkpt>
      <trkpt lat="45.02208" lon="3.53326">
        <ele>1031.63</ele>
        <time>2021-08-05T11:33:59Z</time>
      </trkpt>
      <trkpt lat="45.02207" lon="3.5332">
        <ele>1030.67</ele>
        <time>2021-08-05T11:34:12Z</time>
      </trkpt>
      <trkpt lat="45.02206" lon="3.53317">
        <ele>1028.75</ele>
        <time>2021-08-05T11:34:31Z</time>
      </trkpt>
      <trkpt lat="45.02206" lon="3.53318">
        <ele>1029.23</ele>
        <time>2021-08-05T11:34:42Z</time>
      </trkpt>
      <trkpt lat="45.02206" lon="3.53316">
        <ele>1029.71</ele>
        <time>2021-08-05T11:34:58Z</time>
      </trkpt>
      <trkpt lat="45.02206" lon="3.53313">
        <ele>1029.71</ele>
        <time>2021-08-05T11:35:13Z</time>
      </trkpt>
      <trkpt lat="45.02207" lon="3.53312">
        <ele>1030.19</ele>
        <time>2021-08-05T11:35:30Z</time>
      </trkpt>
      <trkpt lat="45.02207" lon="3.53312">
        <ele>1029.71</ele>
        <time>2021-08-05T11:35:40Z</time>
      </trkpt>
      <trkpt lat="45.02207" lon="3.53311">
        <ele>1030.19</ele>
        <time>2021-08-05T11:36:07Z</time>
      </trkpt>
      <trkpt lat="45.02207" lon="3.5331">
        <ele>1029.71</ele>
        <time>2021-08-05T11:36:31Z</time>
      </trkpt>
      <trkpt lat="45.02207" lon="3.5331">
        <ele>1030.67</ele>
        <time>2021-08-05T11:37:02Z</time>
      </trkpt>
      <trkpt lat="45.02207" lon="3.53311">
        <ele>1030.67</ele>
        <time>2021-08-05T11:37:30Z</time>
      </trkpt>
      <trkpt lat="45.02207" lon="3.5331">
        <ele>1030.19</ele>
        <time>2021-08-05T11:37:57Z</time>
      </trkpt>
      <trkpt lat="45.02207" lon="3.5331">
        <ele>1030.67</ele>
        <time>2021-08-05T11:38:17Z</time>
      </trkpt>
      <trkpt lat="45.02208" lon="3.53309">
        <ele>1030.67</ele>
        <time>2021-08-05T11:38:41Z</time>
      </trkpt>
      <trkpt lat="45.02208" lon="3.53309">
        <ele>1030.67</ele>
        <time>2021-08-05T11:39:07Z</time>
      </trkpt>
      <trkpt lat="45.02209" lon="3.53289">
        <ele>1029.71</ele>
        <time>2021-08-05T11:39:25Z</time>
      </trkpt>
      <trkpt lat="45.02209" lon="3.53279">
        <ele>1028.75</ele>
        <time>2021-08-05T11:39:32Z</time>
      </trkpt>
      <trkpt lat="45.0221" lon="3.53248">
        <ele>1024.42</ele>
        <time>2021-08-05T11:39:54Z</time>
      </trkpt>
      <trkpt lat="45.02212" lon="3.53224">
        <ele>1020.1</ele>
        <time>2021-08-05T11:40:09Z</time>
      </trkpt>
      <trkpt lat="45.02214" lon="3.53207">
        <ele>1020.58</ele>
        <time>2021-08-05T11:40:28Z</time>
      </trkpt>
      <trkpt lat="45.02216" lon="3.53205">
        <ele>1020.58</ele>
        <time>2021-08-05T11:40:30Z</time>
      </trkpt>
      <trkpt lat="45.02218" lon="3.5318">
        <ele>1016.25</ele>
        <time>2021-08-05T11:40:46Z</time>
      </trkpt>
      <trkpt lat="45.02218" lon="3.53173">
        <ele>1015.77</ele>
        <time>2021-08-05T11:40:50Z</time>
      </trkpt>
      <trkpt lat="45.0222" lon="3.53139">
        <ele>1013.85</ele>
        <time>2021-08-05T11:41:10Z</time>
      </trkpt>
      <trkpt lat="45.02219" lon="3.53127">
        <ele>1012.89</ele>
        <time>2021-08-05T11:41:17Z</time>
      </trkpt>
      <trkpt lat="45.02216" lon="3.53092">
        <ele>1014.33</ele>
        <time>2021-08-05T11:41:38Z</time>
      </trkpt>
      <trkpt lat="45.02214" lon="3.53083">
        <ele>1018.65</ele>
        <time>2021-08-05T11:41:49Z</time>
      </trkpt>
      <trkpt lat="45.02207" lon="3.53057">
        <ele>1022.02</ele>
        <time>2021-08-05T11:42:06Z</time>
      </trkpt>
      <trkpt lat="45.02199" lon="3.53029">
        <ele>1033.07</ele>
        <time>2021-08-05T11:42:26Z</time>
      </trkpt>
      <trkpt lat="45.02193" lon="3.53004">
        <ele>1037.4</ele>
        <time>2021-08-05T11:42:44Z</time>
      </trkpt>
      <trkpt lat="45.02185" lon="3.52981">
        <ele>1036.44</ele>
        <time>2021-08-05T11:43:01Z</time>
      </trkpt>
      <trkpt lat="45.02179" lon="3.52957">
        <ele>1035.96</ele>
        <time>2021-08-05T11:43:18Z</time>
      </trkpt>
      <trkpt lat="45.02172" lon="3.52931">
        <ele>1037.88</ele>
        <time>2021-08-05T11:43:37Z</time>
      </trkpt>
      <trkpt lat="45.02166" lon="3.52908">
        <ele>1037.4</ele>
        <time>2021-08-05T11:43:53Z</time>
      </trkpt>
      <trkpt lat="45.02167" lon="3.52907">
        <ele>1036.92</ele>
        <time>2021-08-05T11:44:13Z</time>
      </trkpt>
      <trkpt lat="45.02167" lon="3.52905">
        <ele>1036.44</ele>
        <time>2021-08-05T11:44:38Z</time>
      </trkpt>
      <trkpt lat="45.02163" lon="3.52899">
        <ele>1035.48</ele>
        <time>2021-08-05T11:44:51Z</time>
      </trkpt>
      <trkpt lat="45.02162" lon="3.52889">
        <ele>1035</ele>
        <time>2021-08-05T11:45:07Z</time>
      </trkpt>
      <trkpt lat="45.02155" lon="3.5287">
        <ele>1035.96</ele>
        <time>2021-08-05T11:45:24Z</time>
      </trkpt>
      <trkpt lat="45.02153" lon="3.52861">
        <ele>1035.48</ele>
        <time>2021-08-05T11:45:33Z</time>
      </trkpt>
      <trkpt lat="45.0215" lon="3.52857">
        <ele>1035</ele>
        <time>2021-08-05T11:45:51Z</time>
      </trkpt>
      <trkpt lat="45.0215" lon="3.52856">
        <ele>1035</ele>
        <time>2021-08-05T11:46:05Z</time>
      </trkpt>
      <trkpt lat="45.02139" lon="3.52831">
        <ele>1033.07</ele>
        <time>2021-08-05T11:46:24Z</time>
      </trkpt>
      <trkpt lat="45.02132" lon="3.52816">
        <ele>1031.63</ele>
        <time>2021-08-05T11:46:36Z</time>
      </trkpt>
      <trkpt lat="45.02129" lon="3.5281">
        <ele>1029.71</ele>
        <time>2021-08-05T11:46:41Z</time>
      </trkpt>
      <trkpt lat="45.02122" lon="3.52795">
        <ele>1029.71</ele>
        <time>2021-08-05T11:46:52Z</time>
      </trkpt>
      <trkpt lat="45.02116" lon="3.52781">
        <ele>1029.71</ele>
        <time>2021-08-05T11:47:03Z</time>
      </trkpt>
      <trkpt lat="45.02113" lon="3.52774">
        <ele>1029.71</ele>
        <time>2021-08-05T11:47:09Z</time>
      </trkpt>
      <trkpt lat="45.0211" lon="3.52771">
        <ele>1028.27</ele>
        <time>2021-08-05T11:47:15Z</time>
      </trkpt>
      <trkpt lat="45.02106" lon="3.52759">
        <ele>1027.79</ele>
        <time>2021-08-05T11:47:23Z</time>
      </trkpt>
      <trkpt lat="45.02099" lon="3.52728">
        <ele>1028.27</ele>
        <time>2021-08-05T11:47:41Z</time>
      </trkpt>
      <trkpt lat="45.02093" lon="3.527">
        <ele>1027.79</ele>
        <time>2021-08-05T11:47:58Z</time>
      </trkpt>
      <trkpt lat="45.02085" lon="3.52664">
        <ele>1026.34</ele>
        <time>2021-08-05T11:48:19Z</time>
      </trkpt>
      <trkpt lat="45.02082" lon="3.5264">
        <ele>1027.79</ele>
        <time>2021-08-05T11:48:34Z</time>
      </trkpt>
      <trkpt lat="45.0208" lon="3.52631">
        <ele>1027.31</ele>
        <time>2021-08-05T11:48:47Z</time>
      </trkpt>
      <trkpt lat="45.02076" lon="3.52614">
        <ele>1027.31</ele>
        <time>2021-08-05T11:48:58Z</time>
      </trkpt>
      <trkpt lat="45.0207" lon="3.52603">
        <ele>1025.86</ele>
        <time>2021-08-05T11:49:11Z</time>
      </trkpt>
      <trkpt lat="45.0207" lon="3.52601">
        <ele>1025.38</ele>
        <time>2021-08-05T11:49:28Z</time>
      </trkpt>
      <trkpt lat="45.02067" lon="3.52593">
        <ele>1026.83</ele>
        <time>2021-08-05T11:49:42Z</time>
      </trkpt>
      <trkpt lat="45.02064" lon="3.52585">
        <ele>1028.75</ele>
        <time>2021-08-05T11:49:57Z</time>
      </trkpt>
      <trkpt lat="45.02064" lon="3.52585">
        <ele>1029.23</ele>
        <time>2021-08-05T11:50:17Z</time>
      </trkpt>
      <trkpt lat="45.02063" lon="3.52566">
        <ele>1030.19</ele>
        <time>2021-08-05T11:50:33Z</time>
      </trkpt>
      <trkpt lat="45.02068" lon="3.52537">
        <ele>1030.67</ele>
        <time>2021-08-05T11:50:51Z</time>
      </trkpt>
      <trkpt lat="45.02076" lon="3.52509">
        <ele>1031.63</ele>
        <time>2021-08-05T11:51:09Z</time>
      </trkpt>
      <trkpt lat="45.02077" lon="3.52486">
        <ele>1032.59</ele>
        <time>2021-08-05T11:51:24Z</time>
      </trkpt>
      <trkpt lat="45.02078" lon="3.52486">
        <ele>1030.67</ele>
        <time>2021-08-05T11:51:41Z</time>
      </trkpt>
      <trkpt lat="45.02076" lon="3.52477">
        <ele>1031.15</ele>
        <time>2021-08-05T11:51:50Z</time>
      </trkpt>
      <trkpt lat="45.02073" lon="3.52472">
        <ele>1031.15</ele>
        <time>2021-08-05T11:51:54Z</time>
      </trkpt>
      <trkpt lat="45.02065" lon="3.52464">
        <ele>1032.59</ele>
        <time>2021-08-05T11:52:06Z</time>
      </trkpt>
      <trkpt lat="45.02051" lon="3.52449">
        <ele>1032.59</ele>
        <time>2021-08-05T11:52:21Z</time>
      </trkpt>
      <trkpt lat="45.0205" lon="3.52447">
        <ele>1032.11</ele>
        <time>2021-08-05T11:52:27Z</time>
      </trkpt>
      <trkpt lat="45.02042" lon="3.5244">
        <ele>1032.11</ele>
        <time>2021-08-05T11:52:37Z</time>
      </trkpt>
      <trkpt lat="45.02025" lon="3.52417">
        <ele>1033.07</ele>
        <time>2021-08-05T11:52:55Z</time>
      </trkpt>
      <trkpt lat="45.02002" lon="3.524">
        <ele>1032.11</ele>
        <time>2021-08-05T11:53:15Z</time>
      </trkpt>
      <trkpt lat="45.01977" lon="3.52386">
        <ele>1030.67</ele>
        <time>2021-08-05T11:53:35Z</time>
      </trkpt>
      <trkpt lat="45.01956" lon="3.52367">
        <ele>1030.19</ele>
        <time>2021-08-05T11:53:53Z</time>
      </trkpt>
      <trkpt lat="45.0194" lon="3.52343">
        <ele>1030.19</ele>
        <time>2021-08-05T11:54:11Z</time>
      </trkpt>
      <trkpt lat="45.01921" lon="3.52316">
        <ele>1030.19</ele>
        <time>2021-08-05T11:54:31Z</time>
      </trkpt>
      <trkpt lat="45.01904" lon="3.52287">
        <ele>1029.71</ele>
        <time>2021-08-05T11:54:51Z</time>
      </trkpt>
      <trkpt lat="45.019" lon="3.52282">
        <ele>1030.19</ele>
        <time>2021-08-05T11:54:55Z</time>
      </trkpt>
      <trkpt lat="45.01897" lon="3.52278">
        <ele>1030.19</ele>
        <time>2021-08-05T11:54:58Z</time>
      </trkpt>
      <trkpt lat="45.01886" lon="3.52259">
        <ele>1030.19</ele>
        <time>2021-08-05T11:55:13Z</time>
      </trkpt>
      <trkpt lat="45.01882" lon="3.52254">
        <ele>1030.19</ele>
        <time>2021-08-05T11:55:17Z</time>
      </trkpt>
      <trkpt lat="45.01873" lon="3.52235">
        <ele>1030.19</ele>
        <time>2021-08-05T11:55:31Z</time>
      </trkpt>
      <trkpt lat="45.0187" lon="3.52229">
        <ele>1030.19</ele>
        <time>2021-08-05T11:55:35Z</time>
      </trkpt>
      <trkpt lat="45.01857" lon="3.52205">
        <ele>1028.75</ele>
        <time>2021-08-05T11:55:51Z</time>
      </trkpt>
      <trkpt lat="45.01853" lon="3.52196">
        <ele>1028.75</ele>
        <time>2021-08-05T11:56:03Z</time>
      </trkpt>
      <trkpt lat="45.01836" lon="3.52162">
        <ele>1027.31</ele>
        <time>2021-08-05T11:56:25Z</time>
      </trkpt>
      <trkpt lat="45.01821" lon="3.5213">
        <ele>1026.34</ele>
        <time>2021-08-05T11:56:46Z</time>
      </trkpt>
      <trkpt lat="45.01811" lon="3.52102">
        <ele>1026.34</ele>
        <time>2021-08-05T11:57:04Z</time>
      </trkpt>
      <trkpt lat="45.01804" lon="3.52074">
        <ele>1025.86</ele>
        <time>2021-08-05T11:57:24Z</time>
      </trkpt>
      <trkpt lat="45.01804" lon="3.52072">
        <ele>1025.86</ele>
        <time>2021-08-05T11:57:31Z</time>
      </trkpt>
      <trkpt lat="45.01801" lon="3.52064">
        <ele>1025.38</ele>
        <time>2021-08-05T11:57:36Z</time>
      </trkpt>
      <trkpt lat="45.01796" lon="3.52052">
        <ele>1025.38</ele>
        <time>2021-08-05T11:57:43Z</time>
      </trkpt>
      <trkpt lat="45.01779" lon="3.52032">
        <ele>1021.54</ele>
        <time>2021-08-05T11:58:00Z</time>
      </trkpt>
      <trkpt lat="45.01763" lon="3.52017">
        <ele>1021.06</ele>
        <time>2021-08-05T11:58:17Z</time>
      </trkpt>
      <trkpt lat="45.01763" lon="3.52017">
        <ele>1021.06</ele>
        <time>2021-08-05T11:58:19Z</time>
      </trkpt>
      <trkpt lat="45.01743" lon="3.52001">
        <ele>1020.1</ele>
        <time>2021-08-05T11:58:37Z</time>
      </trkpt>
      <trkpt lat="45.01718" lon="3.51982">
        <ele>1019.13</ele>
        <time>2021-08-05T11:58:59Z</time>
      </trkpt>
      <trkpt lat="45.01691" lon="3.5197">
        <ele>1018.17</ele>
        <time>2021-08-05T11:59:20Z</time>
      </trkpt>
      <trkpt lat="45.01689" lon="3.51969">
        <ele>1018.17</ele>
        <time>2021-08-05T11:59:24Z</time>
      </trkpt>
      <trkpt lat="45.01691" lon="3.51971">
        <ele>1019.62</ele>
        <time>2021-08-05T11:59:39Z</time>
      </trkpt>
      <trkpt lat="45.01691" lon="3.51971">
        <ele>1020.58</ele>
        <time>2021-08-05T12:00:19Z</time>
      </trkpt>
      <trkpt lat="45.01691" lon="3.51971">
        <ele>1022.02</ele>
        <time>2021-08-05T12:00:51Z</time>
      </trkpt>
      <trkpt lat="45.0169" lon="3.51971">
        <ele>1023.46</ele>
        <time>2021-08-05T12:00:59Z</time>
      </trkpt>
      <trkpt lat="45.0168" lon="3.5197">
        <ele>1023.94</ele>
        <time>2021-08-05T12:01:07Z</time>
      </trkpt>
      <trkpt lat="45.01667" lon="3.5197">
        <ele>1023.46</ele>
        <time>2021-08-05T12:01:17Z</time>
      </trkpt>
      <trkpt lat="45.01653" lon="3.51969">
        <ele>1022.5</ele>
        <time>2021-08-05T12:01:31Z</time>
      </trkpt>
      <trkpt lat="45.01652" lon="3.5197">
        <ele>1021.06</ele>
        <time>2021-08-05T12:01:52Z</time>
      </trkpt>
      <trkpt lat="45.01653" lon="3.51969">
        <ele>1022.5</ele>
        <time>2021-08-05T12:02:14Z</time>
      </trkpt>
      <trkpt lat="45.01652" lon="3.5197">
        <ele>1023.94</ele>
        <time>2021-08-05T12:02:34Z</time>
      </trkpt>
      <trkpt lat="45.01632" lon="3.51971">
        <ele>1024.9</ele>
        <time>2021-08-05T12:02:50Z</time>
      </trkpt>
      <trkpt lat="45.01624" lon="3.51966">
        <ele>1024.42</ele>
        <time>2021-08-05T12:03:05Z</time>
      </trkpt>
      <trkpt lat="45.01618" lon="3.51964">
        <ele>1024.42</ele>
        <time>2021-08-05T12:03:11Z</time>
      </trkpt>
      <trkpt lat="45.01602" lon="3.5194">
        <ele>1027.31</ele>
        <time>2021-08-05T12:03:31Z</time>
      </trkpt>
      <trkpt lat="45.016" lon="3.51937">
        <ele>1027.79</ele>
        <time>2021-08-05T12:03:34Z</time>
      </trkpt>
      <trkpt lat="45.01596" lon="3.51934">
        <ele>1028.75</ele>
        <time>2021-08-05T12:03:38Z</time>
      </trkpt>
      <trkpt lat="45.01592" lon="3.51927">
        <ele>1029.71</ele>
        <time>2021-08-05T12:03:44Z</time>
      </trkpt>
      <trkpt lat="45.0159" lon="3.51925">
        <ele>1030.19</ele>
        <time>2021-08-05T12:03:46Z</time>
      </trkpt>
      <trkpt lat="45.01587" lon="3.51923">
        <ele>1030.19</ele>
        <time>2021-08-05T12:03:49Z</time>
      </trkpt>
      <trkpt lat="45.01582" lon="3.51916">
        <ele>1031.15</ele>
        <time>2021-08-05T12:03:55Z</time>
      </trkpt>
      <trkpt lat="45.01566" lon="3.51901">
        <ele>1031.15</ele>
        <time>2021-08-05T12:04:11Z</time>
      </trkpt>
      <trkpt lat="45.01563" lon="3.51898">
        <ele>1032.11</ele>
        <time>2021-08-05T12:04:14Z</time>
      </trkpt>
      <trkpt lat="45.01558" lon="3.51894">
        <ele>1032.59</ele>
        <time>2021-08-05T12:04:19Z</time>
      </trkpt>
      <trkpt lat="45.01554" lon="3.51891">
        <ele>1032.11</ele>
        <time>2021-08-05T12:04:32Z</time>
      </trkpt>
      <trkpt lat="45.01551" lon="3.51887">
        <ele>1033.55</ele>
        <time>2021-08-05T12:04:52Z</time>
      </trkpt>
      <trkpt lat="45.01547" lon="3.51883">
        <ele>1034.04</ele>
        <time>2021-08-05T12:04:57Z</time>
      </trkpt>
      <trkpt lat="45.01532" lon="3.5187">
        <ele>1037.4</ele>
        <time>2021-08-05T12:05:13Z</time>
      </trkpt>
      <trkpt lat="45.01514" lon="3.51856">
        <ele>1041.25</ele>
        <time>2021-08-05T12:05:30Z</time>
      </trkpt>
      <trkpt lat="45.01503" lon="3.51851">
        <ele>1043.17</ele>
        <time>2021-08-05T12:05:41Z</time>
      </trkpt>
      <trkpt lat="45.01476" lon="3.51836">
        <ele>1041.73</ele>
        <time>2021-08-05T12:06:03Z</time>
      </trkpt>
      <trkpt lat="45.01455" lon="3.51823">
        <ele>1040.76</ele>
        <time>2021-08-05T12:06:21Z</time>
      </trkpt>
      <trkpt lat="45.01439" lon="3.51808">
        <ele>1042.69</ele>
        <time>2021-08-05T12:06:37Z</time>
      </trkpt>
      <trkpt lat="45.01427" lon="3.51801">
        <ele>1045.09</ele>
        <time>2021-08-05T12:06:52Z</time>
      </trkpt>
      <trkpt lat="45.01414" lon="3.51795">
        <ele>1047.49</ele>
        <time>2021-08-05T12:07:07Z</time>
      </trkpt>
      <trkpt lat="45.01399" lon="3.51787">
        <ele>1050.38</ele>
        <time>2021-08-05T12:07:22Z</time>
      </trkpt>
      <trkpt lat="45.01397" lon="3.51787">
        <ele>1049.9</ele>
        <time>2021-08-05T12:07:37Z</time>
      </trkpt>
      <trkpt lat="45.01397" lon="3.51787">
        <ele>1049.9</ele>
        <time>2021-08-05T12:07:38Z</time>
      </trkpt>
      <trkpt lat="45.01393" lon="3.51785">
        <ele>1050.38</ele>
        <time>2021-08-05T12:07:43Z</time>
      </trkpt>
      <trkpt lat="45.0138" lon="3.51779">
        <ele>1051.34</ele>
        <time>2021-08-05T12:07:56Z</time>
      </trkpt>
      <trkpt lat="45.01374" lon="3.51778">
        <ele>1050.86</ele>
        <time>2021-08-05T12:08:02Z</time>
      </trkpt>
      <trkpt lat="45.01356" lon="3.5177">
        <ele>1048.45</ele>
        <time>2021-08-05T12:08:17Z</time>
      </trkpt>
      <trkpt lat="45.01352" lon="3.51769">
        <ele>1047.97</ele>
        <time>2021-08-05T12:08:20Z</time>
      </trkpt>
      <trkpt lat="45.01338" lon="3.51758">
        <ele>1047.01</ele>
        <time>2021-08-05T12:08:34Z</time>
      </trkpt>
      <trkpt lat="45.01321" lon="3.51748">
        <ele>1047.01</ele>
        <time>2021-08-05T12:08:50Z</time>
      </trkpt>
      <trkpt lat="45.01319" lon="3.51745">
        <ele>1047.01</ele>
        <time>2021-08-05T12:08:53Z</time>
      </trkpt>
      <trkpt lat="45.01312" lon="3.51742">
        <ele>1047.01</ele>
        <time>2021-08-05T12:08:59Z</time>
      </trkpt>
      <trkpt lat="45.01307" lon="3.51737">
        <ele>1047.01</ele>
        <time>2021-08-05T12:09:04Z</time>
      </trkpt>
      <trkpt lat="45.013" lon="3.51732">
        <ele>1047.01</ele>
        <time>2021-08-05T12:09:10Z</time>
      </trkpt>
      <trkpt lat="45.01283" lon="3.51721">
        <ele>1048.45</ele>
        <time>2021-08-05T12:09:25Z</time>
      </trkpt>
      <trkpt lat="45.01275" lon="3.51717">
        <ele>1048.94</ele>
        <time>2021-08-05T12:09:31Z</time>
      </trkpt>
      <trkpt lat="45.01272" lon="3.51717">
        <ele>1048.94</ele>
        <time>2021-08-05T12:09:33Z</time>
      </trkpt>
      <trkpt lat="45.01263" lon="3.51713">
        <ele>1048.45</ele>
        <time>2021-08-05T12:09:39Z</time>
      </trkpt>
      <trkpt lat="45.01238" lon="3.51702">
        <ele>1046.05</ele>
        <time>2021-08-05T12:09:58Z</time>
      </trkpt>
      <trkpt lat="45.01222" lon="3.51687">
        <ele>1045.57</ele>
        <time>2021-08-05T12:10:13Z</time>
      </trkpt>
      <trkpt lat="45.01205" lon="3.51667">
        <ele>1043.17</ele>
        <time>2021-08-05T12:10:30Z</time>
      </trkpt>
      <trkpt lat="45.01195" lon="3.51647">
        <ele>1043.17</ele>
        <time>2021-08-05T12:10:45Z</time>
      </trkpt>
      <trkpt lat="45.01191" lon="3.51635">
        <ele>1040.28</ele>
        <time>2021-08-05T12:10:59Z</time>
      </trkpt>
      <trkpt lat="45.01182" lon="3.51615">
        <ele>1037.4</ele>
        <time>2021-08-05T12:11:14Z</time>
      </trkpt>
      <trkpt lat="45.01166" lon="3.51594">
        <ele>1034.04</ele>
        <time>2021-08-05T12:11:31Z</time>
      </trkpt>
      <trkpt lat="45.01146" lon="3.51573">
        <ele>1026.83</ele>
        <time>2021-08-05T12:11:50Z</time>
      </trkpt>
      <trkpt lat="45.01134" lon="3.5156">
        <ele>1023.46</ele>
        <time>2021-08-05T12:12:05Z</time>
      </trkpt>
      <trkpt lat="45.01128" lon="3.51553">
        <ele>1022.5</ele>
        <time>2021-08-05T12:12:18Z</time>
      </trkpt>
      <trkpt lat="45.01115" lon="3.51534">
        <ele>1022.5</ele>
        <time>2021-08-05T12:12:33Z</time>
      </trkpt>
      <trkpt lat="45.011" lon="3.51513">
        <ele>1024.42</ele>
        <time>2021-08-05T12:12:50Z</time>
      </trkpt>
      <trkpt lat="45.01092" lon="3.515">
        <ele>1024.42</ele>
        <time>2021-08-05T12:13:04Z</time>
      </trkpt>
      <trkpt lat="45.01088" lon="3.51496">
        <ele>1024.42</ele>
        <time>2021-08-05T12:13:09Z</time>
      </trkpt>
      <trkpt lat="45.01078" lon="3.5148">
        <ele>1022.5</ele>
        <time>2021-08-05T12:13:23Z</time>
      </trkpt>
      <trkpt lat="45.01066" lon="3.51464">
        <ele>1021.54</ele>
        <time>2021-08-05T12:13:37Z</time>
      </trkpt>
      <trkpt lat="45.01062" lon="3.51457">
        <ele>1021.06</ele>
        <time>2021-08-05T12:13:43Z</time>
      </trkpt>
      <trkpt lat="45.01053" lon="3.51444">
        <ele>1020.1</ele>
        <time>2021-08-05T12:13:54Z</time>
      </trkpt>
      <trkpt lat="45.01036" lon="3.51424">
        <ele>1020.1</ele>
        <time>2021-08-05T12:14:10Z</time>
      </trkpt>
      <trkpt lat="45.0102" lon="3.51405">
        <ele>1019.13</ele>
        <time>2021-08-05T12:14:27Z</time>
      </trkpt>
      <trkpt lat="45.01019" lon="3.51404">
        <ele>1019.13</ele>
        <time>2021-08-05T12:14:28Z</time>
      </trkpt>
      <trkpt lat="45.01004" lon="3.51386">
        <ele>1015.29</ele>
        <time>2021-08-05T12:14:44Z</time>
      </trkpt>
      <trkpt lat="45.00981" lon="3.51369">
        <ele>1006.16</ele>
        <time>2021-08-05T12:15:01Z</time>
      </trkpt>
      <trkpt lat="45.0096" lon="3.51354">
        <ele>997.51</ele>
        <time>2021-08-05T12:15:18Z</time>
      </trkpt>
      <trkpt lat="45.0095" lon="3.51347">
        <ele>997.51</ele>
        <time>2021-08-05T12:15:33Z</time>
      </trkpt>
      <trkpt lat="45.00928" lon="3.51334">
        <ele>995.1</ele>
        <time>2021-08-05T12:15:51Z</time>
      </trkpt>
      <trkpt lat="45.00925" lon="3.51331">
        <ele>995.1</ele>
        <time>2021-08-05T12:15:54Z</time>
      </trkpt>
      <trkpt lat="45.00904" lon="3.51321">
        <ele>993.18</ele>
        <time>2021-08-05T12:16:12Z</time>
      </trkpt>
      <trkpt lat="45.00879" lon="3.51307">
        <ele>993.18</ele>
        <time>2021-08-05T12:16:32Z</time>
      </trkpt>
      <trkpt lat="45.00866" lon="3.51299">
        <ele>993.18</ele>
        <time>2021-08-05T12:16:49Z</time>
      </trkpt>
      <trkpt lat="45.00857" lon="3.51295">
        <ele>993.66</ele>
        <time>2021-08-05T12:17:04Z</time>
      </trkpt>
      <trkpt lat="45.00835" lon="3.51277">
        <ele>995.1</ele>
        <time>2021-08-05T12:17:23Z</time>
      </trkpt>
      <trkpt lat="45.00816" lon="3.5126">
        <ele>996.06</ele>
        <time>2021-08-05T12:17:41Z</time>
      </trkpt>
      <trkpt lat="45.00804" lon="3.51237">
        <ele>999.43</ele>
        <time>2021-08-05T12:17:58Z</time>
      </trkpt>
      <trkpt lat="45.00803" lon="3.51235">
        <ele>999.43</ele>
        <time>2021-08-05T12:18:00Z</time>
      </trkpt>
      <trkpt lat="45.00801" lon="3.51228">
        <ele>999.43</ele>
        <time>2021-08-05T12:18:04Z</time>
      </trkpt>
      <trkpt lat="45.00792" lon="3.51196">
        <ele>1002.79</ele>
        <time>2021-08-05T12:18:23Z</time>
      </trkpt>
      <trkpt lat="45.00779" lon="3.51176">
        <ele>1002.79</ele>
        <time>2021-08-05T12:18:40Z</time>
      </trkpt>
      <trkpt lat="45.00756" lon="3.51174">
        <ele>1007.12</ele>
        <time>2021-08-05T12:18:58Z</time>
      </trkpt>
      <trkpt lat="45.0074" lon="3.51175">
        <ele>1009.52</ele>
        <time>2021-08-05T12:19:12Z</time>
      </trkpt>
      <trkpt lat="45.00722" lon="3.51179">
        <ele>1011.44</ele>
        <time>2021-08-05T12:19:28Z</time>
      </trkpt>
      <trkpt lat="45.00704" lon="3.51179">
        <ele>1012.41</ele>
        <time>2021-08-05T12:19:44Z</time>
      </trkpt>
      <trkpt lat="45.00692" lon="3.51179">
        <ele>1012.41</ele>
        <time>2021-08-05T12:19:59Z</time>
      </trkpt>
      <trkpt lat="45.00674" lon="3.51183">
        <ele>1015.29</ele>
        <time>2021-08-05T12:20:16Z</time>
      </trkpt>
      <trkpt lat="45.0067" lon="3.51184">
        <ele>1016.25</ele>
        <time>2021-08-05T12:20:21Z</time>
      </trkpt>
      <trkpt lat="45.00667" lon="3.51185">
        <ele>1016.25</ele>
        <time>2021-08-05T12:20:24Z</time>
      </trkpt>
      <trkpt lat="45.00648" lon="3.51189">
        <ele>1017.69</ele>
        <time>2021-08-05T12:20:40Z</time>
      </trkpt>
      <trkpt lat="45.00632" lon="3.51191">
        <ele>1019.62</ele>
        <time>2021-08-05T12:20:54Z</time>
      </trkpt>
      <trkpt lat="45.00626" lon="3.51192">
        <ele>1019.62</ele>
        <time>2021-08-05T12:20:58Z</time>
      </trkpt>
      <trkpt lat="45.00607" lon="3.51189">
        <ele>1022.98</ele>
        <time>2021-08-05T12:21:14Z</time>
      </trkpt>
      <trkpt lat="45.00594" lon="3.51186">
        <ele>1024.9</ele>
        <time>2021-08-05T12:21:24Z</time>
      </trkpt>
      <trkpt lat="45.00578" lon="3.51181">
        <ele>1026.83</ele>
        <time>2021-08-05T12:21:40Z</time>
      </trkpt>
      <trkpt lat="45.00563" lon="3.51175">
        <ele>1027.31</ele>
        <time>2021-08-05T12:21:55Z</time>
      </trkpt>
      <trkpt lat="45.00543" lon="3.51165">
        <ele>1029.23</ele>
        <time>2021-08-05T12:22:13Z</time>
      </trkpt>
      <trkpt lat="45.00524" lon="3.51156">
        <ele>1030.19</ele>
        <time>2021-08-05T12:22:30Z</time>
      </trkpt>
      <trkpt lat="45.00498" lon="3.51142">
        <ele>1030.67</ele>
        <time>2021-08-05T12:22:51Z</time>
      </trkpt>
      <trkpt lat="45.00475" lon="3.51131">
        <ele>1031.15</ele>
        <time>2021-08-05T12:23:10Z</time>
      </trkpt>
      <trkpt lat="45.00453" lon="3.51113">
        <ele>1031.15</ele>
        <time>2021-08-05T12:23:29Z</time>
      </trkpt>
      <trkpt lat="45.00444" lon="3.51102">
        <ele>1031.63</ele>
        <time>2021-08-05T12:23:39Z</time>
      </trkpt>
      <trkpt lat="45.00426" lon="3.51078">
        <ele>1033.55</ele>
        <time>2021-08-05T12:24:00Z</time>
      </trkpt>
      <trkpt lat="45.00412" lon="3.5106">
        <ele>1036.44</ele>
        <time>2021-08-05T12:24:16Z</time>
      </trkpt>
      <trkpt lat="45.00398" lon="3.51041">
        <ele>1038.84</ele>
        <time>2021-08-05T12:24:32Z</time>
      </trkpt>
      <trkpt lat="45.00392" lon="3.51034">
        <ele>1039.32</ele>
        <time>2021-08-05T12:24:38Z</time>
      </trkpt>
      <trkpt lat="45.00389" lon="3.51031">
        <ele>1039.8</ele>
        <time>2021-08-05T12:24:42Z</time>
      </trkpt>
      <trkpt lat="45.00378" lon="3.51019">
        <ele>1041.25</ele>
        <time>2021-08-05T12:24:58Z</time>
      </trkpt>
      <trkpt lat="45.00366" lon="3.51005">
        <ele>1042.21</ele>
        <time>2021-08-05T12:25:15Z</time>
      </trkpt>
      <trkpt lat="45.00361" lon="3.50995">
        <ele>1043.65</ele>
        <time>2021-08-05T12:25:28Z</time>
      </trkpt>
      <trkpt lat="45.00361" lon="3.50994">
        <ele>1043.65</ele>
        <time>2021-08-05T12:25:29Z</time>
      </trkpt>
      <trkpt lat="45.00352" lon="3.50976">
        <ele>1040.76</ele>
        <time>2021-08-05T12:25:44Z</time>
      </trkpt>
      <trkpt lat="45.00346" lon="3.50963">
        <ele>1038.84</ele>
        <time>2021-08-05T12:25:58Z</time>
      </trkpt>
      <trkpt lat="45.00331" lon="3.50935">
        <ele>1037.88</ele>
        <time>2021-08-05T12:26:17Z</time>
      </trkpt>
      <trkpt lat="45.00316" lon="3.50908">
        <ele>1037.88</ele>
        <time>2021-08-05T12:26:35Z</time>
      </trkpt>
      <trkpt lat="45.00299" lon="3.50878">
        <ele>1037.4</ele>
        <time>2021-08-05T12:26:55Z</time>
      </trkpt>
      <trkpt lat="45.00281" lon="3.50849">
        <ele>1036.92</ele>
        <time>2021-08-05T12:27:15Z</time>
      </trkpt>
      <trkpt lat="45.00258" lon="3.50833">
        <ele>1036.44</ele>
        <time>2021-08-05T12:27:35Z</time>
      </trkpt>
      <trkpt lat="45.00239" lon="3.50824">
        <ele>1037.88</ele>
        <time>2021-08-05T12:27:52Z</time>
      </trkpt>
      <trkpt lat="45.00218" lon="3.50816">
        <ele>1038.84</ele>
        <time>2021-08-05T12:28:09Z</time>
      </trkpt>
      <trkpt lat="45.00199" lon="3.50806">
        <ele>1039.32</ele>
        <time>2021-08-05T12:28:25Z</time>
      </trkpt>
      <trkpt lat="45.00183" lon="3.50796">
        <ele>1040.76</ele>
        <time>2021-08-05T12:28:43Z</time>
      </trkpt>
      <trkpt lat="45.00168" lon="3.50783">
        <ele>1040.28</ele>
        <time>2021-08-05T12:28:59Z</time>
      </trkpt>
      <trkpt lat="45.00153" lon="3.50763">
        <ele>1038.84</ele>
        <time>2021-08-05T12:29:17Z</time>
      </trkpt>
      <trkpt lat="45.00138" lon="3.50743">
        <ele>1036.92</ele>
        <time>2021-08-05T12:29:34Z</time>
      </trkpt>
      <trkpt lat="45.00121" lon="3.50721">
        <ele>1035</ele>
        <time>2021-08-05T12:29:52Z</time>
      </trkpt>
      <trkpt lat="45.00107" lon="3.50701">
        <ele>1034.04</ele>
        <time>2021-08-05T12:30:08Z</time>
      </trkpt>
      <trkpt lat="45.00087" lon="3.50679">
        <ele>1034.04</ele>
        <time>2021-08-05T12:30:28Z</time>
      </trkpt>
      <trkpt lat="45.0007" lon="3.50663">
        <ele>1033.55</ele>
        <time>2021-08-05T12:30:45Z</time>
      </trkpt>
      <trkpt lat="45.00049" lon="3.50654">
        <ele>1033.55</ele>
        <time>2021-08-05T12:31:03Z</time>
      </trkpt>
      <trkpt lat="45.00031" lon="3.50651">
        <ele>1032.11</ele>
        <time>2021-08-05T12:31:19Z</time>
      </trkpt>
      <trkpt lat="45.00024" lon="3.50648">
        <ele>1031.63</ele>
        <time>2021-08-05T12:31:31Z</time>
      </trkpt>
      <trkpt lat="45.00023" lon="3.50648">
        <ele>1031.63</ele>
        <time>2021-08-05T12:31:32Z</time>
      </trkpt>
      <trkpt lat="45.00007" lon="3.50635">
        <ele>1030.67</ele>
        <time>2021-08-05T12:31:47Z</time>
      </trkpt>
      <trkpt lat="44.99992" lon="3.50623">
        <ele>1030.67</ele>
        <time>2021-08-05T12:32:02Z</time>
      </trkpt>
      <trkpt lat="44.99983" lon="3.5061">
        <ele>1029.23</ele>
        <time>2021-08-05T12:32:15Z</time>
      </trkpt>
      <trkpt lat="44.9996" lon="3.5059">
        <ele>1027.79</ele>
        <time>2021-08-05T12:32:35Z</time>
      </trkpt>
      <trkpt lat="44.99943" lon="3.50578">
        <ele>1026.83</ele>
        <time>2021-08-05T12:32:50Z</time>
      </trkpt>
      <trkpt lat="44.99939" lon="3.50578">
        <ele>1025.86</ele>
        <time>2021-08-05T12:33:02Z</time>
      </trkpt>
      <trkpt lat="44.99918" lon="3.50569">
        <ele>1025.38</ele>
        <time>2021-08-05T12:33:22Z</time>
      </trkpt>
      <trkpt lat="44.99905" lon="3.50566">
        <ele>1022.98</ele>
        <time>2021-08-05T12:33:37Z</time>
      </trkpt>
      <trkpt lat="44.99898" lon="3.50563">
        <ele>1021.06</ele>
        <time>2021-08-05T12:33:50Z</time>
      </trkpt>
      <trkpt lat="44.9988" lon="3.50548">
        <ele>1021.06</ele>
        <time>2021-08-05T12:34:06Z</time>
      </trkpt>
      <trkpt lat="44.99856" lon="3.50529">
        <ele>1020.58</ele>
        <time>2021-08-05T12:34:26Z</time>
      </trkpt>
      <trkpt lat="44.9983" lon="3.50509">
        <ele>1019.13</ele>
        <time>2021-08-05T12:34:48Z</time>
      </trkpt>
      <trkpt lat="44.99805" lon="3.50494">
        <ele>1018.65</ele>
        <time>2021-08-05T12:35:09Z</time>
      </trkpt>
      <trkpt lat="44.99786" lon="3.50481">
        <ele>1018.65</ele>
        <time>2021-08-05T12:35:26Z</time>
      </trkpt>
      <trkpt lat="44.99765" lon="3.50472">
        <ele>1019.62</ele>
        <time>2021-08-05T12:35:43Z</time>
      </trkpt>
      <trkpt lat="44.99744" lon="3.50465">
        <ele>1022.98</ele>
        <time>2021-08-05T12:36:01Z</time>
      </trkpt>
      <trkpt lat="44.99727" lon="3.50461">
        <ele>1024.9</ele>
        <time>2021-08-05T12:36:16Z</time>
      </trkpt>
      <trkpt lat="44.99707" lon="3.50455">
        <ele>1026.83</ele>
        <time>2021-08-05T12:36:33Z</time>
      </trkpt>
      <trkpt lat="44.99685" lon="3.50448">
        <ele>1027.31</ele>
        <time>2021-08-05T12:36:51Z</time>
      </trkpt>
      <trkpt lat="44.99666" lon="3.50441">
        <ele>1027.31</ele>
        <time>2021-08-05T12:37:07Z</time>
      </trkpt>
      <trkpt lat="44.99653" lon="3.50431">
        <ele>1029.23</ele>
        <time>2021-08-05T12:37:22Z</time>
      </trkpt>
      <trkpt lat="44.99648" lon="3.50426">
        <ele>1030.19</ele>
        <time>2021-08-05T12:37:27Z</time>
      </trkpt>
      <trkpt lat="44.99633" lon="3.50415">
        <ele>1032.11</ele>
        <time>2021-08-05T12:37:43Z</time>
      </trkpt>
      <trkpt lat="44.99624" lon="3.50411">
        <ele>1032.11</ele>
        <time>2021-08-05T12:37:58Z</time>
      </trkpt>
      <trkpt lat="44.99619" lon="3.5041">
        <ele>1030.19</ele>
        <time>2021-08-05T12:38:11Z</time>
      </trkpt>
      <trkpt lat="44.9961" lon="3.5041">
        <ele>1029.23</ele>
        <time>2021-08-05T12:38:26Z</time>
      </trkpt>
      <trkpt lat="44.99603" lon="3.50403">
        <ele>1030.19</ele>
        <time>2021-08-05T12:38:38Z</time>
      </trkpt>
      <trkpt lat="44.99595" lon="3.50392">
        <ele>1035</ele>
        <time>2021-08-05T12:38:54Z</time>
      </trkpt>
      <trkpt lat="44.99591" lon="3.50385">
        <ele>1037.88</ele>
        <time>2021-08-05T12:39:01Z</time>
      </trkpt>
      <trkpt lat="44.99585" lon="3.50377">
        <ele>1039.32</ele>
        <time>2021-08-05T12:39:06Z</time>
      </trkpt>
      <trkpt lat="44.99563" lon="3.50357">
        <ele>1039.8</ele>
        <time>2021-08-05T12:39:23Z</time>
      </trkpt>
      <trkpt lat="44.99549" lon="3.50344">
        <ele>1039.8</ele>
        <time>2021-08-05T12:39:36Z</time>
      </trkpt>
      <trkpt lat="44.99546" lon="3.50342">
        <ele>1040.28</ele>
        <time>2021-08-05T12:39:38Z</time>
      </trkpt>
      <trkpt lat="44.99527" lon="3.50323">
        <ele>1041.25</ele>
        <time>2021-08-05T12:39:56Z</time>
      </trkpt>
      <trkpt lat="44.99509" lon="3.50309">
        <ele>1039.32</ele>
        <time>2021-08-05T12:40:10Z</time>
      </trkpt>
      <trkpt lat="44.99488" lon="3.50295">
        <ele>1038.36</ele>
        <time>2021-08-05T12:40:27Z</time>
      </trkpt>
      <trkpt lat="44.99468" lon="3.5028">
        <ele>1036.92</ele>
        <time>2021-08-05T12:40:43Z</time>
      </trkpt>
      <trkpt lat="44.99447" lon="3.50268">
        <ele>1037.4</ele>
        <time>2021-08-05T12:40:59Z</time>
      </trkpt>
      <trkpt lat="44.99426" lon="3.50257">
        <ele>1038.84</ele>
        <time>2021-08-05T12:41:16Z</time>
      </trkpt>
      <trkpt lat="44.99403" lon="3.50242">
        <ele>1039.32</ele>
        <time>2021-08-05T12:41:36Z</time>
      </trkpt>
      <trkpt lat="44.99378" lon="3.50225">
        <ele>1040.28</ele>
        <time>2021-08-05T12:41:57Z</time>
      </trkpt>
      <trkpt lat="44.99357" lon="3.50213">
        <ele>1040.76</ele>
        <time>2021-08-05T12:42:14Z</time>
      </trkpt>
      <trkpt lat="44.99332" lon="3.50198">
        <ele>1042.21</ele>
        <time>2021-08-05T12:42:34Z</time>
      </trkpt>
      <trkpt lat="44.99312" lon="3.50183">
        <ele>1044.13</ele>
        <time>2021-08-05T12:42:52Z</time>
      </trkpt>
      <trkpt lat="44.99295" lon="3.50171">
        <ele>1046.53</ele>
        <time>2021-08-05T12:43:12Z</time>
      </trkpt>
      <trkpt lat="44.99287" lon="3.50166">
        <ele>1047.01</ele>
        <time>2021-08-05T12:43:25Z</time>
      </trkpt>
      <trkpt lat="44.99261" lon="3.50148">
        <ele>1048.94</ele>
        <time>2021-08-05T12:43:46Z</time>
      </trkpt>
      <trkpt lat="44.99239" lon="3.50133">
        <ele>1050.86</ele>
        <time>2021-08-05T12:44:07Z</time>
      </trkpt>
      <trkpt lat="44.9921" lon="3.50116">
        <ele>1052.3</ele>
        <time>2021-08-05T12:44:30Z</time>
      </trkpt>
      <trkpt lat="44.99188" lon="3.50102">
        <ele>1053.74</ele>
        <time>2021-08-05T12:44:49Z</time>
      </trkpt>
      <trkpt lat="44.99169" lon="3.50092">
        <ele>1053.74</ele>
        <time>2021-08-05T12:45:06Z</time>
      </trkpt>
      <trkpt lat="44.99151" lon="3.50081">
        <ele>1055.18</ele>
        <time>2021-08-05T12:45:22Z</time>
      </trkpt>
      <trkpt lat="44.99143" lon="3.50077">
        <ele>1056.63</ele>
        <time>2021-08-05T12:45:29Z</time>
      </trkpt>
      <trkpt lat="44.99135" lon="3.50072">
        <ele>1059.51</ele>
        <time>2021-08-05T12:45:38Z</time>
      </trkpt>
      <trkpt lat="44.99118" lon="3.50064">
        <ele>1059.03</ele>
        <time>2021-08-05T12:45:58Z</time>
      </trkpt>
      <trkpt lat="44.99101" lon="3.50058">
        <ele>1059.03</ele>
        <time>2021-08-05T12:46:15Z</time>
      </trkpt>
      <trkpt lat="44.99086" lon="3.50052">
        <ele>1059.03</ele>
        <time>2021-08-05T12:46:34Z</time>
      </trkpt>
      <trkpt lat="44.99059" lon="3.50042">
        <ele>1059.03</ele>
        <time>2021-08-05T12:46:55Z</time>
      </trkpt>
      <trkpt lat="44.99031" lon="3.50041">
        <ele>1060.47</ele>
        <time>2021-08-05T12:47:16Z</time>
      </trkpt>
      <trkpt lat="44.99" lon="3.50044">
        <ele>1061.43</ele>
        <time>2021-08-05T12:47:40Z</time>
      </trkpt>
      <trkpt lat="44.98979" lon="3.50043">
        <ele>1062.87</ele>
        <time>2021-08-05T12:47:57Z</time>
      </trkpt>
      <trkpt lat="44.98975" lon="3.50041">
        <ele>1062.87</ele>
        <time>2021-08-05T12:48:12Z</time>
      </trkpt>
      <trkpt lat="44.98967" lon="3.50016">
        <ele>1063.36</ele>
        <time>2021-08-05T12:48:29Z</time>
      </trkpt>
      <trkpt lat="44.98959" lon="3.49995">
        <ele>1063.84</ele>
        <time>2021-08-05T12:48:42Z</time>
      </trkpt>
      <trkpt lat="44.98954" lon="3.49989">
        <ele>1063.36</ele>
        <time>2021-08-05T12:48:47Z</time>
      </trkpt>
      <trkpt lat="44.98934" lon="3.49964">
        <ele>1063.36</ele>
        <time>2021-08-05T12:49:07Z</time>
      </trkpt>
      <trkpt lat="44.98924" lon="3.49954">
        <ele>1063.84</ele>
        <time>2021-08-05T12:49:19Z</time>
      </trkpt>
      <trkpt lat="44.98923" lon="3.49954">
        <ele>1065.28</ele>
        <time>2021-08-05T12:49:24Z</time>
      </trkpt>
      <trkpt lat="44.98901" lon="3.49937">
        <ele>1065.76</ele>
        <time>2021-08-05T12:49:42Z</time>
      </trkpt>
      <trkpt lat="44.98881" lon="3.49926">
        <ele>1066.24</ele>
        <time>2021-08-05T12:49:58Z</time>
      </trkpt>
      <trkpt lat="44.98865" lon="3.49914">
        <ele>1065.28</ele>
        <time>2021-08-05T12:50:12Z</time>
      </trkpt>
      <trkpt lat="44.98861" lon="3.49911">
        <ele>1064.8</ele>
        <time>2021-08-05T12:50:16Z</time>
      </trkpt>
      <trkpt lat="44.98853" lon="3.49906">
        <ele>1064.8</ele>
        <time>2021-08-05T12:50:33Z</time>
      </trkpt>
      <trkpt lat="44.98843" lon="3.499">
        <ele>1064.32</ele>
        <time>2021-08-05T12:50:47Z</time>
      </trkpt>
      <trkpt lat="44.98823" lon="3.49884">
        <ele>1063.36</ele>
        <time>2021-08-05T12:51:05Z</time>
      </trkpt>
      <trkpt lat="44.98806" lon="3.49869">
        <ele>1063.84</ele>
        <time>2021-08-05T12:51:21Z</time>
      </trkpt>
      <trkpt lat="44.98789" lon="3.49851">
        <ele>1063.36</ele>
        <time>2021-08-05T12:51:38Z</time>
      </trkpt>
      <trkpt lat="44.9877" lon="3.49831">
        <ele>1063.84</ele>
        <time>2021-08-05T12:51:58Z</time>
      </trkpt>
      <trkpt lat="44.98755" lon="3.4981">
        <ele>1065.28</ele>
        <time>2021-08-05T12:52:15Z</time>
      </trkpt>
      <trkpt lat="44.9874" lon="3.49788">
        <ele>1069.6</ele>
        <time>2021-08-05T12:52:33Z</time>
      </trkpt>
      <trkpt lat="44.98727" lon="3.49764">
        <ele>1071.53</ele>
        <time>2021-08-05T12:52:51Z</time>
      </trkpt>
      <trkpt lat="44.98713" lon="3.49737">
        <ele>1072.01</ele>
        <time>2021-08-05T12:53:10Z</time>
      </trkpt>
      <trkpt lat="44.987" lon="3.49717">
        <ele>1071.53</ele>
        <time>2021-08-05T12:53:25Z</time>
      </trkpt>
      <trkpt lat="44.98687" lon="3.49691">
        <ele>1068.64</ele>
        <time>2021-08-05T12:53:43Z</time>
      </trkpt>
      <trkpt lat="44.98685" lon="3.49688">
        <ele>1068.64</ele>
        <time>2021-08-05T12:53:45Z</time>
      </trkpt>
      <trkpt lat="44.98682" lon="3.49683">
        <ele>1068.64</ele>
        <time>2021-08-05T12:53:49Z</time>
      </trkpt>
      <trkpt lat="44.9868" lon="3.49678">
        <ele>1068.64</ele>
        <time>2021-08-05T12:53:52Z</time>
      </trkpt>
      <trkpt lat="44.98667" lon="3.49656">
        <ele>1070.57</ele>
        <time>2021-08-05T12:54:08Z</time>
      </trkpt>
      <trkpt lat="44.98653" lon="3.49626">
        <ele>1071.05</ele>
        <time>2021-08-05T12:54:28Z</time>
      </trkpt>
      <trkpt lat="44.98645" lon="3.49598">
        <ele>1071.53</ele>
        <time>2021-08-05T12:54:45Z</time>
      </trkpt>
      <trkpt lat="44.98639" lon="3.49563">
        <ele>1072.97</ele>
        <time>2021-08-05T12:55:06Z</time>
      </trkpt>
      <trkpt lat="44.98629" lon="3.49534">
        <ele>1072.97</ele>
        <time>2021-08-05T12:55:25Z</time>
      </trkpt>
      <trkpt lat="44.98624" lon="3.49525">
        <ele>1073.93</ele>
        <time>2021-08-05T12:55:38Z</time>
      </trkpt>
      <trkpt lat="44.98623" lon="3.4952">
        <ele>1074.41</ele>
        <time>2021-08-05T12:55:44Z</time>
      </trkpt>
      <trkpt lat="44.98621" lon="3.49514">
        <ele>1074.89</ele>
        <time>2021-08-05T12:55:49Z</time>
      </trkpt>
      <trkpt lat="44.98613" lon="3.49492">
        <ele>1073.93</ele>
        <time>2021-08-05T12:56:04Z</time>
      </trkpt>
      <trkpt lat="44.98606" lon="3.49496">
        <ele>1073.45</ele>
        <time>2021-08-05T12:56:10Z</time>
      </trkpt>
      <trkpt lat="44.98592" lon="3.49535">
        <ele>1074.89</ele>
        <time>2021-08-05T12:56:32Z</time>
      </trkpt>
      <trkpt lat="44.98592" lon="3.49536">
        <ele>1074.89</ele>
        <time>2021-08-05T12:56:33Z</time>
      </trkpt>
      <trkpt lat="44.98591" lon="3.49545">
        <ele>1073.93</ele>
        <time>2021-08-05T12:56:38Z</time>
      </trkpt>
      <trkpt lat="44.9858" lon="3.49579">
        <ele>1073.45</ele>
        <time>2021-08-05T12:56:58Z</time>
      </trkpt>
      <trkpt lat="44.98567" lon="3.49612">
        <ele>1072.49</ele>
        <time>2021-08-05T12:57:19Z</time>
      </trkpt>
      <trkpt lat="44.98552" lon="3.4964">
        <ele>1070.57</ele>
        <time>2021-08-05T12:57:39Z</time>
      </trkpt>
      <trkpt lat="44.98537" lon="3.49667">
        <ele>1068.64</ele>
        <time>2021-08-05T12:57:58Z</time>
      </trkpt>
      <trkpt lat="44.98523" lon="3.49679">
        <ele>1065.76</ele>
        <time>2021-08-05T12:58:13Z</time>
      </trkpt>
      <trkpt lat="44.98508" lon="3.49691">
        <ele>1065.28</ele>
        <time>2021-08-05T12:58:31Z</time>
      </trkpt>
      <trkpt lat="44.98498" lon="3.49692">
        <ele>1067.68</ele>
        <time>2021-08-05T12:58:44Z</time>
      </trkpt>
      <trkpt lat="44.98475" lon="3.49705">
        <ele>1067.2</ele>
        <time>2021-08-05T12:59:04Z</time>
      </trkpt>
      <trkpt lat="44.98457" lon="3.49717">
        <ele>1065.76</ele>
        <time>2021-08-05T12:59:21Z</time>
      </trkpt>
      <trkpt lat="44.98441" lon="3.49723">
        <ele>1066.24</ele>
        <time>2021-08-05T12:59:39Z</time>
      </trkpt>
      <trkpt lat="44.9844" lon="3.49724">
        <ele>1066.24</ele>
        <time>2021-08-05T12:59:40Z</time>
      </trkpt>
      <trkpt lat="44.98437" lon="3.49726">
        <ele>1066.72</ele>
        <time>2021-08-05T12:59:56Z</time>
      </trkpt>
      <trkpt lat="44.98437" lon="3.49725">
        <ele>1066.24</ele>
        <time>2021-08-05T13:00:20Z</time>
      </trkpt>
      <trkpt lat="44.98437" lon="3.49726">
        <ele>1066.72</ele>
        <time>2021-08-05T13:00:47Z</time>
      </trkpt>
      <trkpt lat="44.98437" lon="3.49726">
        <ele>1067.68</ele>
        <time>2021-08-05T13:01:18Z</time>
      </trkpt>
      <trkpt lat="44.98437" lon="3.49727">
        <ele>1068.64</ele>
        <time>2021-08-05T13:01:54Z</time>
      </trkpt>
      <trkpt lat="44.98438" lon="3.49728">
        <ele>1069.12</ele>
        <time>2021-08-05T13:02:22Z</time>
      </trkpt>
      <trkpt lat="44.98437" lon="3.49728">
        <ele>1069.12</ele>
        <time>2021-08-05T13:02:49Z</time>
      </trkpt>
      <trkpt lat="44.98438" lon="3.49729">
        <ele>1068.16</ele>
        <time>2021-08-05T13:03:18Z</time>
      </trkpt>
      <trkpt lat="44.98438" lon="3.4973">
        <ele>1067.68</ele>
        <time>2021-08-05T13:03:40Z</time>
      </trkpt>
      <trkpt lat="44.98437" lon="3.49729">
        <ele>1066.72</ele>
        <time>2021-08-05T13:04:10Z</time>
      </trkpt>
      <trkpt lat="44.98437" lon="3.49729">
        <ele>1066.72</ele>
        <time>2021-08-05T13:04:31Z</time>
      </trkpt>
      <trkpt lat="44.98435" lon="3.4973">
        <ele>1066.24</ele>
        <time>2021-08-05T13:04:47Z</time>
      </trkpt>
      <trkpt lat="44.98435" lon="3.49732">
        <ele>1064.8</ele>
        <time>2021-08-05T13:05:22Z</time>
      </trkpt>
      <trkpt lat="44.98429" lon="3.49734">
        <ele>1064.8</ele>
        <time>2021-08-05T13:05:39Z</time>
      </trkpt>
      <trkpt lat="44.98423" lon="3.49739">
        <ele>1064.32</ele>
        <time>2021-08-05T13:05:53Z</time>
      </trkpt>
      <trkpt lat="44.98419" lon="3.49744">
        <ele>1064.8</ele>
        <time>2021-08-05T13:06:06Z</time>
      </trkpt>
      <trkpt lat="44.9841" lon="3.49753">
        <ele>1064.32</ele>
        <time>2021-08-05T13:06:22Z</time>
      </trkpt>
      <trkpt lat="44.98407" lon="3.49761">
        <ele>1064.32</ele>
        <time>2021-08-05T13:06:36Z</time>
      </trkpt>
      <trkpt lat="44.98403" lon="3.49778">
        <ele>1066.24</ele>
        <time>2021-08-05T13:06:51Z</time>
      </trkpt>
      <trkpt lat="44.98399" lon="3.49794">
        <ele>1066.72</ele>
        <time>2021-08-05T13:07:05Z</time>
      </trkpt>
      <trkpt lat="44.98397" lon="3.49811">
        <ele>1066.24</ele>
        <time>2021-08-05T13:07:20Z</time>
      </trkpt>
      <trkpt lat="44.98396" lon="3.49823">
        <ele>1067.2</ele>
        <time>2021-08-05T13:07:33Z</time>
      </trkpt>
      <trkpt lat="44.98399" lon="3.49827">
        <ele>1064.8</ele>
        <time>2021-08-05T13:07:47Z</time>
      </trkpt>
      <trkpt lat="44.98401" lon="3.49819">
        <ele>1063.36</ele>
        <time>2021-08-05T13:08:00Z</time>
      </trkpt>
      <trkpt lat="44.98401" lon="3.49818">
        <ele>1062.87</ele>
        <time>2021-08-05T13:08:14Z</time>
      </trkpt>
      <trkpt lat="44.98405" lon="3.49826">
        <ele>1062.87</ele>
        <time>2021-08-05T13:08:30Z</time>
      </trkpt>
      <trkpt lat="44.98406" lon="3.49826">
        <ele>1062.39</ele>
        <time>2021-08-05T13:08:44Z</time>
      </trkpt>
      <trkpt lat="44.98406" lon="3.49826">
        <ele>1062.39</ele>
        <time>2021-08-05T13:08:45Z</time>
      </trkpt>
      <trkpt lat="44.98403" lon="3.4982">
        <ele>1061.91</ele>
        <time>2021-08-05T13:08:51Z</time>
      </trkpt>
      <trkpt lat="44.98391" lon="3.49812">
        <ele>1061.43</ele>
        <time>2021-08-05T13:09:05Z</time>
      </trkpt>
      <trkpt lat="44.98384" lon="3.49805">
        <ele>1060.47</ele>
        <time>2021-08-05T13:09:15Z</time>
      </trkpt>
      <trkpt lat="44.98384" lon="3.49802">
        <ele>1060.47</ele>
        <time>2021-08-05T13:09:18Z</time>
      </trkpt>
      <trkpt lat="44.98384" lon="3.4979">
        <ele>1059.51</ele>
        <time>2021-08-05T13:09:32Z</time>
      </trkpt>
      <trkpt lat="44.98384" lon="3.49786">
        <ele>1059.51</ele>
        <time>2021-08-05T13:09:46Z</time>
      </trkpt>
      <trkpt lat="44.98381" lon="3.49778">
        <ele>1060.47</ele>
        <time>2021-08-05T13:10:01Z</time>
      </trkpt>
      <trkpt lat="44.98379" lon="3.49781">
        <ele>1061.43</ele>
        <time>2021-08-05T13:10:19Z</time>
      </trkpt>
      <trkpt lat="44.98378" lon="3.49779">
        <ele>1060.95</ele>
        <time>2021-08-05T13:10:38Z</time>
      </trkpt>
      <trkpt lat="44.98379" lon="3.49778">
        <ele>1060.95</ele>
        <time>2021-08-05T13:10:50Z</time>
      </trkpt>
      <trkpt lat="44.98378" lon="3.49777">
        <ele>1060.95</ele>
        <time>2021-08-05T13:11:18Z</time>
      </trkpt>
      <trkpt lat="44.98378" lon="3.49776">
        <ele>1061.43</ele>
        <time>2021-08-05T13:11:39Z</time>
      </trkpt>
      <trkpt lat="44.98378" lon="3.4978">
        <ele>1061.43</ele>
        <time>2021-08-05T13:11:52Z</time>
      </trkpt>
      <trkpt lat="44.98381" lon="3.49779">
        <ele>1059.51</ele>
        <time>2021-08-05T13:12:05Z</time>
      </trkpt>
      <trkpt lat="44.9838" lon="3.49783">
        <ele>1061.43</ele>
        <time>2021-08-05T13:12:18Z</time>
      </trkpt>
      <trkpt lat="44.9838" lon="3.49784">
        <ele>1062.87</ele>
        <time>2021-08-05T13:12:29Z</time>
      </trkpt>
      <trkpt lat="44.98379" lon="3.49785">
        <ele>1063.84</ele>
        <time>2021-08-05T13:12:46Z</time>
      </trkpt>
      <trkpt lat="44.98379" lon="3.49785">
        <ele>1063.84</ele>
        <time>2021-08-05T13:13:14Z</time>
      </trkpt>
      <trkpt lat="44.98379" lon="3.49784">
        <ele>1063.36</ele>
        <time>2021-08-05T13:13:46Z</time>
      </trkpt>
      <trkpt lat="44.98379" lon="3.49786">
        <ele>1063.36</ele>
        <time>2021-08-05T13:14:26Z</time>
      </trkpt>
      <trkpt lat="44.98378" lon="3.49787">
        <ele>1062.39</ele>
        <time>2021-08-05T13:14:53Z</time>
      </trkpt>
      <trkpt lat="44.98378" lon="3.49787">
        <ele>1061.43</ele>
        <time>2021-08-05T13:15:14Z</time>
      </trkpt>
      <trkpt lat="44.98379" lon="3.49787">
        <ele>1061.91</ele>
        <time>2021-08-05T13:15:42Z</time>
      </trkpt>
      <trkpt lat="44.98381" lon="3.49788">
        <ele>1061.91</ele>
        <time>2021-08-05T13:16:13Z</time>
      </trkpt>
      <trkpt lat="44.98382" lon="3.49788">
        <ele>1061.91</ele>
        <time>2021-08-05T13:16:36Z</time>
      </trkpt>
      <trkpt lat="44.98382" lon="3.49789">
        <ele>1060.95</ele>
        <time>2021-08-05T13:17:07Z</time>
      </trkpt>
      <trkpt lat="44.98381" lon="3.49789">
        <ele>1060.95</ele>
        <time>2021-08-05T13:17:27Z</time>
      </trkpt>
      <trkpt lat="44.9838" lon="3.4979">
        <ele>1061.43</ele>
        <time>2021-08-05T13:17:53Z</time>
      </trkpt>
      <trkpt lat="44.98379" lon="3.4979">
        <ele>1061.43</ele>
        <time>2021-08-05T13:18:17Z</time>
      </trkpt>
    </trkseg>
  </trk>
</gpx>